Darstellungsparameter: Aktuell verwendete Einstellungen:
Skalierung der Graphiken ... ?
xyx+y,   Skalierungsfaktor:      Skalierung: Modus: x, Faktor: 1
Darstellungszeitraum ... ?
Vom - - bis: - -   Zeitraum: 21.12.2018 - 20.06.2019
Min/Max/Avg-Anzeige ... ?
Zeige MMA aktuell
Zeige MMA Monat
Zeige MMA alles
Zeige --A aktuell
Zeige --A Monat
Zeige --A alles
Keine MMA-Anzeige
MMA:
Minimum Maximum Average (ber die Originaldaten)
MMA-Basis: 14.04.2020 - 16.05.2020
Quicknavigation für Darstellung... ?
Tage:      1T, 2T, 3T, 5T -1T -2T -3T -5T +1T +2T +3T +5T
Wochen: 1W, 2W, 3W -1W -2W -3W +1W +2W +3W
Monate: 1M, 3M, 6M -1M -3M -6M +1M +3M +6M
Jahre:    1J, 3J, 5J, 10J -1J -3J -5J -10J +1J +3J +5J +10J
Nutze für die Darstellung ... ?
Originaldaten oder Mittelwerte auf ...
Stundenbasis Tagesbasis Wochenbasis
Monatsbasis Jahresbasis      Datenbasis: Original-Daten
Darstellen als:
Statistik (Auto) Statistik J:M      Darstellung:
Zur Graphik,    zurück zur Übersicht aller Sensoren.
 
Tabellarische Datenbersicht: ?
 
Sensor: Nr:Datum:Temp:Abs-Feuchte:Windchill:Wind:
Aussen-T/F 1 21-12-2018 00:00:00 8.6 C 7.39 g/m*3 6.05 C 16.1 km/h
2 21-12-2018 00:05:00 8.6 C 7.39 g/m*3 6.05 C 16.1 km/h
3 21-12-2018 00:10:00 8.6 C 7.39 g/m*3 6.25 C 14.5 km/h
4 21-12-2018 00:15:00 8.6 C 7.39 g/m*3 7.75 C 6.4 km/h
5 21-12-2018 00:20:00 8.6 C 7.39 g/m*3 7.01 C 9.7 km/h
6 21-12-2018 00:25:00 8.6 C 7.39 g/m*3 6.73 C 11.3 km/h
7 21-12-2018 00:30:00 8.6 C 7.3 g/m*3 7.34 C 8.1 km/h
8 21-12-2018 00:35:00 8.7 C 7.35 g/m*3 6.17 C 16.1 km/h
9 21-12-2018 00:40:00 8.7 C 7.35 g/m*3 6.6 C 12.9 km/h
10 21-12-2018 00:45:00 8.7 C 7.35 g/m*3 7.13 C 9.7 km/h
11 21-12-2018 00:50:00 8.7 C 7.35 g/m*3 6.85 C 11.3 km/h
12 21-12-2018 00:55:00 8.7 C 7.35 g/m*3 6.6 C 12.9 km/h
13 21-12-2018 01:00:00 8.7 C 7.35 g/m*3 7.87 C 6.4 km/h
14 21-12-2018 01:05:00 8.7 C 7.35 g/m*3 6.85 C 11.3 km/h
15 21-12-2018 01:10:00 8.7 C 7.35 g/m*3 7.13 C 9.7 km/h
16 21-12-2018 01:15:00 8.7 C 7.26 g/m*3 6.85 C 11.3 km/h
17 21-12-2018 01:20:00 8.8 C 7.31 g/m*3 6.5 C 14.5 km/h
18 21-12-2018 01:25:00 8.8 C 7.31 g/m*3 6.72 C 12.9 km/h
19 21-12-2018 01:30:00 8.8 C 7.31 g/m*3 7.25 C 9.7 km/h
20 21-12-2018 01:35:00 8.8 C 7.31 g/m*3 6.72 C 12.9 km/h
21 21-12-2018 01:40:00 8.8 C 7.4 g/m*3 6.97 C 11.3 km/h
22 21-12-2018 01:45:00 8.7 C 7.35 g/m*3 7.13 C 9.7 km/h
23 21-12-2018 01:50:00 8.6 C 7.3 g/m*3 5.86 C 17.7 km/h
24 21-12-2018 01:55:00 8.6 C 7.3 g/m*3 5.86 C 17.7 km/h
25 21-12-2018 02:00:00 8.6 C 7.22 g/m*3 7.34 C 8.1 km/h
Sensor: Nr:Datum:Temp:Abs-Feuchte:Windchill:Wind:
Aussen-T/F 26 21-12-2018 02:05:00 8.6 C 7.22 g/m*3 6.73 C 11.3 km/h
27 21-12-2018 02:10:00 8.7 C 7.26 g/m*3 7.46 C 8.1 km/h
28 21-12-2018 02:15:00 8.7 C 7.18 g/m*3 8.7 C 4.8 km/h
29 21-12-2018 02:20:00 8.7 C 7.18 g/m*3 6.6 C 12.9 km/h
30 21-12-2018 02:25:00 8.8 C 7.22 g/m*3 7.25 C 9.7 km/h
31 21-12-2018 02:30:00 8.8 C 7.22 g/m*3 6.3 C 16.1 km/h
32 21-12-2018 02:35:00 8.8 C 7.22 g/m*3 5.48 C 24.1 km/h
33 21-12-2018 02:40:00 8.9 C 7.18 g/m*3 6.62 C 14.5 km/h
34 21-12-2018 02:45:00 8.9 C 7.18 g/m*3 8.1 C 6.4 km/h
35 21-12-2018 02:50:00 8.9 C 7.27 g/m*3 7.69 C 8.1 km/h
36 21-12-2018 02:55:00 8.9 C 7.18 g/m*3 6.85 C 12.9 km/h
37 21-12-2018 03:00:00 9 C 7.32 g/m*3 6.36 C 17.7 km/h
38 21-12-2018 03:05:00 9 C 7.23 g/m*3 7.21 C 11.3 km/h
39 21-12-2018 03:10:00 9.1 C 7.36 g/m*3 7.61 C 9.7 km/h
40 21-12-2018 03:15:00 9 C 7.23 g/m*3 6.36 C 17.7 km/h
41 21-12-2018 03:20:00 9.1 C 7.28 g/m*3 7.09 C 12.9 km/h
42 21-12-2018 03:25:00 9.1 C 7.28 g/m*3 8.33 C 6.4 km/h
43 21-12-2018 03:30:00 9.1 C 7.28 g/m*3 7.93 C 8.1 km/h
44 21-12-2018 03:35:00 9.1 C 7.36 g/m*3 8.33 C 6.4 km/h
45 21-12-2018 03:40:00 9.1 C 7.28 g/m*3 7.33 C 11.3 km/h
46 21-12-2018 03:45:00 9.1 C 7.28 g/m*3 9.1 C 3.2 km/h
47 21-12-2018 03:50:00 9.1 C 7.28 g/m*3 9.1 C 3.2 km/h
48 21-12-2018 03:55:00 9.1 C 7.28 g/m*3 7.93 C 8.1 km/h
49 21-12-2018 04:00:00 9.1 C 7.28 g/m*3 8.33 C 6.4 km/h
50 21-12-2018 04:05:00 9.1 C 7.28 g/m*3 9.1 C 3.2 km/h
Sensor: Nr:Datum:Temp:Abs-Feuchte:Windchill:Wind:
Aussen-T/F 51 21-12-2018 04:10:00 9.1 C 7.28 g/m*3 8.33 C 6.4 km/h
52 21-12-2018 04:15:00 9.2 C 7.32 g/m*3 9.2 C 4.8 km/h
53 21-12-2018 04:20:00 9.2 C 7.32 g/m*3 8.45 C 6.4 km/h
54 21-12-2018 04:25:00 9.2 C 7.32 g/m*3 7.73 C 9.7 km/h
55 21-12-2018 04:30:00 9.2 C 7.32 g/m*3 9.2 C 3.2 km/h
56 21-12-2018 04:35:00 9.2 C 7.32 g/m*3 9.2 C 4.8 km/h
57 21-12-2018 04:40:00 9.2 C 7.32 g/m*3 9.2 C 3.2 km/h
58 21-12-2018 04:45:00 9.2 C 7.32 g/m*3 9.2 C 4.8 km/h
59 21-12-2018 04:50:00 9.2 C 7.32 g/m*3 9.2 C 4.8 km/h
60 21-12-2018 04:55:00 9.2 C 7.32 g/m*3 9.2 C 1.6 km/h
61 21-12-2018 05:00:00 9.2 C 7.32 g/m*3 9.2 C 4.8 km/h
62 21-12-2018 05:05:00 9.2 C 7.32 g/m*3 8.45 C 6.4 km/h
63 21-12-2018 05:10:00 9.2 C 7.32 g/m*3 9.2 C 3.2 km/h
64 21-12-2018 05:15:00 9.1 C 7.28 g/m*3 8.33 C 6.4 km/h
65 21-12-2018 05:20:00 9.1 C 7.36 g/m*3 9.1 C 1.6 km/h
66 21-12-2018 05:25:00 9.1 C 7.36 g/m*3 9.1 C 1.6 km/h
67 21-12-2018 05:30:00 9.1 C 7.36 g/m*3 9.1 C 4.8 km/h
68 21-12-2018 05:35:00 9.2 C 7.5 g/m*3 8.45 C 6.4 km/h
69 21-12-2018 05:40:00 9.2 C 7.5 g/m*3 9.2 C 4.8 km/h
70 21-12-2018 05:45:00 9.2 C 7.5 g/m*3 8.05 C 8.1 km/h
71 21-12-2018 05:50:00 9.2 C 7.59 g/m*3 9.2 C 4.8 km/h
72 21-12-2018 05:55:00 9.1 C 7.63 g/m*3 9.1 C 4.8 km/h
73 21-12-2018 06:00:00 9 C 7.67 g/m*3 8.21 C 6.4 km/h
74 21-12-2018 06:05:00 8.9 C 7.71 g/m*3 8.9 C 4.8 km/h
75 21-12-2018 06:10:00 8.8 C 7.75 g/m*3 8.8 C 4.8 km/h
Sensor: Nr:Datum:Temp:Abs-Feuchte:Windchill:Wind:
Aussen-T/F 76 21-12-2018 06:15:00 8.7 C 7.78 g/m*3 8.7 C 3.2 km/h
77 21-12-2018 06:20:00 8.6 C 7.73 g/m*3 7.34 C 8.1 km/h
78 21-12-2018 06:25:00 8.6 C 7.82 g/m*3 8.6 C 3.2 km/h
79 21-12-2018 06:30:00 8.5 C 7.77 g/m*3 8.5 C 0 km/h
80 21-12-2018 06:35:00 8.4 C 7.8 g/m*3 8.4 C 1.6 km/h
81 21-12-2018 06:40:00 8.3 C 7.75 g/m*3 8.3 C 3.2 km/h
82 21-12-2018 06:45:00 8.3 C 7.75 g/m*3 8.3 C 3.2 km/h
83 21-12-2018 06:50:00 8.2 C 7.79 g/m*3 8.2 C 0 km/h
84 21-12-2018 06:55:00 8.2 C 7.79 g/m*3 8.2 C 3.2 km/h
85 21-12-2018 07:00:00 8.1 C 7.74 g/m*3 8.1 C 1.6 km/h
86 21-12-2018 07:05:00 8.1 C 7.74 g/m*3 8.1 C 3.2 km/h
87 21-12-2018 07:10:00 8 C 7.69 g/m*3 8 C 0 km/h
88 21-12-2018 07:15:00 7.9 C 7.64 g/m*3 7.9 C 4.8 km/h
89 21-12-2018 07:20:00 7.8 C 7.67 g/m*3 6.83 C 6.4 km/h
90 21-12-2018 07:25:00 7.8 C 7.67 g/m*3 7.8 C 3.2 km/h
91 21-12-2018 07:30:00 7.8 C 7.67 g/m*3 6.4 C 8.1 km/h
92 21-12-2018 07:35:00 7.8 C 7.67 g/m*3 7.8 C 1.6 km/h
93 21-12-2018 07:40:00 7.8 C 7.67 g/m*3 7.8 C 1.6 km/h
94 21-12-2018 07:45:00 7.8 C 7.67 g/m*3 7.8 C 3.2 km/h
95 21-12-2018 07:50:00 7.8 C 7.67 g/m*3 7.8 C 3.2 km/h
96 21-12-2018 07:55:00 7.8 C 7.67 g/m*3 7.8 C 1.6 km/h
97 21-12-2018 08:00:00 7.8 C 7.67 g/m*3 6.83 C 6.4 km/h
98 21-12-2018 08:05:00 7.9 C 7.8 g/m*3 6.94 C 6.4 km/h
99 21-12-2018 08:10:00 8 C 7.85 g/m*3 8 C 0 km/h
100 21-12-2018 08:15:00 8.1 C 7.9 g/m*3 7.17 C 6.4 km/h
Sensor: Nr:Datum:Temp:Abs-Feuchte:Windchill:Wind:
Aussen-T/F 101 21-12-2018 08:20:00 8.1 C 7.82 g/m*3 8.1 C 0 km/h
102 21-12-2018 08:25:00 8.1 C 7.9 g/m*3 8.1 C 1.6 km/h
103 21-12-2018 08:30:00 8.1 C 7.9 g/m*3 8.1 C 3.2 km/h
104 21-12-2018 08:35:00 8.2 C 7.96 g/m*3 6.87 C 8.1 km/h
105 21-12-2018 08:40:00 8.2 C 7.96 g/m*3 8.2 C 1.6 km/h
106 21-12-2018 08:45:00 8.3 C 8.01 g/m*3 8.3 C 3.2 km/h
107 21-12-2018 08:50:00 8.4 C 8.06 g/m*3 6.78 C 9.7 km/h
108 21-12-2018 08:55:00 8.5 C 8.11 g/m*3 8.5 C 4.8 km/h
109 21-12-2018 09:00:00 8.6 C 8.16 g/m*3 8.6 C 3.2 km/h
110 21-12-2018 09:05:00 8.7 C 8.22 g/m*3 8.7 C 3.2 km/h
111 21-12-2018 09:10:00 8.8 C 8.27 g/m*3 8.8 C 1.6 km/h
112 21-12-2018 09:15:00 8.8 C 8.27 g/m*3 7.98 C 6.4 km/h
113 21-12-2018 09:20:00 8.8 C 8.27 g/m*3 8.8 C 3.2 km/h
114 21-12-2018 09:25:00 8.9 C 8.32 g/m*3 8.9 C 4.8 km/h
115 21-12-2018 09:30:00 8.9 C 8.32 g/m*3 8.9 C 4.8 km/h
116 21-12-2018 09:35:00 8.9 C 8.32 g/m*3 8.1 C 6.4 km/h
117 21-12-2018 09:40:00 9.1 C 8.43 g/m*3 8.33 C 6.4 km/h
118 21-12-2018 09:45:00 9.1 C 8.34 g/m*3 9.1 C 4.8 km/h
119 21-12-2018 09:50:00 9.2 C 8.39 g/m*3 9.2 C 4.8 km/h
120 21-12-2018 09:55:00 9.2 C 8.39 g/m*3 9.2 C 4.8 km/h
121 21-12-2018 10:00:00 9.3 C 8.45 g/m*3 9.3 C 3.2 km/h
122 21-12-2018 10:05:00 9.3 C 8.45 g/m*3 9.3 C 4.8 km/h
123 21-12-2018 10:10:00 9.3 C 8.45 g/m*3 9.3 C 3.2 km/h
124 21-12-2018 10:15:00 9.4 C 8.5 g/m*3 7.97 C 9.7 km/h
125 21-12-2018 10:20:00 9.5 C 8.56 g/m*3 8.4 C 8.1 km/h
Sensor: Nr:Datum:Temp:Abs-Feuchte:Windchill:Wind:
Aussen-T/F 126 21-12-2018 10:25:00 9.6 C 8.61 g/m*3 7.48 C 14.5 km/h
127 21-12-2018 10:30:00 9.7 C 8.67 g/m*3 7.82 C 12.9 km/h
128 21-12-2018 10:35:00 9.8 C 8.72 g/m*3 7.54 C 16.1 km/h
129 21-12-2018 10:40:00 9.8 C 8.72 g/m*3 7.54 C 16.1 km/h
130 21-12-2018 10:45:00 9.9 C 8.68 g/m*3 6.76 C 25.7 km/h
131 21-12-2018 10:50:00 10.1 C 8.79 g/m*3 7.28 C 22.5 km/h
132 21-12-2018 10:55:00 10.1 C 8.79 g/m*3 7.73 C 17.7 km/h
133 21-12-2018 11:00:00 10.2 C 8.85 g/m*3 7.4 C 22.5 km/h
134 21-12-2018 11:05:00 10.2 C 8.85 g/m*3 8.03 C 16.1 km/h
135 21-12-2018 11:10:00 10.3 C 8.91 g/m*3 7.82 C 19.3 km/h
136 21-12-2018 11:15:00 10.3 C 8.91 g/m*3 7.03 C 29 km/h
137 21-12-2018 11:20:00 10.4 C 8.96 g/m*3 7.16 C 29 km/h
138 21-12-2018 11:25:00 10.5 C 8.92 g/m*3 6.99 C 33.8 km/h
139 21-12-2018 11:30:00 10.6 C 8.98 g/m*3 7.78 C 24.1 km/h
140 21-12-2018 11:35:00 10.7 C 9.04 g/m*3 7.66 C 27.4 km/h
141 21-12-2018 11:40:00 10.7 C 9.04 g/m*3 7.91 C 24.1 km/h
142 21-12-2018 11:45:00 10.8 C 9.09 g/m*3 8.04 C 24.1 km/h
143 21-12-2018 11:50:00 10.9 C 9.05 g/m*3 8.05 C 25.7 km/h
144 21-12-2018 11:55:00 10.9 C 9.05 g/m*3 7.81 C 29 km/h
145 21-12-2018 12:00:00 11 C 9.11 g/m*3 7.56 C 35.4 km/h
146 21-12-2018 12:05:00 11 C 9.11 g/m*3 8.42 C 22.5 km/h
147 21-12-2018 12:10:00 11.1 C 9.17 g/m*3 11.1 C 25.7 km/h
148 21-12-2018 12:15:00 11.2 C 9.22 g/m*3 11.2 C 20.9 km/h
149 21-12-2018 12:20:00 11.2 C 9.22 g/m*3 11.2 C 22.5 km/h
150 21-12-2018 12:25:00 11.3 C 9.28 g/m*3 11.3 C 25.7 km/h
Sensor: Nr:Datum:Temp:Abs-Feuchte:Windchill:Wind:
Aussen-T/F 151 21-12-2018 12:30:00 11.4 C 9.34 g/m*3 11.4 C 24.1 km/h
152 21-12-2018 12:35:00 11.4 C 9.34 g/m*3 11.4 C 27.4 km/h
153 21-12-2018 12:40:00 11.5 C 9.4 g/m*3 11.5 C 22.5 km/h
154 21-12-2018 12:45:00 11.6 C 9.46 g/m*3 11.6 C 25.7 km/h
155 21-12-2018 12:50:00 11.7 C 9.52 g/m*3 11.7 C 19.3 km/h
156 21-12-2018 12:55:00 11.7 C 9.52 g/m*3 11.7 C 12.9 km/h
157 21-12-2018 13:00:00 11.7 C 9.52 g/m*3 11.7 C 17.7 km/h
158 21-12-2018 13:05:00 11.8 C 9.58 g/m*3 11.8 C 17.7 km/h
159 21-12-2018 13:10:00 11.8 C 9.58 g/m*3 11.8 C 17.7 km/h
160 21-12-2018 13:15:00 11.9 C 9.64 g/m*3 11.9 C 19.3 km/h
161 21-12-2018 13:20:00 11.9 C 9.64 g/m*3 11.9 C 19.3 km/h
162 21-12-2018 13:25:00 11.9 C 9.64 g/m*3 11.9 C 24.1 km/h
163 21-12-2018 13:30:00 11.9 C 9.64 g/m*3 11.9 C 16.1 km/h
164 21-12-2018 13:35:00 12 C 9.7 g/m*3 12 C 22.5 km/h
165 21-12-2018 13:40:00 12 C 9.7 g/m*3 12 C 25.7 km/h
166 21-12-2018 13:45:00 12 C 9.7 g/m*3 12 C 19.3 km/h
167 21-12-2018 13:50:00 12 C 9.7 g/m*3 12 C 17.7 km/h
168 21-12-2018 13:55:00 11.9 C 9.74 g/m*3 11.9 C 16.1 km/h
169 21-12-2018 14:00:00 11.9 C 9.74 g/m*3 11.9 C 14.5 km/h
170 21-12-2018 14:05:00 11.8 C 9.68 g/m*3 11.8 C 11.3 km/h
171 21-12-2018 14:10:00 11.8 C 9.79 g/m*3 11.8 C 11.3 km/h
172 21-12-2018 14:15:00 11.9 C 9.85 g/m*3 11.9 C 19.3 km/h
173 21-12-2018 14:20:00 11.9 C 9.85 g/m*3 11.9 C 12.9 km/h
174 21-12-2018 14:25:00 12 C 9.8 g/m*3 12 C 19.3 km/h
175 21-12-2018 14:30:00 12.1 C 9.87 g/m*3 12.1 C 14.5 km/h
Sensor: Nr:Datum:Temp:Abs-Feuchte:Windchill:Wind:
Aussen-T/F 176 21-12-2018 14:35:00 12.2 C 9.82 g/m*3 12.2 C 24.1 km/h
177 21-12-2018 14:40:00 12.3 C 9.88 g/m*3 12.3 C 22.5 km/h
178 21-12-2018 14:45:00 12.4 C 9.94 g/m*3 12.4 C 22.5 km/h
179 21-12-2018 14:50:00 12.5 C 10 g/m*3 12.5 C 20.9 km/h
180 21-12-2018 14:55:00 12.6 C 9.96 g/m*3 12.6 C 20.9 km/h
181 21-12-2018 15:00:00 12.6 C 9.96 g/m*3 12.6 C 17.7 km/h
182 21-12-2018 15:05:00 12.7 C 9.91 g/m*3 12.7 C 20.9 km/h
183 21-12-2018 15:10:00 12.7 C 9.91 g/m*3 12.7 C 19.3 km/h
184 21-12-2018 15:15:00 12.7 C 9.91 g/m*3 12.7 C 20.9 km/h
185 21-12-2018 15:20:00 12.7 C 9.91 g/m*3 12.7 C 11.3 km/h
186 21-12-2018 15:25:00 12.7 C 9.91 g/m*3 12.7 C 14.5 km/h
187 21-12-2018 15:30:00 12.8 C 9.86 g/m*3 12.8 C 24.1 km/h
188 21-12-2018 15:35:00 12.8 C 9.86 g/m*3 12.8 C 14.5 km/h
189 21-12-2018 15:40:00 12.9 C 9.81 g/m*3 12.9 C 19.3 km/h
190 21-12-2018 15:45:00 12.9 C 9.81 g/m*3 12.9 C 12.9 km/h
191 21-12-2018 15:50:00 12.9 C 9.81 g/m*3 12.9 C 22.5 km/h
192 21-12-2018 15:55:00 12.9 C 9.81 g/m*3 12.9 C 17.7 km/h
193 21-12-2018 16:00:00 13 C 9.75 g/m*3 13 C 17.7 km/h
194 21-12-2018 16:05:00 13.1 C 9.81 g/m*3 13.1 C 22.5 km/h
195 21-12-2018 16:10:00 13.1 C 9.81 g/m*3 13.1 C 22.5 km/h
196 21-12-2018 16:15:00 13.1 C 9.7 g/m*3 13.1 C 17.7 km/h
197 21-12-2018 16:20:00 13.2 C 9.76 g/m*3 13.2 C 19.3 km/h
198 21-12-2018 16:25:00 13.2 C 9.76 g/m*3 13.2 C 22.5 km/h
199 21-12-2018 16:30:00 13.2 C 9.76 g/m*3 13.2 C 22.5 km/h
200 21-12-2018 16:35:00 13.3 C 9.7 g/m*3 13.3 C 25.7 km/h
Sensor: Nr:Datum:Temp:Abs-Feuchte:Windchill:Wind:
Aussen-T/F 201 21-12-2018 16:40:00 13.3 C 9.7 g/m*3 13.3 C 30.6 km/h
202 21-12-2018 16:45:00 13.3 C 9.59 g/m*3 13.3 C 20.9 km/h
203 21-12-2018 16:50:00 13.3 C 9.7 g/m*3 13.3 C 19.3 km/h
204 21-12-2018 16:55:00 13.3 C 9.7 g/m*3 13.3 C 17.7 km/h
205 21-12-2018 17:00:00 13.3 C 9.7 g/m*3 13.3 C 17.7 km/h
206 21-12-2018 17:05:00 13.3 C 9.7 g/m*3 13.3 C 20.9 km/h
207 21-12-2018 17:10:00 13.3 C 9.7 g/m*3 13.3 C 11.3 km/h
208 21-12-2018 17:15:00 13.3 C 9.7 g/m*3 13.3 C 11.3 km/h
209 21-12-2018 17:20:00 13.3 C 9.59 g/m*3 13.3 C 16.1 km/h
210 21-12-2018 17:25:00 13.4 C 9.65 g/m*3 13.4 C 16.1 km/h
211 21-12-2018 17:30:00 13.4 C 9.65 g/m*3 13.4 C 14.5 km/h
212 21-12-2018 17:35:00 13.4 C 9.65 g/m*3 13.4 C 16.1 km/h
213 21-12-2018 17:40:00 13.3 C 9.59 g/m*3 13.3 C 9.7 km/h
214 21-12-2018 17:45:00 13.4 C 9.65 g/m*3 13.4 C 16.1 km/h
215 21-12-2018 17:50:00 13.4 C 9.53 g/m*3 13.4 C 22.5 km/h
216 21-12-2018 17:55:00 13.5 C 9.59 g/m*3 13.5 C 17.7 km/h
217 21-12-2018 18:00:00 13.5 C 9.59 g/m*3 13.5 C 16.1 km/h
218 21-12-2018 18:05:00 13.4 C 9.53 g/m*3 13.4 C 16.1 km/h
219 21-12-2018 18:10:00 13.4 C 9.53 g/m*3 13.4 C 14.5 km/h
220 21-12-2018 18:15:00 13.4 C 9.53 g/m*3 13.4 C 12.9 km/h
221 21-12-2018 18:20:00 13.4 C 9.53 g/m*3 13.4 C 11.3 km/h
222 21-12-2018 18:25:00 13.4 C 9.53 g/m*3 13.4 C 11.3 km/h
223 21-12-2018 18:30:00 13.4 C 9.53 g/m*3 13.4 C 14.5 km/h
224 21-12-2018 18:35:00 13.3 C 9.47 g/m*3 13.3 C 8.1 km/h
225 21-12-2018 18:40:00 13.3 C 9.47 g/m*3 13.3 C 9.7 km/h
Sensor: Nr:Datum:Temp:Abs-Feuchte:Windchill:Wind:
Aussen-T/F 226 21-12-2018 18:45:00 13.3 C 9.59 g/m*3 13.3 C 8.1 km/h
227 21-12-2018 18:50:00 13.2 C 9.53 g/m*3 13.2 C 14.5 km/h
228 21-12-2018 18:55:00 13.2 C 9.53 g/m*3 13.2 C 16.1 km/h
229 21-12-2018 19:00:00 13.2 C 9.42 g/m*3 13.2 C 8.1 km/h
230 21-12-2018 19:05:00 13.2 C 9.42 g/m*3 13.2 C 11.3 km/h
231 21-12-2018 19:10:00 13.2 C 9.42 g/m*3 13.2 C 12.9 km/h
232 21-12-2018 19:15:00 13.2 C 9.42 g/m*3 13.2 C 11.3 km/h
233 21-12-2018 19:20:00 13.2 C 9.42 g/m*3 13.2 C 12.9 km/h
234 21-12-2018 19:25:00 13.2 C 9.42 g/m*3 13.2 C 11.3 km/h
235 21-12-2018 19:30:00 13.2 C 9.3 g/m*3 13.2 C 9.7 km/h
236 21-12-2018 19:35:00 13.1 C 9.24 g/m*3 13.1 C 11.3 km/h
237 21-12-2018 19:40:00 13.1 C 9.24 g/m*3 13.1 C 9.7 km/h
238 21-12-2018 19:45:00 13.1 C 9.13 g/m*3 13.1 C 11.3 km/h
239 21-12-2018 19:50:00 13.1 C 9.24 g/m*3 13.1 C 8.1 km/h
240 21-12-2018 19:55:00 13 C 9.07 g/m*3 13 C 9.7 km/h
241 21-12-2018 20:00:00 13 C 9.19 g/m*3 13 C 6.4 km/h
242 21-12-2018 20:05:00 13 C 9.19 g/m*3 13 C 8.1 km/h
243 21-12-2018 20:10:00 13 C 9.3 g/m*3 13 C 4.8 km/h
244 21-12-2018 20:15:00 13 C 9.3 g/m*3 13 C 6.4 km/h
245 21-12-2018 20:20:00 12.9 C 9.24 g/m*3 12.9 C 4.8 km/h
246 21-12-2018 20:25:00 12.9 C 9.24 g/m*3 12.9 C 11.3 km/h
247 21-12-2018 20:30:00 12.8 C 9.18 g/m*3 12.8 C 12.9 km/h
248 21-12-2018 20:35:00 12.8 C 9.18 g/m*3 12.8 C 8.1 km/h
249 21-12-2018 20:40:00 12.8 C 9.18 g/m*3 12.8 C 4.8 km/h
250 21-12-2018 20:45:00 12.8 C 9.3 g/m*3 12.8 C 8.1 km/h
Sensor: Nr:Datum:Temp:Abs-Feuchte:Windchill:Wind:
Aussen-T/F 251 21-12-2018 20:50:00 12.8 C 9.3 g/m*3 12.8 C 8.1 km/h
252 21-12-2018 20:55:00 12.8 C 9.3 g/m*3 12.8 C 6.4 km/h
253 21-12-2018 21:00:00 12.7 C 9.24 g/m*3 12.7 C 11.3 km/h
254 21-12-2018 21:05:00 12.7 C 9.24 g/m*3 12.7 C 8.1 km/h
255 21-12-2018 21:10:00 12.7 C 9.24 g/m*3 12.7 C 4.8 km/h
256 21-12-2018 21:15:00 12.7 C 9.24 g/m*3 12.7 C 4.8 km/h
257 21-12-2018 21:20:00 12.6 C 9.18 g/m*3 12.6 C 12.9 km/h
258 21-12-2018 21:25:00 12.6 C 9.18 g/m*3 12.6 C 3.2 km/h
259 21-12-2018 21:30:00 12.5 C 9.24 g/m*3 12.5 C 9.7 km/h
260 21-12-2018 21:35:00 12.4 C 9.18 g/m*3 12.4 C 6.4 km/h
261 21-12-2018 21:40:00 12.4 C 9.07 g/m*3 12.4 C 12.9 km/h
262 21-12-2018 21:45:00 12.5 C 9.02 g/m*3 12.5 C 14.5 km/h
263 21-12-2018 21:50:00 12.6 C 9.07 g/m*3 12.6 C 8.1 km/h
264 21-12-2018 21:55:00 12.6 C 9.07 g/m*3 12.6 C 12.9 km/h
265 21-12-2018 22:00:00 12.7 C 9.13 g/m*3 12.7 C 9.7 km/h
266 21-12-2018 22:05:00 12.7 C 9.02 g/m*3 12.7 C 8.1 km/h
267 21-12-2018 22:10:00 12.6 C 8.96 g/m*3 12.6 C 8.1 km/h
268 21-12-2018 22:15:00 12.7 C 9.02 g/m*3 12.7 C 9.7 km/h
269 21-12-2018 22:20:00 12.7 C 8.91 g/m*3 12.7 C 12.9 km/h
270 21-12-2018 22:25:00 12.7 C 8.91 g/m*3 12.7 C 9.7 km/h
271 21-12-2018 22:30:00 12.7 C 8.79 g/m*3 12.7 C 11.3 km/h
272 21-12-2018 22:35:00 12.7 C 8.68 g/m*3 12.7 C 14.5 km/h
273 21-12-2018 22:40:00 12.7 C 8.57 g/m*3 12.7 C 19.3 km/h
274 21-12-2018 22:45:00 12.7 C 8.57 g/m*3 12.7 C 19.3 km/h
275 21-12-2018 22:50:00 12.7 C 8.46 g/m*3 12.7 C 19.3 km/h
Sensor: Nr:Datum:Temp:Abs-Feuchte:Windchill:Wind:
Aussen-T/F 276 21-12-2018 22:55:00 12.6 C 8.41 g/m*3 12.6 C 8.1 km/h
277 21-12-2018 23:00:00 12.6 C 8.41 g/m*3 12.6 C 16.1 km/h
278 21-12-2018 23:05:00 12.5 C 8.36 g/m*3 12.5 C 8.1 km/h
279 21-12-2018 23:10:00 12.4 C 8.3 g/m*3 12.4 C 14.5 km/h
280 21-12-2018 23:15:00 12.4 C 8.3 g/m*3 12.4 C 14.5 km/h
281 21-12-2018 23:20:00 12.3 C 8.25 g/m*3 12.3 C 11.3 km/h
282 21-12-2018 23:25:00 12.3 C 8.25 g/m*3 12.3 C 6.4 km/h
283 21-12-2018 23:30:00 12.3 C 8.36 g/m*3 12.3 C 9.7 km/h
284 21-12-2018 23:35:00 12.2 C 8.31 g/m*3 12.2 C 12.9 km/h
285 21-12-2018 23:40:00 12.2 C 8.31 g/m*3 12.2 C 9.7 km/h
286 21-12-2018 23:45:00 12.1 C 8.26 g/m*3 12.1 C 11.3 km/h
287 21-12-2018 23:50:00 12.1 C 8.36 g/m*3 12.1 C 8.1 km/h
288 21-12-2018 23:55:00 12 C 8.31 g/m*3 12 C 11.3 km/h
289 22-12-2018 00:00:00 11.9 C 8.26 g/m*3 11.9 C 9.7 km/h
290 22-12-2018 00:05:00 11.9 C 8.26 g/m*3 11.9 C 8.1 km/h
291 22-12-2018 00:10:00 11.9 C 8.26 g/m*3 11.9 C 8.1 km/h
292 22-12-2018 00:15:00 11.8 C 8.31 g/m*3 11.8 C 6.4 km/h
293 22-12-2018 00:20:00 11.7 C 8.26 g/m*3 11.7 C 11.3 km/h
294 22-12-2018 00:25:00 11.7 C 8.26 g/m*3 11.7 C 9.7 km/h
295 22-12-2018 00:30:00 11.6 C 8.21 g/m*3 11.6 C 9.7 km/h
296 22-12-2018 00:35:00 11.6 C 8.32 g/m*3 11.6 C 4.8 km/h
297 22-12-2018 00:40:00 11.5 C 8.26 g/m*3 11.5 C 9.7 km/h
298 22-12-2018 00:45:00 11.5 C 8.37 g/m*3 11.5 C 4.8 km/h
299 22-12-2018 00:50:00 11.4 C 8.31 g/m*3 11.4 C 8.1 km/h
300 22-12-2018 00:55:00 11.4 C 8.31 g/m*3 11.4 C 6.4 km/h
Sensor: Nr:Datum:Temp:Abs-Feuchte:Windchill:Wind:
Aussen-T/F 301 22-12-2018 01:00:00 11.4 C 8.31 g/m*3 11.4 C 9.7 km/h
302 22-12-2018 01:05:00 11.3 C 8.36 g/m*3 11.3 C 8.1 km/h
303 22-12-2018 01:10:00 11.3 C 8.36 g/m*3 11.3 C 6.4 km/h
304 22-12-2018 01:15:00 11.3 C 8.36 g/m*3 11.3 C 1.6 km/h
305 22-12-2018 01:20:00 11.2 C 8.41 g/m*3 11.2 C 3.2 km/h
306 22-12-2018 01:25:00 11.2 C 8.41 g/m*3 11.2 C 6.4 km/h
307 22-12-2018 01:30:00 11.1 C 8.36 g/m*3 11.1 C 6.4 km/h
308 22-12-2018 01:35:00 11.1 C 8.46 g/m*3 11.1 C 6.4 km/h
309 22-12-2018 01:40:00 11 C 8.41 g/m*3 10.16 C 8.1 km/h
310 22-12-2018 01:45:00 11 C 8.31 g/m*3 9.88 C 9.7 km/h
311 22-12-2018 01:50:00 11 C 8.31 g/m*3 10.16 C 8.1 km/h
312 22-12-2018 01:55:00 11.1 C 8.26 g/m*3 11.1 C 8.1 km/h
313 22-12-2018 02:00:00 11.1 C 8.16 g/m*3 11.1 C 11.3 km/h
314 22-12-2018 02:05:00 11.2 C 8.11 g/m*3 11.2 C 9.7 km/h
315 22-12-2018 02:10:00 11.2 C 8.01 g/m*3 11.2 C 14.5 km/h
316 22-12-2018 02:15:00 11.2 C 7.91 g/m*3 11.2 C 12.9 km/h
317 22-12-2018 02:20:00 11.3 C 7.96 g/m*3 11.3 C 14.5 km/h
318 22-12-2018 02:25:00 11.2 C 7.91 g/m*3 11.2 C 8.1 km/h
319 22-12-2018 02:30:00 11.2 C 8.01 g/m*3 11.2 C 9.7 km/h
320 22-12-2018 02:35:00 11.2 C 8.01 g/m*3 11.2 C 11.3 km/h
321 22-12-2018 02:40:00 11.1 C 7.96 g/m*3 11.1 C 9.7 km/h
322 22-12-2018 02:45:00 11 C 7.91 g/m*3 9.88 C 9.7 km/h
323 22-12-2018 02:50:00 10.9 C 7.86 g/m*3 8.9 C 16.1 km/h
324 22-12-2018 02:55:00 10.9 C 7.96 g/m*3 10.41 C 6.4 km/h
325 22-12-2018 03:00:00 10.8 C 7.91 g/m*3 8.96 C 14.5 km/h
Sensor: Nr:Datum:Temp:Abs-Feuchte:Windchill:Wind:
Aussen-T/F 326 22-12-2018 03:05:00 10.8 C 7.91 g/m*3 10.29 C 6.4 km/h
327 22-12-2018 03:10:00 10.8 C 8.01 g/m*3 10.8 C 3.2 km/h
328 22-12-2018 03:15:00 10.8 C 8.01 g/m*3 10.29 C 6.4 km/h
329 22-12-2018 03:20:00 10.7 C 7.96 g/m*3 10.7 C 4.8 km/h
330 22-12-2018 03:25:00 10.7 C 8.05 g/m*3 10.18 C 6.4 km/h
331 22-12-2018 03:30:00 10.7 C 8.05 g/m*3 9.52 C 9.7 km/h
332 22-12-2018 03:35:00 10.7 C 7.96 g/m*3 9.04 C 12.9 km/h
333 22-12-2018 03:40:00 10.8 C 7.91 g/m*3 8.3 C 20.9 km/h
334 22-12-2018 03:45:00 10.8 C 7.81 g/m*3 9.93 C 8.1 km/h
335 22-12-2018 03:50:00 10.8 C 7.81 g/m*3 9.93 C 8.1 km/h
336 22-12-2018 03:55:00 10.9 C 7.96 g/m*3 9.51 C 11.3 km/h
337 22-12-2018 04:00:00 10.9 C 7.96 g/m*3 9.08 C 14.5 km/h
338 22-12-2018 04:05:00 11 C 8.01 g/m*3 9.88 C 9.7 km/h
339 22-12-2018 04:10:00 11 C 8.01 g/m*3 9.88 C 9.7 km/h
340 22-12-2018 04:15:00 11 C 8.01 g/m*3 9.4 C 12.9 km/h
341 22-12-2018 04:20:00 11.1 C 8.06 g/m*3 11.1 C 11.3 km/h
342 22-12-2018 04:25:00 11.2 C 8.11 g/m*3 11.2 C 19.3 km/h
343 22-12-2018 04:30:00 11.2 C 8.11 g/m*3 11.2 C 12.9 km/h
344 22-12-2018 04:35:00 11.2 C 8.01 g/m*3 11.2 C 11.3 km/h
345 22-12-2018 04:40:00 11.2 C 8.11 g/m*3 11.2 C 9.7 km/h
346 22-12-2018 04:45:00 11.2 C 8.11 g/m*3 11.2 C 9.7 km/h
347 22-12-2018 04:50:00 11.2 C 8.11 g/m*3 11.2 C 8.1 km/h
348 22-12-2018 04:55:00 11.3 C 8.16 g/m*3 11.3 C 14.5 km/h
349 22-12-2018 05:00:00 11.3 C 8.16 g/m*3 11.3 C 8.1 km/h
350 22-12-2018 05:05:00 11.3 C 8.16 g/m*3 11.3 C 12.9 km/h
Sensor: Nr:Datum:Temp:Abs-Feuchte:Windchill:Wind:
Aussen-T/F 351 22-12-2018 05:10:00 11.4 C 8.31 g/m*3 11.4 C 11.3 km/h
352 22-12-2018 05:15:00 11.3 C 8.36 g/m*3 11.3 C 16.1 km/h
353 22-12-2018 05:20:00 11.3 C 8.57 g/m*3 11.3 C 11.3 km/h
354 22-12-2018 05:25:00 11.1 C 8.66 g/m*3 11.1 C 6.4 km/h
355 22-12-2018 05:30:00 10.8 C 8.6 g/m*3 9.64 C 9.7 km/h
356 22-12-2018 05:35:00 10.6 C 8.59 g/m*3 10.06 C 6.4 km/h
357 22-12-2018 05:40:00 10.5 C 8.53 g/m*3 9.28 C 9.7 km/h
358 22-12-2018 05:45:00 10.4 C 8.58 g/m*3 8.47 C 14.5 km/h
359 22-12-2018 05:50:00 10.4 C 8.58 g/m*3 8.67 C 12.9 km/h
360 22-12-2018 05:55:00 10.4 C 8.58 g/m*3 8.28 C 16.1 km/h
361 22-12-2018 06:00:00 10.4 C 8.58 g/m*3 8.67 C 12.9 km/h
362 22-12-2018 06:05:00 10.4 C 8.58 g/m*3 8.28 C 16.1 km/h
363 22-12-2018 06:10:00 10.5 C 8.73 g/m*3 9.28 C 9.7 km/h
364 22-12-2018 06:15:00 10.5 C 8.73 g/m*3 8.59 C 14.5 km/h
365 22-12-2018 06:20:00 10.5 C 8.73 g/m*3 9.02 C 11.3 km/h
366 22-12-2018 06:30:00 10.6 C 8.88 g/m*3 8.71 C 14.5 km/h
367 22-12-2018 06:35:00 10.5 C 8.83 g/m*3 9.02 C 11.3 km/h
368 22-12-2018 06:40:00 10.5 C 8.83 g/m*3 9.02 C 11.3 km/h
369 22-12-2018 06:45:00 10.4 C 8.77 g/m*3 9.46 C 8.1 km/h
370 22-12-2018 06:50:00 10.4 C 8.77 g/m*3 10.4 C 4.8 km/h
371 22-12-2018 06:55:00 10.3 C 8.81 g/m*3 10.3 C 4.8 km/h
372 22-12-2018 07:00:00 10.3 C 8.81 g/m*3 9.72 C 6.4 km/h
373 22-12-2018 07:05:00 10.3 C 8.81 g/m*3 9.72 C 6.4 km/h
374 22-12-2018 07:10:00 10.3 C 8.81 g/m*3 10.3 C 3.2 km/h
375 22-12-2018 07:15:00 10.2 C 8.76 g/m*3 9.22 C 8.1 km/h
Sensor: Nr:Datum:Temp:Abs-Feuchte:Windchill:Wind:
Aussen-T/F 376 22-12-2018 07:20:00 10.2 C 8.76 g/m*3 10.2 C 3.2 km/h
377 22-12-2018 07:25:00 10.2 C 8.76 g/m*3 10.2 C 1.6 km/h
378 22-12-2018 07:30:00 10.2 C 8.76 g/m*3 10.2 C 1.6 km/h
379 22-12-2018 07:35:00 10.2 C 8.76 g/m*3 10.2 C 3.2 km/h
380 22-12-2018 07:40:00 10.2 C 8.76 g/m*3 8.92 C 9.7 km/h
381 22-12-2018 07:45:00 10.2 C 8.66 g/m*3 9.22 C 8.1 km/h
382 22-12-2018 07:50:00 10.2 C 8.66 g/m*3 9.6 C 6.4 km/h
383 22-12-2018 07:55:00 10.3 C 8.71 g/m*3 9.34 C 8.1 km/h
384 22-12-2018 08:00:00 10.3 C 8.62 g/m*3 9.34 C 8.1 km/h
385 22-12-2018 08:05:00 10.4 C 8.58 g/m*3 9.46 C 8.1 km/h
386 22-12-2018 08:10:00 10.6 C 8.69 g/m*3 9.69 C 8.1 km/h
387 22-12-2018 08:15:00 10.6 C 8.69 g/m*3 9.4 C 9.7 km/h
388 22-12-2018 08:20:00 10.7 C 8.64 g/m*3 9.52 C 9.7 km/h
389 22-12-2018 08:25:00 10.7 C 8.55 g/m*3 8.84 C 14.5 km/h
390 22-12-2018 08:30:00 10.8 C 8.6 g/m*3 9.16 C 12.9 km/h
391 22-12-2018 08:35:00 10.8 C 8.5 g/m*3 9.93 C 8.1 km/h
392 22-12-2018 08:40:00 10.9 C 8.55 g/m*3 9.76 C 9.7 km/h
393 22-12-2018 08:45:00 10.9 C 8.45 g/m*3 9.28 C 12.9 km/h
394 22-12-2018 08:50:00 11 C 8.51 g/m*3 9.63 C 11.3 km/h
395 22-12-2018 08:55:00 10.9 C 8.45 g/m*3 9.76 C 9.7 km/h
396 22-12-2018 09:00:00 10.9 C 8.36 g/m*3 9.28 C 12.9 km/h
397 22-12-2018 09:05:00 10.9 C 8.26 g/m*3 9.28 C 12.9 km/h
398 22-12-2018 09:10:00 11.1 C 8.26 g/m*3 11.1 C 9.7 km/h
399 22-12-2018 09:15:00 11.1 C 8.26 g/m*3 11.1 C 11.3 km/h
400 22-12-2018 09:20:00 11.2 C 8.31 g/m*3 11.2 C 12.9 km/h
Sensor: Nr:Datum:Temp:Abs-Feuchte:Windchill:Wind:
Aussen-T/F 401 22-12-2018 09:25:00 11.2 C 8.21 g/m*3 11.2 C 9.7 km/h
402 22-12-2018 09:30:00 11.2 C 8.21 g/m*3 11.2 C 16.1 km/h
403 22-12-2018 09:35:00 11.2 C 8.41 g/m*3 11.2 C 12.9 km/h
404 22-12-2018 09:40:00 11.1 C 8.46 g/m*3 11.1 C 12.9 km/h
405 22-12-2018 09:45:00 10.8 C 8.5 g/m*3 9.93 C 8.1 km/h
406 22-12-2018 09:50:00 10.6 C 8.49 g/m*3 8.71 C 14.5 km/h
407 22-12-2018 09:55:00 10.1 C 8.23 g/m*3 7.91 C 16.1 km/h
408 22-12-2018 10:00:00 9.8 C 8.16 g/m*3 8.18 C 11.3 km/h
409 22-12-2018 10:05:00 9.6 C 8.06 g/m*3 7.7 C 12.9 km/h
410 22-12-2018 10:10:00 9.5 C 8.19 g/m*3 8.79 C 6.4 km/h
411 22-12-2018 10:15:00 9.4 C 8.14 g/m*3 8.28 C 8.1 km/h
412 22-12-2018 10:20:00 9.3 C 8.18 g/m*3 8.16 C 8.1 km/h
413 22-12-2018 10:25:00 9.2 C 8.13 g/m*3 7.46 C 11.3 km/h
414 22-12-2018 10:30:00 9.2 C 8.13 g/m*3 8.45 C 6.4 km/h
415 22-12-2018 10:35:00 9.2 C 8.22 g/m*3 8.05 C 8.1 km/h
416 22-12-2018 10:40:00 9.2 C 8.22 g/m*3 7.46 C 11.3 km/h
417 22-12-2018 10:45:00 9.2 C 8.22 g/m*3 8.45 C 6.4 km/h
418 22-12-2018 10:50:00 9.2 C 8.3 g/m*3 9.2 C 3.2 km/h
419 22-12-2018 10:55:00 9.3 C 8.36 g/m*3 9.3 C 1.6 km/h
420 22-12-2018 11:00:00 9.4 C 8.5 g/m*3 9.4 C 4.8 km/h
421 22-12-2018 11:05:00 9.4 C 8.5 g/m*3 8.28 C 8.1 km/h
422 22-12-2018 11:10:00 9.4 C 8.5 g/m*3 9.4 C 4.8 km/h
423 22-12-2018 11:15:00 9.4 C 8.5 g/m*3 8.28 C 8.1 km/h
424 22-12-2018 11:20:00 9.4 C 8.5 g/m*3 8.68 C 6.4 km/h
425 22-12-2018 11:25:00 9.5 C 8.56 g/m*3 8.09 C 9.7 km/h
Sensor: Nr:Datum:Temp:Abs-Feuchte:Windchill:Wind:
Aussen-T/F 426 22-12-2018 11:30:00 9.6 C 8.61 g/m*3 7.7 C 12.9 km/h
427 22-12-2018 11:35:00 9.6 C 8.52 g/m*3 7.7 C 12.9 km/h
428 22-12-2018 11:40:00 9.6 C 8.43 g/m*3 7.11 C 17.7 km/h
429 22-12-2018 11:45:00 9.6 C 8.34 g/m*3 7.7 C 12.9 km/h
430 22-12-2018 11:50:00 9.7 C 8.3 g/m*3 8.33 C 9.7 km/h
431 22-12-2018 11:55:00 9.7 C 8.3 g/m*3 8.06 C 11.3 km/h
432 22-12-2018 12:00:00 9.8 C 8.35 g/m*3 9.14 C 6.4 km/h
433 22-12-2018 12:05:00 9.8 C 8.26 g/m*3 7.54 C 16.1 km/h
434 22-12-2018 12:10:00 9.9 C 8.31 g/m*3 8.87 C 8.1 km/h
435 22-12-2018 12:15:00 9.9 C 8.22 g/m*3 7.85 C 14.5 km/h
436 22-12-2018 12:20:00 9.9 C 8.22 g/m*3 7.85 C 14.5 km/h
437 22-12-2018 12:25:00 10.1 C 8.32 g/m*3 8.8 C 9.7 km/h
438 22-12-2018 12:30:00 10.2 C 8.37 g/m*3 9.22 C 8.1 km/h
439 22-12-2018 12:35:00 10.3 C 8.43 g/m*3 8.55 C 12.9 km/h
440 22-12-2018 12:40:00 10.3 C 8.33 g/m*3 7.98 C 17.7 km/h
441 22-12-2018 12:45:00 10.5 C 8.34 g/m*3 9.28 C 9.7 km/h
442 22-12-2018 12:50:00 10.7 C 8.35 g/m*3 8.65 C 16.1 km/h
443 22-12-2018 12:55:00 10.8 C 8.3 g/m*3 9.64 C 9.7 km/h
444 22-12-2018 13:00:00 10.9 C 8.45 g/m*3 10.04 C 8.1 km/h
445 22-12-2018 13:05:00 10.9 C 8.36 g/m*3 10.04 C 8.1 km/h
446 22-12-2018 13:10:00 11 C 8.51 g/m*3 9.88 C 9.7 km/h
447 22-12-2018 13:15:00 11 C 8.41 g/m*3 9.88 C 9.7 km/h
448 22-12-2018 13:20:00 10.9 C 8.26 g/m*3 9.28 C 12.9 km/h
449 22-12-2018 13:25:00 11 C 8.21 g/m*3 9.21 C 14.5 km/h
450 22-12-2018 13:30:00 11.1 C 8.26 g/m*3 11.1 C 9.7 km/h
Sensor: Nr:Datum:Temp:Abs-Feuchte:Windchill:Wind:
Aussen-T/F 451 22-12-2018 13:35:00 11.1 C 8.26 g/m*3 11.1 C 12.9 km/h
452 22-12-2018 13:40:00 11.2 C 8.21 g/m*3 11.2 C 14.5 km/h
453 22-12-2018 13:45:00 11.2 C 8.11 g/m*3 11.2 C 12.9 km/h
454 22-12-2018 13:50:00 11.3 C 8.26 g/m*3 11.3 C 12.9 km/h
455 22-12-2018 13:55:00 11.3 C 8.16 g/m*3 11.3 C 16.1 km/h
456 22-12-2018 14:00:00 11.4 C 8.21 g/m*3 11.4 C 16.1 km/h
457 22-12-2018 14:05:00 11.4 C 8.21 g/m*3 11.4 C 14.5 km/h
458 22-12-2018 14:10:00 11.4 C 8.11 g/m*3 11.4 C 22.5 km/h
459 22-12-2018 14:15:00 11.4 C 8.21 g/m*3 11.4 C 12.9 km/h
460 22-12-2018 14:20:00 11.4 C 8.21 g/m*3 11.4 C 9.7 km/h
461 22-12-2018 14:25:00 11.4 C 8.11 g/m*3 11.4 C 12.9 km/h
462 22-12-2018 14:30:00 11.3 C 8.16 g/m*3 11.3 C 11.3 km/h
463 22-12-2018 14:35:00 11.2 C 8.11 g/m*3 11.2 C 9.7 km/h
464 22-12-2018 14:40:00 11.2 C 8.11 g/m*3 11.2 C 8.1 km/h
465 22-12-2018 14:45:00 11.1 C 8.06 g/m*3 11.1 C 11.3 km/h
466 22-12-2018 14:50:00 11.1 C 8.06 g/m*3 11.1 C 9.7 km/h
467 22-12-2018 14:55:00 11.1 C 8.06 g/m*3 11.1 C 9.7 km/h
468 22-12-2018 15:00:00 11.1 C 8.06 g/m*3 11.1 C 11.3 km/h
469 22-12-2018 15:05:00 11.1 C 8.06 g/m*3 11.1 C 9.7 km/h
470 22-12-2018 15:10:00 11.1 C 8.16 g/m*3 11.1 C 4.8 km/h
471 22-12-2018 15:15:00 11.1 C 8.26 g/m*3 11.1 C 8.1 km/h
472 22-12-2018 15:20:00 11 C 8.01 g/m*3 9.63 C 11.3 km/h
473 22-12-2018 15:25:00 11 C 7.91 g/m*3 10.52 C 6.4 km/h
474 22-12-2018 15:30:00 11.1 C 7.96 g/m*3 11.1 C 6.4 km/h
475 22-12-2018 15:35:00 11.1 C 7.96 g/m*3 11.1 C 9.7 km/h
Sensor: Nr:Datum:Temp:Abs-Feuchte:Windchill:Wind:
Aussen-T/F 476 22-12-2018 15:40:00 11 C 7.91 g/m*3 9.88 C 9.7 km/h
477 22-12-2018 15:45:00 10.9 C 7.86 g/m*3 10.41 C 6.4 km/h
478 22-12-2018 15:50:00 10.9 C 7.86 g/m*3 9.76 C 9.7 km/h
479 22-12-2018 15:55:00 10.8 C 7.81 g/m*3 10.29 C 6.4 km/h
480 22-12-2018 16:00:00 10.8 C 7.81 g/m*3 10.29 C 6.4 km/h
481 22-12-2018 16:05:00 10.7 C 7.86 g/m*3 9.81 C 8.1 km/h
482 22-12-2018 16:10:00 10.7 C 7.86 g/m*3 9.52 C 9.7 km/h
483 22-12-2018 16:15:00 10.6 C 8 g/m*3 10.6 C 3.2 km/h
484 22-12-2018 16:20:00 10.4 C 7.9 g/m*3 9.16 C 9.7 km/h
485 22-12-2018 16:25:00 10.3 C 7.85 g/m*3 8.55 C 12.9 km/h
486 22-12-2018 16:30:00 10.3 C 7.95 g/m*3 8.78 C 11.3 km/h
487 22-12-2018 16:35:00 10.2 C 7.9 g/m*3 9.22 C 8.1 km/h
488 22-12-2018 16:40:00 10.1 C 7.85 g/m*3 10.1 C 4.8 km/h
489 22-12-2018 16:45:00 10 C 7.8 g/m*3 10 C 3.2 km/h
490 22-12-2018 16:50:00 9.8 C 7.79 g/m*3 9.8 C 3.2 km/h
491 22-12-2018 16:55:00 9.7 C 7.74 g/m*3 7.82 C 12.9 km/h
492 22-12-2018 17:00:00 9.6 C 7.79 g/m*3 8.91 C 6.4 km/h
493 22-12-2018 17:05:00 9.4 C 7.69 g/m*3 7.7 C 11.3 km/h
494 22-12-2018 17:10:00 9.3 C 7.64 g/m*3 8.16 C 8.1 km/h
495 22-12-2018 17:15:00 9.3 C 7.64 g/m*3 8.56 C 6.4 km/h
496 22-12-2018 17:20:00 9.3 C 7.64 g/m*3 8.56 C 6.4 km/h
497 22-12-2018 17:25:00 9.3 C 7.64 g/m*3 7.58 C 11.3 km/h
498 22-12-2018 17:30:00 9.3 C 7.64 g/m*3 9.3 C 3.2 km/h
499 22-12-2018 17:35:00 9.2 C 7.59 g/m*3 9.2 C 3.2 km/h
500 22-12-2018 17:40:00 9.1 C 7.63 g/m*3 8.33 C 6.4 km/h
Sensor: Nr:Datum:Temp:Abs-Feuchte:Windchill:Wind:
Aussen-T/F 501 22-12-2018 17:45:00 8.9 C 7.53 g/m*3 8.1 C 6.4 km/h
502 22-12-2018 17:50:00 8.9 C 7.62 g/m*3 8.1 C 6.4 km/h
503 22-12-2018 17:55:00 8.8 C 7.57 g/m*3 8.8 C 3.2 km/h
504 22-12-2018 18:00:00 8.8 C 7.57 g/m*3 7.98 C 6.4 km/h
505 22-12-2018 18:05:00 8.7 C 7.52 g/m*3 8.7 C 3.2 km/h
506 22-12-2018 18:10:00 8.6 C 7.56 g/m*3 8.6 C 3.2 km/h
507 22-12-2018 18:15:00 8.6 C 7.56 g/m*3 8.6 C 4.8 km/h
508 22-12-2018 18:20:00 8.6 C 7.56 g/m*3 8.6 C 4.8 km/h
509 22-12-2018 18:25:00 8.6 C 7.56 g/m*3 8.6 C 4.8 km/h
510 22-12-2018 18:30:00 8.6 C 7.56 g/m*3 7.75 C 6.4 km/h
511 22-12-2018 18:35:00 8.5 C 7.51 g/m*3 8.5 C 3.2 km/h
512 22-12-2018 18:40:00 8.4 C 7.55 g/m*3 8.4 C 4.8 km/h
513 22-12-2018 18:45:00 8.4 C 7.55 g/m*3 8.4 C 4.8 km/h
514 22-12-2018 18:50:00 8.3 C 7.5 g/m*3 8.3 C 1.6 km/h
515 22-12-2018 18:55:00 8.3 C 7.5 g/m*3 8.3 C 3.2 km/h
516 22-12-2018 19:00:00 8.2 C 7.45 g/m*3 8.2 C 1.6 km/h
517 22-12-2018 19:05:00 8.1 C 7.49 g/m*3 8.1 C 1.6 km/h
518 22-12-2018 19:10:00 8 C 7.44 g/m*3 8 C 1.6 km/h
519 22-12-2018 19:15:00 7.9 C 7.39 g/m*3 7.9 C 3.2 km/h
520 22-12-2018 19:20:00 7.9 C 7.47 g/m*3 7.9 C 4.8 km/h
521 22-12-2018 19:25:00 8 C 7.52 g/m*3 8 C 4.8 km/h
522 22-12-2018 19:30:00 8.1 C 7.57 g/m*3 8.1 C 4.8 km/h
523 22-12-2018 19:35:00 8.1 C 7.57 g/m*3 8.1 C 3.2 km/h
524 22-12-2018 19:40:00 8.1 C 7.57 g/m*3 8.1 C 3.2 km/h
525 22-12-2018 19:45:00 8.1 C 7.57 g/m*3 8.1 C 1.6 km/h
Sensor: Nr:Datum:Temp:Abs-Feuchte:Windchill:Wind:
Aussen-T/F 526 22-12-2018 19:50:00 8.1 C 7.57 g/m*3 8.1 C 3.2 km/h
527 22-12-2018 19:55:00 8.1 C 7.57 g/m*3 7.17 C 6.4 km/h
528 22-12-2018 20:00:00 8.2 C 7.54 g/m*3 8.2 C 4.8 km/h
529 22-12-2018 20:05:00 8.2 C 7.54 g/m*3 8.2 C 4.8 km/h
530 22-12-2018 20:10:00 8.1 C 7.49 g/m*3 8.1 C 3.2 km/h
531 22-12-2018 20:15:00 8 C 7.44 g/m*3 8 C 3.2 km/h
532 22-12-2018 20:20:00 7.9 C 7.39 g/m*3 7.9 C 3.2 km/h
533 22-12-2018 20:25:00 7.8 C 7.35 g/m*3 7.8 C 3.2 km/h
534 22-12-2018 20:30:00 7.8 C 7.43 g/m*3 6.83 C 6.4 km/h
535 22-12-2018 20:35:00 7.7 C 7.38 g/m*3 7.7 C 3.2 km/h
536 22-12-2018 20:40:00 7.6 C 7.33 g/m*3 7.6 C 4.8 km/h
537 22-12-2018 20:45:00 7.7 C 7.46 g/m*3 7.7 C 4.8 km/h
538 22-12-2018 20:50:00 7.6 C 7.41 g/m*3 7.6 C 3.2 km/h
539 22-12-2018 20:55:00 7.6 C 7.41 g/m*3 7.6 C 3.2 km/h
540 22-12-2018 21:00:00 7.6 C 7.41 g/m*3 7.6 C 3.2 km/h
541 22-12-2018 21:05:00 7.6 C 7.41 g/m*3 7.6 C 3.2 km/h
542 22-12-2018 21:10:00 7.5 C 7.36 g/m*3 7.5 C 3.2 km/h
543 22-12-2018 21:15:00 7.5 C 7.36 g/m*3 7.5 C 4.8 km/h
544 22-12-2018 21:20:00 7.4 C 7.32 g/m*3 7.4 C 3.2 km/h
545 22-12-2018 21:25:00 7.4 C 7.32 g/m*3 7.4 C 3.2 km/h
546 22-12-2018 21:30:00 7.3 C 7.27 g/m*3 7.3 C 1.6 km/h
547 22-12-2018 21:35:00 7.3 C 7.27 g/m*3 7.3 C 4.8 km/h
548 22-12-2018 21:40:00 7.3 C 7.27 g/m*3 6.25 C 6.4 km/h
549 22-12-2018 21:45:00 7.4 C 7.32 g/m*3 7.4 C 3.2 km/h
550 22-12-2018 21:50:00 7.4 C 7.4 g/m*3 6.37 C 6.4 km/h
Sensor: Nr:Datum:Temp:Abs-Feuchte:Windchill:Wind:
Aussen-T/F 551 22-12-2018 21:55:00 7.5 C 7.44 g/m*3 7.5 C 4.8 km/h
552 22-12-2018 22:00:00 7.6 C 7.41 g/m*3 7.6 C 4.8 km/h
553 22-12-2018 22:05:00 7.6 C 7.41 g/m*3 6.16 C 8.1 km/h
554 22-12-2018 22:10:00 7.7 C 7.46 g/m*3 6.28 C 8.1 km/h
555 22-12-2018 22:15:00 7.8 C 7.43 g/m*3 6.83 C 6.4 km/h
556 22-12-2018 22:20:00 7.9 C 7.47 g/m*3 6.94 C 6.4 km/h
557 22-12-2018 22:30:00 7.9 C 7.39 g/m*3 7.9 C 4.8 km/h
558 22-12-2018 22:35:00 8 C 7.44 g/m*3 8 C 3.2 km/h
559 22-12-2018 22:40:00 8 C 7.36 g/m*3 8 C 3.2 km/h
560 22-12-2018 22:45:00 7.9 C 7.31 g/m*3 7.9 C 4.8 km/h
561 22-12-2018 22:50:00 7.9 C 7.31 g/m*3 7.9 C 4.8 km/h
562 22-12-2018 22:55:00 7.9 C 7.31 g/m*3 7.9 C 3.2 km/h
563 22-12-2018 23:00:00 7.8 C 7.35 g/m*3 7.8 C 3.2 km/h
564 22-12-2018 23:05:00 7.8 C 7.35 g/m*3 7.8 C 4.8 km/h
565 22-12-2018 23:10:00 7.8 C 7.35 g/m*3 7.8 C 4.8 km/h
566 22-12-2018 23:15:00 7.8 C 7.35 g/m*3 7.8 C 4.8 km/h
567 22-12-2018 23:20:00 7.8 C 7.43 g/m*3 6.83 C 6.4 km/h
568 22-12-2018 23:25:00 7.8 C 7.43 g/m*3 6.83 C 6.4 km/h
569 22-12-2018 23:30:00 7.7 C 7.38 g/m*3 7.7 C 3.2 km/h
570 22-12-2018 23:35:00 7.7 C 7.3 g/m*3 6.71 C 6.4 km/h
571 22-12-2018 23:40:00 7.7 C 7.3 g/m*3 6.28 C 8.1 km/h
572 22-12-2018 23:45:00 7.7 C 7.3 g/m*3 5.65 C 11.3 km/h
573 22-12-2018 23:50:00 7.7 C 7.22 g/m*3 6.71 C 6.4 km/h
574 22-12-2018 23:55:00 7.7 C 7.22 g/m*3 7.7 C 3.2 km/h
575 23-12-2018 00:00:00 7.7 C 7.22 g/m*3 7.7 C 4.8 km/h
Sensor: Nr:Datum:Temp:Abs-Feuchte:Windchill:Wind:
Aussen-T/F 576 23-12-2018 00:05:00 7.7 C 7.3 g/m*3 7.7 C 4.8 km/h
577 23-12-2018 00:10:00 7.7 C 7.3 g/m*3 6.71 C 6.4 km/h
578 23-12-2018 00:15:00 7.7 C 7.3 g/m*3 6.71 C 6.4 km/h
579 23-12-2018 00:20:00 7.7 C 7.3 g/m*3 7.7 C 1.6 km/h
580 23-12-2018 00:25:00 7.7 C 7.3 g/m*3 7.7 C 4.8 km/h
581 23-12-2018 00:30:00 7.6 C 7.25 g/m*3 7.6 C 3.2 km/h
582 23-12-2018 00:35:00 7.4 C 7.08 g/m*3 7.4 C 0 km/h
583 23-12-2018 00:40:00 7.2 C 6.99 g/m*3 7.2 C 0 km/h
584 23-12-2018 00:45:00 7 C 6.9 g/m*3 7 C 1.6 km/h
585 23-12-2018 00:50:00 6.8 C 6.88 g/m*3 6.8 C 3.2 km/h
586 23-12-2018 00:55:00 6.7 C 6.84 g/m*3 6.7 C 1.6 km/h
587 23-12-2018 01:00:00 6.6 C 6.87 g/m*3 6.6 C 0 km/h
588 23-12-2018 01:05:00 6.5 C 6.82 g/m*3 6.5 C 0 km/h
589 23-12-2018 01:10:00 6.4 C 6.85 g/m*3 6.4 C 0 km/h
590 23-12-2018 01:15:00 6.4 C 6.85 g/m*3 6.4 C 1.6 km/h
591 23-12-2018 01:20:00 6.4 C 6.85 g/m*3 6.4 C 1.6 km/h
592 23-12-2018 01:25:00 6.4 C 6.93 g/m*3 6.4 C 1.6 km/h
593 23-12-2018 01:30:00 6.5 C 6.97 g/m*3 6.5 C 3.2 km/h
594 23-12-2018 01:35:00 6.6 C 7.1 g/m*3 6.6 C 4.8 km/h
595 23-12-2018 01:40:00 6.7 C 7.14 g/m*3 6.7 C 3.2 km/h
596 23-12-2018 01:45:00 6.6 C 7.02 g/m*3 6.6 C 1.6 km/h
597 23-12-2018 01:50:00 6.5 C 6.97 g/m*3 6.5 C 1.6 km/h
598 23-12-2018 01:55:00 6.4 C 6.93 g/m*3 6.4 C 0 km/h
599 23-12-2018 02:00:00 6.2 C 6.84 g/m*3 6.2 C 0 km/h
600 23-12-2018 02:05:00 6.2 C 6.84 g/m*3 6.2 C 1.6 km/h
Sensor: Nr:Datum:Temp:Abs-Feuchte:Windchill:Wind:
Aussen-T/F 601 23-12-2018 02:10:00 6.1 C 6.79 g/m*3 6.1 C 1.6 km/h
602 23-12-2018 02:15:00 6.1 C 6.79 g/m*3 6.1 C 3.2 km/h
603 23-12-2018 02:20:00 6.1 C 6.87 g/m*3 6.1 C 3.2 km/h
604 23-12-2018 02:25:00 6.2 C 6.99 g/m*3 6.2 C 3.2 km/h
605 23-12-2018 02:30:00 6.3 C 6.96 g/m*3 6.3 C 3.2 km/h
606 23-12-2018 02:35:00 6.3 C 6.96 g/m*3 6.3 C 1.6 km/h
607 23-12-2018 02:40:00 6.3 C 6.96 g/m*3 6.3 C 4.8 km/h
608 23-12-2018 02:45:00 6.2 C 6.91 g/m*3 6.2 C 3.2 km/h
609 23-12-2018 02:50:00 6.1 C 6.87 g/m*3 6.1 C 1.6 km/h
610 23-12-2018 02:55:00 6.1 C 6.87 g/m*3 6.1 C 3.2 km/h
611 23-12-2018 03:00:00 6.1 C 6.87 g/m*3 6.1 C 0 km/h
612 23-12-2018 03:05:00 6.1 C 6.87 g/m*3 6.1 C 1.6 km/h
613 23-12-2018 03:10:00 6.2 C 6.99 g/m*3 6.2 C 1.6 km/h
614 23-12-2018 03:15:00 6.2 C 6.99 g/m*3 6.2 C 1.6 km/h
615 23-12-2018 03:20:00 6.3 C 7.03 g/m*3 6.3 C 4.8 km/h
616 23-12-2018 03:25:00 6.6 C 7.17 g/m*3 5.44 C 6.4 km/h
617 23-12-2018 03:30:00 6.7 C 7.22 g/m*3 6.7 C 4.8 km/h
618 23-12-2018 03:35:00 6.8 C 7.27 g/m*3 6.8 C 3.2 km/h
619 23-12-2018 03:40:00 6.8 C 7.27 g/m*3 6.8 C 0 km/h
620 23-12-2018 03:45:00 6.8 C 7.27 g/m*3 6.8 C 4.8 km/h
621 23-12-2018 03:50:00 6.9 C 7.31 g/m*3 5.79 C 6.4 km/h
622 23-12-2018 03:55:00 7 C 7.36 g/m*3 5.11 C 9.7 km/h
623 23-12-2018 04:00:00 7.1 C 7.41 g/m*3 5.23 C 9.7 km/h
624 23-12-2018 04:05:00 7.2 C 7.46 g/m*3 7.2 C 4.8 km/h
625 23-12-2018 04:10:00 7.2 C 7.46 g/m*3 7.2 C 4.8 km/h
Sensor: Nr:Datum:Temp:Abs-Feuchte:Windchill:Wind:
Aussen-T/F 626 23-12-2018 04:15:00 7.3 C 7.51 g/m*3 7.3 C 3.2 km/h
627 23-12-2018 04:20:00 7.3 C 7.51 g/m*3 7.3 C 3.2 km/h
628 23-12-2018 04:25:00 7.3 C 7.43 g/m*3 7.3 C 3.2 km/h
629 23-12-2018 04:30:00 7.2 C 7.38 g/m*3 7.2 C 1.6 km/h
630 23-12-2018 04:35:00 7.1 C 7.33 g/m*3 7.1 C 1.6 km/h
631 23-12-2018 04:40:00 7 C 7.28 g/m*3 7 C 1.6 km/h
632 23-12-2018 04:45:00 6.8 C 7.19 g/m*3 6.8 C 1.6 km/h
633 23-12-2018 04:50:00 6.7 C 7.07 g/m*3 6.7 C 1.6 km/h
634 23-12-2018 04:55:00 6.6 C 7.1 g/m*3 6.6 C 1.6 km/h
635 23-12-2018 05:00:00 6.6 C 7.1 g/m*3 6.6 C 0 km/h
636 23-12-2018 05:05:00 6.5 C 7.05 g/m*3 6.5 C 0 km/h
637 23-12-2018 05:10:00 6.4 C 7 g/m*3 6.4 C 0 km/h
638 23-12-2018 05:15:00 6.6 C 7.17 g/m*3 6.6 C 4.8 km/h
639 23-12-2018 05:20:00 6.7 C 7.22 g/m*3 5.56 C 6.4 km/h
640 23-12-2018 05:25:00 6.8 C 7.27 g/m*3 6.8 C 3.2 km/h
641 23-12-2018 05:30:00 7 C 7.36 g/m*3 7 C 3.2 km/h
642 23-12-2018 05:35:00 7.1 C 7.41 g/m*3 7.1 C 3.2 km/h
643 23-12-2018 05:40:00 7.1 C 7.41 g/m*3 7.1 C 3.2 km/h
644 23-12-2018 05:45:00 7.1 C 7.41 g/m*3 7.1 C 1.6 km/h
645 23-12-2018 05:50:00 7.1 C 7.41 g/m*3 7.1 C 3.2 km/h
646 23-12-2018 05:55:00 7.1 C 7.41 g/m*3 7.1 C 1.6 km/h
647 23-12-2018 06:00:00 7.2 C 7.46 g/m*3 7.2 C 0 km/h
648 23-12-2018 06:05:00 7.1 C 7.41 g/m*3 7.1 C 1.6 km/h
649 23-12-2018 06:10:00 7.1 C 7.41 g/m*3 7.1 C 1.6 km/h
650 23-12-2018 06:15:00 7.2 C 7.46 g/m*3 7.2 C 4.8 km/h
Sensor: Nr:Datum:Temp:Abs-Feuchte:Windchill:Wind:
Aussen-T/F 651 23-12-2018 06:20:00 7.2 C 7.46 g/m*3 7.2 C 3.2 km/h
652 23-12-2018 06:25:00 7.2 C 7.46 g/m*3 7.2 C 0 km/h
653 23-12-2018 06:30:00 7.2 C 7.46 g/m*3 7.2 C 4.8 km/h
654 23-12-2018 06:35:00 7.2 C 7.46 g/m*3 7.2 C 1.6 km/h
655 23-12-2018 06:40:00 7.2 C 7.46 g/m*3 7.2 C 0 km/h
656 23-12-2018 06:45:00 7.2 C 7.46 g/m*3 7.2 C 4.8 km/h
657 23-12-2018 06:50:00 7.2 C 7.46 g/m*3 7.2 C 4.8 km/h
658 23-12-2018 06:55:00 7.2 C 7.46 g/m*3 7.2 C 0 km/h
659 23-12-2018 07:00:00 7.2 C 7.46 g/m*3 7.2 C 3.2 km/h
660 23-12-2018 07:05:00 7.3 C 7.51 g/m*3 7.3 C 4.8 km/h
661 23-12-2018 07:10:00 7.3 C 7.51 g/m*3 7.3 C 4.8 km/h
662 23-12-2018 07:15:00 7.4 C 7.55 g/m*3 7.4 C 4.8 km/h
663 23-12-2018 07:20:00 7.5 C 7.6 g/m*3 7.5 C 4.8 km/h
664 23-12-2018 07:25:00 7.5 C 7.52 g/m*3 7.5 C 3.2 km/h
665 23-12-2018 07:30:00 7.6 C 7.57 g/m*3 6.16 C 8.1 km/h
666 23-12-2018 07:35:00 7.6 C 7.57 g/m*3 7.6 C 4.8 km/h
667 23-12-2018 07:40:00 7.6 C 7.57 g/m*3 6.6 C 6.4 km/h
668 23-12-2018 07:45:00 7.7 C 7.62 g/m*3 5.65 C 11.3 km/h
669 23-12-2018 07:50:00 7.8 C 7.67 g/m*3 7.8 C 4.8 km/h
670 23-12-2018 07:55:00 7.8 C 7.59 g/m*3 5.77 C 11.3 km/h
671 23-12-2018 08:00:00 7.9 C 7.64 g/m*3 6.94 C 6.4 km/h
672 23-12-2018 08:05:00 7.9 C 7.64 g/m*3 6.94 C 6.4 km/h
673 23-12-2018 08:10:00 7.9 C 7.64 g/m*3 5.89 C 11.3 km/h
674 23-12-2018 08:15:00 7.9 C 7.64 g/m*3 7.9 C 4.8 km/h
675 23-12-2018 08:20:00 7.9 C 7.64 g/m*3 7.9 C 4.8 km/h
Sensor: Nr:Datum:Temp:Abs-Feuchte:Windchill:Wind:
Aussen-T/F 676 23-12-2018 08:25:00 7.9 C 7.64 g/m*3 7.9 C 0 km/h
677 23-12-2018 08:30:00 7.9 C 7.64 g/m*3 7.9 C 3.2 km/h
678 23-12-2018 08:35:00 7.8 C 7.59 g/m*3 6.83 C 6.4 km/h
679 23-12-2018 08:40:00 7.8 C 7.59 g/m*3 7.8 C 3.2 km/h
680 23-12-2018 08:45:00 7.9 C 7.64 g/m*3 6.94 C 6.4 km/h
681 23-12-2018 08:50:00 7.9 C 7.64 g/m*3 7.9 C 3.2 km/h
682 23-12-2018 08:55:00 7.9 C 7.64 g/m*3 6.94 C 6.4 km/h
683 23-12-2018 09:00:00 8.1 C 7.74 g/m*3 7.17 C 6.4 km/h
684 23-12-2018 09:05:00 8.2 C 7.79 g/m*3 6.25 C 11.3 km/h
685 23-12-2018 09:10:00 8.2 C 7.7 g/m*3 7.29 C 6.4 km/h
686 23-12-2018 09:15:00 8.2 C 7.7 g/m*3 8.2 C 4.8 km/h
687 23-12-2018 09:20:00 8.2 C 7.7 g/m*3 8.2 C 4.8 km/h
688 23-12-2018 09:25:00 8.2 C 7.7 g/m*3 6.54 C 9.7 km/h
689 23-12-2018 09:30:00 8.3 C 7.75 g/m*3 6.99 C 8.1 km/h
690 23-12-2018 09:35:00 8.4 C 7.8 g/m*3 6.78 C 9.7 km/h
691 23-12-2018 09:40:00 8.5 C 7.77 g/m*3 7.64 C 6.4 km/h
692 23-12-2018 09:45:00 8.6 C 7.82 g/m*3 7.01 C 9.7 km/h
693 23-12-2018 09:50:00 8.7 C 7.78 g/m*3 7.46 C 8.1 km/h
694 23-12-2018 09:55:00 8.7 C 7.78 g/m*3 7.46 C 8.1 km/h
695 23-12-2018 10:00:00 8.8 C 7.83 g/m*3 7.25 C 9.7 km/h
696 23-12-2018 10:05:00 8.9 C 7.8 g/m*3 7.69 C 8.1 km/h
697 23-12-2018 10:10:00 9 C 7.85 g/m*3 6.75 C 14.5 km/h
698 23-12-2018 10:15:00 9.1 C 7.9 g/m*3 7.09 C 12.9 km/h
699 23-12-2018 10:20:00 9.2 C 7.86 g/m*3 7.46 C 11.3 km/h
700 23-12-2018 10:25:00 9.2 C 7.86 g/m*3 7.21 C 12.9 km/h
Sensor: Nr:Datum:Temp:Abs-Feuchte:Windchill:Wind:
Aussen-T/F 701 23-12-2018 10:30:00 9.3 C 7.91 g/m*3 7.58 C 11.3 km/h
702 23-12-2018 10:35:00 9.3 C 7.91 g/m*3 7.85 C 9.7 km/h
703 23-12-2018 10:40:00 9.4 C 7.87 g/m*3 7.46 C 12.9 km/h
704 23-12-2018 10:45:00 9.4 C 7.87 g/m*3 7.46 C 12.9 km/h
705 23-12-2018 10:50:00 9.4 C 7.87 g/m*3 7.46 C 12.9 km/h
706 23-12-2018 10:55:00 9.5 C 7.92 g/m*3 7.58 C 12.9 km/h
707 23-12-2018 11:00:00 9.6 C 7.97 g/m*3 7.29 C 16.1 km/h
708 23-12-2018 11:05:00 9.6 C 7.97 g/m*3 7.48 C 14.5 km/h
709 23-12-2018 11:10:00 9.6 C 7.97 g/m*3 7.94 C 11.3 km/h
710 23-12-2018 11:15:00 9.7 C 8.02 g/m*3 7.82 C 12.9 km/h
711 23-12-2018 11:20:00 9.7 C 8.02 g/m*3 7.41 C 16.1 km/h
712 23-12-2018 11:25:00 9.7 C 8.02 g/m*3 7.23 C 17.7 km/h
713 23-12-2018 11:30:00 9.7 C 7.93 g/m*3 7.82 C 12.9 km/h
714 23-12-2018 11:35:00 9.7 C 7.93 g/m*3 7.61 C 14.5 km/h
715 23-12-2018 11:40:00 9.8 C 8.07 g/m*3 7.73 C 14.5 km/h
716 23-12-2018 11:45:00 9.8 C 7.98 g/m*3 7.54 C 16.1 km/h
717 23-12-2018 11:50:00 9.8 C 7.98 g/m*3 7.73 C 14.5 km/h
718 23-12-2018 11:55:00 9.8 C 7.98 g/m*3 7.73 C 14.5 km/h
719 23-12-2018 12:00:00 9.9 C 8.03 g/m*3 7.66 C 16.1 km/h
720 23-12-2018 12:05:00 9.9 C 8.12 g/m*3 7.02 C 22.5 km/h
721 23-12-2018 12:10:00 9.9 C 8.12 g/m*3 7.32 C 19.3 km/h
722 23-12-2018 12:15:00 9.9 C 8.12 g/m*3 7.85 C 14.5 km/h
723 23-12-2018 12:20:00 9.8 C 8.16 g/m*3 7.36 C 17.7 km/h
724 23-12-2018 12:25:00 9.7 C 8.2 g/m*3 7.41 C 16.1 km/h
725 23-12-2018 12:30:00 9.7 C 8.2 g/m*3 6.91 C 20.9 km/h
Sensor: Nr:Datum:Temp:Abs-Feuchte:Windchill:Wind:
Aussen-T/F 726 23-12-2018 12:35:00 9.6 C 8.24 g/m*3 8.21 C 9.7 km/h
727 23-12-2018 12:40:00 9.5 C 8.28 g/m*3 8.4 C 8.1 km/h
728 23-12-2018 12:45:00 9.4 C 8.23 g/m*3 8.28 C 8.1 km/h
729 23-12-2018 12:50:00 9.4 C 8.23 g/m*3 9.4 C 4.8 km/h
730 23-12-2018 12:55:00 9.3 C 8.27 g/m*3 9.3 C 4.8 km/h
731 23-12-2018 13:00:00 9.3 C 8.27 g/m*3 7.85 C 9.7 km/h
732 23-12-2018 13:05:00 9.3 C 8.27 g/m*3 9.3 C 0 km/h
733 23-12-2018 13:10:00 9.3 C 8.36 g/m*3 9.3 C 1.6 km/h
734 23-12-2018 13:15:00 9.2 C 8.3 g/m*3 9.2 C 3.2 km/h
735 23-12-2018 13:20:00 9.2 C 8.3 g/m*3 9.2 C 3.2 km/h
736 23-12-2018 13:25:00 9.1 C 8.25 g/m*3 9.1 C 3.2 km/h
737 23-12-2018 13:30:00 9.1 C 8.25 g/m*3 9.1 C 0 km/h
738 23-12-2018 13:35:00 9.1 C 8.25 g/m*3 9.1 C 0 km/h
739 23-12-2018 13:40:00 9 C 8.2 g/m*3 9 C 0 km/h
740 23-12-2018 13:45:00 9 C 8.2 g/m*3 9 C 0 km/h
741 23-12-2018 13:50:00 8.9 C 8.15 g/m*3 8.9 C 0 km/h
742 23-12-2018 13:55:00 8.9 C 8.15 g/m*3 8.9 C 0 km/h
743 23-12-2018 14:00:00 8.8 C 8.18 g/m*3 8.8 C 1.6 km/h
744 23-12-2018 14:05:00 8.8 C 8.18 g/m*3 8.8 C 0 km/h
745 23-12-2018 14:10:00 8.8 C 8.18 g/m*3 8.8 C 0 km/h
746 23-12-2018 14:15:00 8.8 C 8.18 g/m*3 8.8 C 0 km/h
747 23-12-2018 14:20:00 8.8 C 8.18 g/m*3 8.8 C 0 km/h
748 23-12-2018 14:25:00 8.8 C 8.18 g/m*3 8.8 C 0 km/h
749 23-12-2018 14:30:00 8.8 C 8.18 g/m*3 8.8 C 0 km/h
750 23-12-2018 14:35:00 8.8 C 8.27 g/m*3 8.8 C 0 km/h
Sensor: Nr:Datum:Temp:Abs-Feuchte:Windchill:Wind:
Aussen-T/F 751 23-12-2018 14:40:00 8.8 C 8.27 g/m*3 8.8 C 0 km/h
752 23-12-2018 14:45:00 8.8 C 8.27 g/m*3 8.8 C 0 km/h
753 23-12-2018 14:50:00 8.8 C 8.27 g/m*3 8.8 C 0 km/h
754 23-12-2018 14:55:00 8.8 C 8.27 g/m*3 8.8 C 0 km/h
755 23-12-2018 15:00:00 8.7 C 8.22 g/m*3 8.7 C 0 km/h
756 23-12-2018 15:05:00 8.7 C 8.22 g/m*3 8.7 C 0 km/h
757 23-12-2018 15:10:00 8.7 C 8.22 g/m*3 8.7 C 0 km/h
758 23-12-2018 15:15:00 8.7 C 8.22 g/m*3 8.7 C 0 km/h
759 23-12-2018 15:20:00 8.7 C 8.22 g/m*3 8.7 C 0 km/h
760 23-12-2018 15:25:00 8.6 C 8.16 g/m*3 8.6 C 0 km/h
761 23-12-2018 15:30:00 8.6 C 8.16 g/m*3 8.6 C 0 km/h
762 23-12-2018 15:35:00 8.6 C 8.16 g/m*3 8.6 C 0 km/h
763 23-12-2018 15:40:00 8.5 C 8.11 g/m*3 8.5 C 0 km/h
764 23-12-2018 15:45:00 8.4 C 8.06 g/m*3 8.4 C 1.6 km/h
765 23-12-2018 15:50:00 8.4 C 8.06 g/m*3 8.4 C 0 km/h
766 23-12-2018 15:55:00 8.4 C 8.06 g/m*3 8.4 C 0 km/h
767 23-12-2018 16:00:00 8.3 C 8.01 g/m*3 8.3 C 0 km/h
768 23-12-2018 16:05:00 8.3 C 8.01 g/m*3 8.3 C 0 km/h
769 23-12-2018 16:10:00 8.3 C 8.09 g/m*3 8.3 C 0 km/h
770 23-12-2018 16:15:00 8.2 C 8.04 g/m*3 8.2 C 0 km/h
771 23-12-2018 16:20:00 8.2 C 8.04 g/m*3 8.2 C 0 km/h
772 23-12-2018 16:25:00 8.2 C 8.04 g/m*3 8.2 C 0 km/h
773 23-12-2018 16:30:00 8.2 C 8.04 g/m*3 8.2 C 0 km/h
774 23-12-2018 16:35:00 8.1 C 7.99 g/m*3 8.1 C 0 km/h
775 23-12-2018 16:40:00 8.1 C 7.99 g/m*3 8.1 C 0 km/h
Sensor: Nr:Datum:Temp:Abs-Feuchte:Windchill:Wind:
Aussen-T/F 776 23-12-2018 16:45:00 8.1 C 7.99 g/m*3 8.1 C 0 km/h
777 23-12-2018 16:50:00 8.1 C 7.99 g/m*3 8.1 C 0 km/h
778 23-12-2018 16:55:00 8.1 C 7.99 g/m*3 8.1 C 0 km/h
779 23-12-2018 17:00:00 8 C 7.94 g/m*3 8 C 0 km/h
780 23-12-2018 17:05:00 8 C 7.94 g/m*3 8 C 0 km/h
781 23-12-2018 17:10:00 8 C 7.94 g/m*3 8 C 0 km/h
782 23-12-2018 17:15:00 8 C 7.94 g/m*3 8 C 0 km/h
783 23-12-2018 17:20:00 8 C 7.94 g/m*3 8 C 0 km/h
784 23-12-2018 17:25:00 8 C 7.94 g/m*3 8 C 0 km/h
785 23-12-2018 17:30:00 8 C 7.94 g/m*3 8 C 0 km/h
786 23-12-2018 17:35:00 8 C 7.94 g/m*3 8 C 0 km/h
787 23-12-2018 17:40:00 8 C 7.94 g/m*3 8 C 3.2 km/h
788 23-12-2018 17:45:00 8.1 C 7.99 g/m*3 8.1 C 4.8 km/h
789 23-12-2018 17:50:00 8.2 C 8.04 g/m*3 8.2 C 0 km/h
790 23-12-2018 17:55:00 8.2 C 8.04 g/m*3 8.2 C 0 km/h
791 23-12-2018 18:00:00 8.2 C 8.04 g/m*3 8.2 C 3.2 km/h
792 23-12-2018 18:05:00 8.2 C 8.04 g/m*3 8.2 C 0 km/h
793 23-12-2018 18:10:00 8.2 C 8.04 g/m*3 8.2 C 4.8 km/h
794 23-12-2018 18:15:00 8.3 C 8.09 g/m*3 8.3 C 3.2 km/h
795 23-12-2018 18:20:00 8.3 C 8.18 g/m*3 8.3 C 1.6 km/h
796 23-12-2018 18:25:00 8.4 C 8.23 g/m*3 8.4 C 3.2 km/h
797 23-12-2018 18:30:00 8.5 C 8.28 g/m*3 8.5 C 4.8 km/h
798 23-12-2018 18:35:00 8.7 C 8.39 g/m*3 7.87 C 6.4 km/h
799 23-12-2018 18:40:00 8.8 C 8.44 g/m*3 7.25 C 9.7 km/h
800 23-12-2018 18:45:00 8.9 C 8.5 g/m*3 7.69 C 8.1 km/h
Sensor: Nr:Datum:Temp:Abs-Feuchte:Windchill:Wind:
Aussen-T/F 801 23-12-2018 18:50:00 8.9 C 8.5 g/m*3 8.9 C 4.8 km/h
802 23-12-2018 18:55:00 8.9 C 8.5 g/m*3 8.9 C 4.8 km/h
803 23-12-2018 19:00:00 8.9 C 8.5 g/m*3 7.37 C 9.7 km/h
804 23-12-2018 19:05:00 9 C 8.55 g/m*3 7.21 C 11.3 km/h
805 23-12-2018 19:10:00 9.2 C 8.66 g/m*3 7.73 C 9.7 km/h
806 23-12-2018 19:15:00 9.4 C 8.77 g/m*3 7.24 C 14.5 km/h
807 23-12-2018 19:20:00 9.5 C 8.83 g/m*3 7.82 C 11.3 km/h
808 23-12-2018 19:25:00 9.6 C 8.89 g/m*3 7.7 C 12.9 km/h
809 23-12-2018 19:30:00 9.8 C 9 g/m*3 7.54 C 16.1 km/h
810 23-12-2018 19:35:00 9.9 C 9.06 g/m*3 8.06 C 12.9 km/h
811 23-12-2018 19:40:00 10 C 9.11 g/m*3 8.19 C 12.9 km/h
812 23-12-2018 19:45:00 10.1 C 9.17 g/m*3 8.54 C 11.3 km/h
813 23-12-2018 19:50:00 10.1 C 9.17 g/m*3 9.1 C 8.1 km/h
814 23-12-2018 19:55:00 10.2 C 9.14 g/m*3 9.6 C 6.4 km/h
815 23-12-2018 20:00:00 10.2 C 9.14 g/m*3 8.92 C 9.7 km/h
816 23-12-2018 20:05:00 10.3 C 9.19 g/m*3 8.55 C 12.9 km/h
817 23-12-2018 20:10:00 10.3 C 9.29 g/m*3 7.82 C 19.3 km/h
818 23-12-2018 20:15:00 10.5 C 9.31 g/m*3 8.8 C 12.9 km/h
819 23-12-2018 20:20:00 10.6 C 9.37 g/m*3 9.4 C 9.7 km/h
820 23-12-2018 20:25:00 10.6 C 9.37 g/m*3 9.14 C 11.3 km/h
821 23-12-2018 20:30:00 10.7 C 9.43 g/m*3 9.26 C 11.3 km/h
822 23-12-2018 20:35:00 10.8 C 9.49 g/m*3 9.38 C 11.3 km/h
823 23-12-2018 20:40:00 10.9 C 9.55 g/m*3 9.76 C 9.7 km/h
824 23-12-2018 20:45:00 11.1 C 9.67 g/m*3 11.1 C 11.3 km/h
825 23-12-2018 20:50:00 11.1 C 9.67 g/m*3 11.1 C 9.7 km/h
Sensor: Nr:Datum:Temp:Abs-Feuchte:Windchill:Wind:
Aussen-T/F 826 23-12-2018 20:55:00 11.1 C 9.67 g/m*3 11.1 C 25.7 km/h
827 23-12-2018 21:00:00 11.2 C 9.73 g/m*3 11.2 C 25.7 km/h
828 23-12-2018 21:05:00 11.4 C 9.85 g/m*3 11.4 C 12.9 km/h
829 23-12-2018 21:10:00 11.5 C 9.81 g/m*3 11.5 C 12.9 km/h
830 23-12-2018 21:15:00 11.6 C 9.87 g/m*3 11.6 C 16.1 km/h
831 23-12-2018 21:20:00 11.7 C 9.94 g/m*3 11.7 C 14.5 km/h
832 23-12-2018 21:25:00 11.8 C 10 g/m*3 11.8 C 12.9 km/h
833 23-12-2018 21:30:00 11.9 C 10.06 g/m*3 11.9 C 17.7 km/h
834 23-12-2018 21:35:00 11.9 C 10.06 g/m*3 11.9 C 11.3 km/h
835 23-12-2018 21:40:00 11.9 C 10.06 g/m*3 11.9 C 8.1 km/h
836 23-12-2018 21:45:00 11.9 C 10.06 g/m*3 11.9 C 9.7 km/h
837 23-12-2018 21:50:00 11.9 C 10.06 g/m*3 11.9 C 9.7 km/h
838 23-12-2018 21:55:00 11.8 C 10 g/m*3 11.8 C 4.8 km/h
839 23-12-2018 22:00:00 11.8 C 10 g/m*3 11.8 C 11.3 km/h
840 23-12-2018 22:05:00 11.8 C 10 g/m*3 11.8 C 4.8 km/h
841 23-12-2018 22:10:00 11.7 C 9.94 g/m*3 11.7 C 6.4 km/h
842 23-12-2018 22:15:00 11.7 C 9.94 g/m*3 11.7 C 4.8 km/h
843 23-12-2018 22:20:00 11.7 C 9.94 g/m*3 11.7 C 6.4 km/h
844 23-12-2018 22:25:00 11.7 C 9.94 g/m*3 11.7 C 3.2 km/h
845 23-12-2018 22:30:00 11.6 C 9.87 g/m*3 11.6 C 3.2 km/h
846 23-12-2018 22:35:00 11.6 C 9.98 g/m*3 11.6 C 4.8 km/h
847 23-12-2018 22:40:00 11.6 C 9.98 g/m*3 11.6 C 11.3 km/h
848 23-12-2018 22:45:00 11.6 C 9.98 g/m*3 11.6 C 9.7 km/h
849 23-12-2018 22:50:00 11.6 C 9.98 g/m*3 11.6 C 4.8 km/h
850 23-12-2018 22:55:00 11.6 C 9.98 g/m*3 11.6 C 3.2 km/h
Sensor: Nr:Datum:Temp:Abs-Feuchte:Windchill:Wind:
Aussen-T/F 851 23-12-2018 23:00:00 11.6 C 9.98 g/m*3 11.6 C 6.4 km/h
852 23-12-2018 23:05:00 11.6 C 9.98 g/m*3 11.6 C 4.8 km/h
853 23-12-2018 23:10:00 11.6 C 9.98 g/m*3 11.6 C 6.4 km/h
854 23-12-2018 23:15:00 11.6 C 9.98 g/m*3 11.6 C 6.4 km/h
855 23-12-2018 23:20:00 11.7 C 10.04 g/m*3 11.7 C 8.1 km/h
856 23-12-2018 23:25:00 11.7 C 10.04 g/m*3 11.7 C 11.3 km/h
857 23-12-2018 23:30:00 11.7 C 10.04 g/m*3 11.7 C 6.4 km/h
858 23-12-2018 23:35:00 11.7 C 10.04 g/m*3 11.7 C 1.6 km/h
859 23-12-2018 23:40:00 11.7 C 10.04 g/m*3 11.7 C 3.2 km/h
860 23-12-2018 23:45:00 11.6 C 9.98 g/m*3 11.6 C 12.9 km/h
861 23-12-2018 23:50:00 11.3 C 9.69 g/m*3 11.3 C 17.7 km/h
862 23-12-2018 23:55:00 11.2 C 9.63 g/m*3 11.2 C 6.4 km/h
863 24-12-2018 00:00:00 11.1 C 9.57 g/m*3 11.1 C 14.5 km/h
864 24-12-2018 00:05:00 11.1 C 9.57 g/m*3 11.1 C 19.3 km/h
865 24-12-2018 00:10:00 10.9 C 9.45 g/m*3 8.58 C 19.3 km/h
866 24-12-2018 00:15:00 10.7 C 9.33 g/m*3 9.81 C 8.1 km/h
867 24-12-2018 00:20:00 10.6 C 9.27 g/m*3 9.14 C 11.3 km/h
868 24-12-2018 00:25:00 10.4 C 9.16 g/m*3 8.47 C 14.5 km/h
869 24-12-2018 00:30:00 10.2 C 9.04 g/m*3 8.22 C 14.5 km/h
870 24-12-2018 00:35:00 10 C 8.93 g/m*3 7.98 C 14.5 km/h
871 24-12-2018 00:40:00 9.8 C 8.72 g/m*3 7.36 C 17.7 km/h
872 24-12-2018 00:45:00 9.7 C 8.76 g/m*3 8.06 C 11.3 km/h
873 24-12-2018 00:50:00 9.6 C 8.61 g/m*3 7.11 C 17.7 km/h
874 24-12-2018 00:55:00 9.4 C 8.5 g/m*3 6.69 C 19.3 km/h
875 24-12-2018 01:00:00 9.2 C 8.3 g/m*3 6.61 C 17.7 km/h
Sensor: Nr:Datum:Temp:Abs-Feuchte:Windchill:Wind:
Aussen-T/F 876 24-12-2018 01:05:00 9 C 8.2 g/m*3 6.97 C 12.9 km/h
877 24-12-2018 01:10:00 8.8 C 8.09 g/m*3 6.3 C 16.1 km/h
878 24-12-2018 01:15:00 8.8 C 8.18 g/m*3 7.98 C 6.4 km/h
879 24-12-2018 01:20:00 8.6 C 7.99 g/m*3 7.01 C 9.7 km/h
880 24-12-2018 01:25:00 8.4 C 7.89 g/m*3 5.61 C 17.7 km/h
881 24-12-2018 01:30:00 8.3 C 7.84 g/m*3 5.89 C 14.5 km/h
882 24-12-2018 01:35:00 8.2 C 7.79 g/m*3 5.36 C 17.7 km/h
883 24-12-2018 01:40:00 8 C 7.69 g/m*3 5.3 C 16.1 km/h
884 24-12-2018 01:45:00 7.8 C 7.51 g/m*3 4.68 C 19.3 km/h
885 24-12-2018 01:50:00 7.6 C 7.41 g/m*3 4.81 C 16.1 km/h
886 24-12-2018 01:55:00 7.4 C 7.24 g/m*3 4.78 C 14.5 km/h
887 24-12-2018 02:00:00 7.3 C 7.27 g/m*3 4.9 C 12.9 km/h
888 24-12-2018 02:05:00 7.3 C 7.27 g/m*3 5.47 C 9.7 km/h
889 24-12-2018 02:10:00 7.2 C 7.22 g/m*3 6.13 C 6.4 km/h
890 24-12-2018 02:15:00 7.2 C 7.22 g/m*3 5.04 C 11.3 km/h
891 24-12-2018 02:20:00 7.1 C 7.18 g/m*3 5.23 C 9.7 km/h
892 24-12-2018 02:25:00 7.1 C 7.25 g/m*3 4.92 C 11.3 km/h
893 24-12-2018 02:30:00 7.1 C 7.25 g/m*3 4.19 C 16.1 km/h
894 24-12-2018 02:35:00 6.9 C 7.08 g/m*3 3.94 C 16.1 km/h
895 24-12-2018 02:40:00 6.8 C 7.04 g/m*3 3.61 C 17.7 km/h
896 24-12-2018 02:45:00 6.7 C 6.99 g/m*3 3.69 C 16.1 km/h
897 24-12-2018 02:50:00 6.6 C 6.95 g/m*3 4.04 C 12.9 km/h
898 24-12-2018 02:55:00 6.6 C 6.95 g/m*3 4.32 C 11.3 km/h
899 24-12-2018 03:00:00 6.4 C 6.85 g/m*3 4.08 C 11.3 km/h
900 24-12-2018 03:05:00 6.4 C 6.93 g/m*3 4.75 C 8.1 km/h
Sensor: Nr:Datum:Temp:Abs-Feuchte:Windchill:Wind:
Aussen-T/F 901 24-12-2018 03:10:00 6.3 C 6.88 g/m*3 5.1 C 6.4 km/h
902 24-12-2018 03:15:00 6.3 C 6.88 g/m*3 4.64 C 8.1 km/h
903 24-12-2018 03:20:00 6.3 C 6.88 g/m*3 6.3 C 4.8 km/h
904 24-12-2018 03:25:00 6.2 C 6.84 g/m*3 3.56 C 12.9 km/h
905 24-12-2018 03:30:00 6.2 C 6.84 g/m*3 4.15 C 9.7 km/h
906 24-12-2018 03:35:00 6.2 C 6.84 g/m*3 4.52 C 8.1 km/h
907 24-12-2018 03:40:00 6.2 C 6.84 g/m*3 2.66 C 19.3 km/h
908 24-12-2018 03:45:00 6.1 C 6.79 g/m*3 2.95 C 16.1 km/h
909 24-12-2018 03:50:00 6.1 C 6.79 g/m*3 4.4 C 8.1 km/h
910 24-12-2018 03:55:00 6.1 C 6.87 g/m*3 3.72 C 11.3 km/h
911 24-12-2018 04:00:00 6 C 6.82 g/m*3 3.31 C 12.9 km/h
912 24-12-2018 04:05:00 5.9 C 6.78 g/m*3 4.63 C 6.4 km/h
913 24-12-2018 04:10:00 5.9 C 6.78 g/m*3 2.93 C 14.5 km/h
914 24-12-2018 04:15:00 5.9 C 6.78 g/m*3 4.63 C 6.4 km/h
915 24-12-2018 04:20:00 5.9 C 6.78 g/m*3 3.48 C 11.3 km/h
916 24-12-2018 04:25:00 5.9 C 6.78 g/m*3 4.17 C 8.1 km/h
917 24-12-2018 04:30:00 6 C 6.82 g/m*3 6 C 4.8 km/h
918 24-12-2018 04:35:00 6 C 6.82 g/m*3 4.28 C 8.1 km/h
919 24-12-2018 04:40:00 6 C 6.82 g/m*3 3.92 C 9.7 km/h
920 24-12-2018 04:45:00 6 C 6.82 g/m*3 4.28 C 8.1 km/h
921 24-12-2018 04:50:00 6.1 C 6.87 g/m*3 3.72 C 11.3 km/h
922 24-12-2018 04:55:00 6.1 C 6.87 g/m*3 4.86 C 6.4 km/h
923 24-12-2018 05:00:00 6.1 C 6.87 g/m*3 4.86 C 6.4 km/h
924 24-12-2018 05:05:00 6.1 C 6.87 g/m*3 3.43 C 12.9 km/h
925 24-12-2018 05:10:00 6.1 C 6.87 g/m*3 6.1 C 4.8 km/h
Sensor: Nr:Datum:Temp:Abs-Feuchte:Windchill:Wind:
Aussen-T/F 926 24-12-2018 05:15:00 6.1 C 6.87 g/m*3 4.04 C 9.7 km/h
927 24-12-2018 05:20:00 6.1 C 6.87 g/m*3 3.72 C 11.3 km/h
928 24-12-2018 05:25:00 6.1 C 6.87 g/m*3 4.04 C 9.7 km/h
929 24-12-2018 05:30:00 6.1 C 6.87 g/m*3 2.54 C 19.3 km/h
930 24-12-2018 05:35:00 6.1 C 6.87 g/m*3 4.86 C 6.4 km/h
931 24-12-2018 05:40:00 6.2 C 6.91 g/m*3 4.98 C 6.4 km/h
932 24-12-2018 05:45:00 6.2 C 6.91 g/m*3 3.84 C 11.3 km/h
933 24-12-2018 05:50:00 6.2 C 6.91 g/m*3 6.2 C 4.8 km/h
934 24-12-2018 05:55:00 6.2 C 6.91 g/m*3 3.56 C 12.9 km/h
935 24-12-2018 06:00:00 6.2 C 6.91 g/m*3 4.98 C 6.4 km/h
936 24-12-2018 06:05:00 6.2 C 6.91 g/m*3 4.98 C 6.4 km/h
937 24-12-2018 06:10:00 6.2 C 6.91 g/m*3 4.52 C 8.1 km/h
938 24-12-2018 06:15:00 6.2 C 6.91 g/m*3 4.52 C 8.1 km/h
939 24-12-2018 06:20:00 6.2 C 6.91 g/m*3 3.84 C 11.3 km/h
940 24-12-2018 06:25:00 6.2 C 6.84 g/m*3 4.98 C 6.4 km/h
941 24-12-2018 06:30:00 6.2 C 6.84 g/m*3 6.2 C 4.8 km/h
942 24-12-2018 06:35:00 6.2 C 6.84 g/m*3 4.98 C 6.4 km/h
943 24-12-2018 06:40:00 6.2 C 6.91 g/m*3 4.98 C 6.4 km/h
944 24-12-2018 06:45:00 6.2 C 6.84 g/m*3 4.52 C 8.1 km/h
945 24-12-2018 06:50:00 6.2 C 6.84 g/m*3 6.2 C 4.8 km/h
946 24-12-2018 06:55:00 6.2 C 6.84 g/m*3 6.2 C 3.2 km/h
947 24-12-2018 07:00:00 6.1 C 6.79 g/m*3 4.86 C 6.4 km/h
948 24-12-2018 07:05:00 6.1 C 6.87 g/m*3 4.86 C 6.4 km/h
949 24-12-2018 07:10:00 6.1 C 6.87 g/m*3 6.1 C 3.2 km/h
950 24-12-2018 07:15:00 6.1 C 6.87 g/m*3 6.1 C 1.6 km/h
Sensor: Nr:Datum:Temp:Abs-Feuchte:Windchill:Wind:
Aussen-T/F 951 24-12-2018 07:20:00 6.1 C 6.87 g/m*3 6.1 C 0 km/h
952 24-12-2018 07:25:00 6.2 C 6.91 g/m*3 6.2 C 0 km/h
953 24-12-2018 07:30:00 6.1 C 6.87 g/m*3 6.1 C 0 km/h
954 24-12-2018 07:35:00 6.1 C 6.87 g/m*3 6.1 C 4.8 km/h
955 24-12-2018 07:40:00 6.1 C 6.87 g/m*3 6.1 C 1.6 km/h
956 24-12-2018 07:45:00 6.1 C 6.87 g/m*3 6.1 C 1.6 km/h
957 24-12-2018 07:50:00 6.1 C 6.87 g/m*3 6.1 C 3.2 km/h
958 24-12-2018 07:55:00 6.1 C 6.87 g/m*3 6.1 C 3.2 km/h
959 24-12-2018 08:00:00 6.1 C 6.87 g/m*3 6.1 C 3.2 km/h
960 24-12-2018 08:05:00 6.2 C 6.91 g/m*3 6.2 C 1.6 km/h
961 24-12-2018 08:10:00 6.2 C 6.91 g/m*3 6.2 C 0 km/h
962 24-12-2018 08:15:00 6.2 C 6.91 g/m*3 6.2 C 1.6 km/h
963 24-12-2018 08:20:00 6.2 C 6.91 g/m*3 6.2 C 3.2 km/h
964 24-12-2018 08:25:00 6.2 C 6.91 g/m*3 6.2 C 4.8 km/h
965 24-12-2018 08:30:00 6.2 C 6.91 g/m*3 6.2 C 4.8 km/h
966 24-12-2018 08:35:00 6.2 C 6.91 g/m*3 6.2 C 3.2 km/h
967 24-12-2018 08:40:00 6.2 C 6.91 g/m*3 6.2 C 4.8 km/h
968 24-12-2018 08:45:00 6.2 C 6.91 g/m*3 6.2 C 0 km/h
969 24-12-2018 08:50:00 6.2 C 6.91 g/m*3 6.2 C 0 km/h
970 24-12-2018 08:55:00 6.2 C 6.91 g/m*3 4.98 C 6.4 km/h
971 24-12-2018 09:00:00 6.2 C 6.91 g/m*3 6.2 C 0 km/h
972 24-12-2018 09:05:00 6.2 C 6.91 g/m*3 6.2 C 4.8 km/h
973 24-12-2018 09:10:00 6.2 C 6.84 g/m*3 4.52 C 8.1 km/h
974 24-12-2018 09:15:00 6.2 C 6.91 g/m*3 6.2 C 1.6 km/h
975 24-12-2018 09:20:00 6.2 C 6.84 g/m*3 6.2 C 0 km/h
Sensor: Nr:Datum:Temp:Abs-Feuchte:Windchill:Wind:
Aussen-T/F 976 24-12-2018 09:25:00 6.3 C 6.96 g/m*3 6.3 C 0 km/h
977 24-12-2018 09:30:00 6.3 C 6.96 g/m*3 6.3 C 1.6 km/h
978 24-12-2018 09:35:00 6.3 C 6.96 g/m*3 6.3 C 0 km/h
979 24-12-2018 09:40:00 6.3 C 6.96 g/m*3 6.3 C 3.2 km/h
980 24-12-2018 09:45:00 6.3 C 6.96 g/m*3 6.3 C 0 km/h
981 24-12-2018 09:50:00 6.3 C 6.96 g/m*3 6.3 C 0 km/h
982 24-12-2018 09:55:00 6.3 C 6.96 g/m*3 5.1 C 6.4 km/h
983 24-12-2018 10:00:00 6.3 C 6.88 g/m*3 6.3 C 1.6 km/h
984 24-12-2018 10:05:00 6.3 C 6.88 g/m*3 5.1 C 6.4 km/h
985 24-12-2018 10:10:00 6.4 C 6.93 g/m*3 6.4 C 3.2 km/h
986 24-12-2018 10:15:00 6.4 C 6.93 g/m*3 6.4 C 3.2 km/h
987 24-12-2018 10:20:00 6.5 C 6.97 g/m*3 6.5 C 3.2 km/h
988 24-12-2018 10:25:00 6.5 C 6.97 g/m*3 6.5 C 4.8 km/h
989 24-12-2018 10:30:00 6.5 C 6.9 g/m*3 5.33 C 6.4 km/h
990 24-12-2018 10:35:00 6.5 C 6.9 g/m*3 6.5 C 3.2 km/h
991 24-12-2018 10:40:00 6.6 C 6.95 g/m*3 6.6 C 4.8 km/h
992 24-12-2018 10:45:00 6.6 C 6.95 g/m*3 5.44 C 6.4 km/h
993 24-12-2018 10:50:00 6.6 C 6.87 g/m*3 6.6 C 4.8 km/h
994 24-12-2018 10:55:00 6.6 C 6.87 g/m*3 6.6 C 4.8 km/h
995 24-12-2018 11:00:00 6.6 C 6.79 g/m*3 5.44 C 6.4 km/h
996 24-12-2018 11:05:00 6.6 C 6.79 g/m*3 6.6 C 4.8 km/h
997 24-12-2018 11:10:00 6.6 C 6.72 g/m*3 6.6 C 4.8 km/h
998 24-12-2018 11:15:00 6.6 C 6.72 g/m*3 6.6 C 1.6 km/h
999 24-12-2018 11:20:00 6.7 C 6.76 g/m*3 5.56 C 6.4 km/h
1000 24-12-2018 11:25:00 6.7 C 6.76 g/m*3 6.7 C 0 km/h
Sensor: Nr:Datum:Temp:Abs-Feuchte:Windchill:Wind:
Aussen-T/F 1001 24-12-2018 11:30:00 6.7 C 6.84 g/m*3 5.56 C 6.4 km/h
1002 24-12-2018 11:35:00 6.8 C 6.81 g/m*3 5.67 C 6.4 km/h
1003 24-12-2018 11:40:00 6.8 C 6.81 g/m*3 6.8 C 4.8 km/h
1004 24-12-2018 11:45:00 6.8 C 6.73 g/m*3 5.22 C 8.1 km/h
1005 24-12-2018 11:50:00 6.8 C 6.81 g/m*3 4.29 C 12.9 km/h
1006 24-12-2018 11:55:00 6.8 C 6.65 g/m*3 4.29 C 12.9 km/h
1007 24-12-2018 12:00:00 6.8 C 6.65 g/m*3 3.82 C 16.1 km/h
1008 24-12-2018 12:05:00 6.8 C 6.65 g/m*3 5.67 C 6.4 km/h
1009 24-12-2018 12:10:00 6.9 C 6.7 g/m*3 4.68 C 11.3 km/h
1010 24-12-2018 12:15:00 6.8 C 6.5 g/m*3 4.29 C 12.9 km/h
1011 24-12-2018 12:20:00 6.7 C 6.46 g/m*3 4.44 C 11.3 km/h
1012 24-12-2018 12:25:00 6.7 C 6.31 g/m*3 4.17 C 12.9 km/h
1013 24-12-2018 12:30:00 6.7 C 6.23 g/m*3 3.92 C 14.5 km/h
1014 24-12-2018 12:35:00 6.7 C 6.31 g/m*3 3.92 C 14.5 km/h
1015 24-12-2018 12:40:00 6.6 C 6.27 g/m*3 4.32 C 11.3 km/h
1016 24-12-2018 12:45:00 6.7 C 6.31 g/m*3 5.11 C 8.1 km/h
1017 24-12-2018 12:50:00 6.7 C 6.46 g/m*3 5.11 C 8.1 km/h
1018 24-12-2018 12:55:00 6.8 C 6.5 g/m*3 4.87 C 9.7 km/h
1019 24-12-2018 13:00:00 6.8 C 6.5 g/m*3 5.22 C 8.1 km/h
1020 24-12-2018 13:05:00 6.8 C 6.35 g/m*3 4.04 C 14.5 km/h
1021 24-12-2018 13:10:00 6.7 C 6.23 g/m*3 4.17 C 12.9 km/h
1022 24-12-2018 13:15:00 6.6 C 6.27 g/m*3 4.63 C 9.7 km/h
1023 24-12-2018 13:20:00 6.6 C 6.19 g/m*3 4.32 C 11.3 km/h
1024 24-12-2018 13:25:00 6.6 C 6.27 g/m*3 4.63 C 9.7 km/h
1025 24-12-2018 13:30:00 6.6 C 6.27 g/m*3 4.99 C 8.1 km/h
Sensor: Nr:Datum:Temp:Abs-Feuchte:Windchill:Wind:
Aussen-T/F 1026 24-12-2018 13:35:00 6.5 C 6.22 g/m*3 5.33 C 6.4 km/h
1027 24-12-2018 13:40:00 6.4 C 6.11 g/m*3 5.21 C 6.4 km/h
1028 24-12-2018 13:45:00 6.4 C 6.18 g/m*3 6.4 C 1.6 km/h
1029 24-12-2018 13:50:00 6.3 C 6.14 g/m*3 6.3 C 1.6 km/h
1030 24-12-2018 13:55:00 6.3 C 6.14 g/m*3 6.3 C 3.2 km/h
1031 24-12-2018 14:00:00 6.3 C 6.14 g/m*3 6.3 C 4.8 km/h
1032 24-12-2018 14:05:00 6.3 C 6.07 g/m*3 6.3 C 3.2 km/h
1033 24-12-2018 14:10:00 6.3 C 5.85 g/m*3 3.68 C 12.9 km/h
1034 24-12-2018 14:15:00 6.3 C 5.85 g/m*3 4.64 C 8.1 km/h
1035 24-12-2018 14:20:00 6.2 C 5.66 g/m*3 3.56 C 12.9 km/h
1036 24-12-2018 14:25:00 6.2 C 5.74 g/m*3 4.52 C 8.1 km/h
1037 24-12-2018 14:30:00 6.2 C 5.74 g/m*3 4.52 C 8.1 km/h
1038 24-12-2018 14:35:00 6.2 C 5.74 g/m*3 4.52 C 8.1 km/h
1039 24-12-2018 14:40:00 6.2 C 5.74 g/m*3 4.52 C 8.1 km/h
1040 24-12-2018 14:45:00 6.2 C 5.74 g/m*3 3.84 C 11.3 km/h
1041 24-12-2018 14:50:00 6.2 C 5.74 g/m*3 4.15 C 9.7 km/h
1042 24-12-2018 14:55:00 6.1 C 5.7 g/m*3 4.4 C 8.1 km/h
1043 24-12-2018 15:00:00 6.1 C 5.84 g/m*3 6.1 C 4.8 km/h
1044 24-12-2018 15:05:00 6.1 C 5.77 g/m*3 6.1 C 4.8 km/h
1045 24-12-2018 15:10:00 6.1 C 5.84 g/m*3 4.86 C 6.4 km/h
1046 24-12-2018 15:15:00 6.1 C 5.77 g/m*3 6.1 C 4.8 km/h
1047 24-12-2018 15:20:00 6.1 C 5.77 g/m*3 4.4 C 8.1 km/h
1048 24-12-2018 15:25:00 6.1 C 5.77 g/m*3 4.86 C 6.4 km/h
1049 24-12-2018 15:30:00 6.1 C 5.84 g/m*3 4.86 C 6.4 km/h
1050 24-12-2018 15:35:00 5.9 C 5.7 g/m*3 4.17 C 8.1 km/h
Sensor: Nr:Datum:Temp:Abs-Feuchte:Windchill:Wind:
Aussen-T/F 1051 24-12-2018 15:40:00 5.8 C 5.66 g/m*3 4.52 C 6.4 km/h
1052 24-12-2018 15:45:00 5.7 C 5.69 g/m*3 5.7 C 3.2 km/h
1053 24-12-2018 15:50:00 5.6 C 5.66 g/m*3 5.6 C 4.8 km/h
1054 24-12-2018 15:55:00 5.4 C 5.65 g/m*3 5.4 C 4.8 km/h
1055 24-12-2018 16:00:00 5.3 C 5.68 g/m*3 5.3 C 0 km/h
1056 24-12-2018 16:05:00 5.2 C 5.71 g/m*3 5.2 C 0 km/h
1057 24-12-2018 16:10:00 5.2 C 5.78 g/m*3 5.2 C 0 km/h
1058 24-12-2018 16:15:00 5 C 5.78 g/m*3 5 C 1.6 km/h
1059 24-12-2018 16:20:00 4.8 C 5.7 g/m*3 4.8 C 0 km/h
1060 24-12-2018 16:25:00 4.7 C 5.66 g/m*3 4.7 C 0 km/h
1061 24-12-2018 16:30:00 4.4 C 5.55 g/m*3 4.4 C 1.6 km/h
1062 24-12-2018 16:35:00 4.1 C 5.44 g/m*3 4.1 C 0 km/h
1063 24-12-2018 16:40:00 3.9 C 5.43 g/m*3 3.9 C 1.6 km/h
1064 24-12-2018 16:45:00 3.7 C 5.36 g/m*3 3.7 C 3.2 km/h
1065 24-12-2018 16:50:00 3.5 C 5.29 g/m*3 3.5 C 1.6 km/h
1066 24-12-2018 16:55:00 3.3 C 5.28 g/m*3 3.3 C 4.8 km/h
1067 24-12-2018 17:00:00 3.2 C 5.3 g/m*3 3.2 C 4.8 km/h
1068 24-12-2018 17:05:00 3 C 5.23 g/m*3 3 C 3.2 km/h
1069 24-12-2018 17:10:00 2.9 C 5.26 g/m*3 2.9 C 3.2 km/h
1070 24-12-2018 17:15:00 2.8 C 5.22 g/m*3 2.8 C 3.2 km/h
1071 24-12-2018 17:20:00 2.7 C 5.24 g/m*3 2.7 C 4.8 km/h
1072 24-12-2018 17:25:00 2.5 C 5.17 g/m*3 2.5 C 0 km/h
1073 24-12-2018 17:30:00 2.4 C 5.14 g/m*3 2.4 C 0 km/h
1074 24-12-2018 17:35:00 2.2 C 5.07 g/m*3 2.2 C 0 km/h
1075 24-12-2018 17:40:00 2.2 C 5.07 g/m*3 2.2 C 3.2 km/h
Sensor: Nr:Datum:Temp:Abs-Feuchte:Windchill:Wind:
Aussen-T/F 1076 24-12-2018 17:45:00 2.2 C 5.13 g/m*3 2.2 C 0 km/h
1077 24-12-2018 17:50:00 2.3 C 5.22 g/m*3 2.3 C 4.8 km/h
1078 24-12-2018 17:55:00 2.2 C 5.13 g/m*3 2.2 C 3.2 km/h
1079 24-12-2018 18:00:00 2.1 C 5.09 g/m*3 2.1 C 3.2 km/h
1080 24-12-2018 18:05:00 2 C 5.06 g/m*3 2 C 4.8 km/h
1081 24-12-2018 18:10:00 1.9 C 5.02 g/m*3 1.9 C 4.8 km/h
1082 24-12-2018 18:15:00 1.9 C 5.08 g/m*3 1.9 C 3.2 km/h
1083 24-12-2018 18:20:00 1.8 C 5.04 g/m*3 1.8 C 0 km/h
1084 24-12-2018 18:25:00 1.8 C 5.04 g/m*3 1.8 C 0 km/h
1085 24-12-2018 18:30:00 1.7 C 5.01 g/m*3 1.7 C 0 km/h
1086 24-12-2018 18:35:00 1.6 C 4.97 g/m*3 1.6 C 1.6 km/h
1087 24-12-2018 18:40:00 1.5 C 4.94 g/m*3 1.5 C 0 km/h
1088 24-12-2018 18:45:00 1.4 C 4.91 g/m*3 1.4 C 1.6 km/h
1089 24-12-2018 18:50:00 1.4 C 4.91 g/m*3 1.4 C 3.2 km/h
1090 24-12-2018 18:55:00 1.5 C 4.99 g/m*3 1.5 C 3.2 km/h
1091 24-12-2018 19:00:00 1.5 C 4.99 g/m*3 1.5 C 1.6 km/h
1092 24-12-2018 19:05:00 1.4 C 4.96 g/m*3 1.4 C 1.6 km/h
1093 24-12-2018 19:10:00 1.4 C 4.96 g/m*3 1.4 C 3.2 km/h
1094 24-12-2018 19:15:00 1.3 C 4.93 g/m*3 1.3 C 1.6 km/h
1095 24-12-2018 19:20:00 1.3 C 4.93 g/m*3 1.3 C 3.2 km/h
1096 24-12-2018 19:25:00 1.3 C 4.93 g/m*3 1.3 C 3.2 km/h
1097 24-12-2018 19:30:00 1.2 C 4.89 g/m*3 1.2 C 1.6 km/h
1098 24-12-2018 19:35:00 1.1 C 4.86 g/m*3 1.1 C 0 km/h
1099 24-12-2018 19:40:00 1 C 4.83 g/m*3 1 C 0 km/h
1100 24-12-2018 19:45:00 0.9 C 4.79 g/m*3 0.9 C 3.2 km/h
Sensor: Nr:Datum:Temp:Abs-Feuchte:Windchill:Wind:
Aussen-T/F 1101 24-12-2018 19:50:00 0.9 C 4.79 g/m*3 0.9 C 3.2 km/h
1102 24-12-2018 19:55:00 0.8 C 4.76 g/m*3 0.8 C 3.2 km/h
1103 24-12-2018 20:00:00 0.8 C 4.76 g/m*3 0.8 C 0 km/h
1104 24-12-2018 20:05:00 0.7 C 4.73 g/m*3 0.7 C 0 km/h
1105 24-12-2018 20:10:00 0.6 C 4.7 g/m*3 0.6 C 0 km/h
1106 24-12-2018 20:15:00 0.4 C 4.63 g/m*3 0.4 C 0 km/h
1107 24-12-2018 20:20:00 0.3 C 4.6 g/m*3 0.3 C 0 km/h
1108 24-12-2018 20:25:00 0.3 C 4.6 g/m*3 0.3 C 0 km/h
1109 24-12-2018 20:30:00 0.2 C 4.57 g/m*3 0.2 C 0 km/h
1110 24-12-2018 20:35:00 0.2 C 4.62 g/m*3 0.2 C 0 km/h
1111 24-12-2018 20:40:00 0.2 C 4.62 g/m*3 0.2 C 0 km/h
1112 24-12-2018 20:45:00 0.3 C 4.65 g/m*3 0.3 C 0 km/h
1113 24-12-2018 20:50:00 0.2 C 4.62 g/m*3 0.2 C 0 km/h
1114 24-12-2018 20:55:00 0.1 C 4.59 g/m*3 0.1 C 0 km/h
1115 24-12-2018 21:00:00 -0.1 C 4.52 g/m*3 -0.1 C 0 km/h
1116 24-12-2018 21:05:00 -0.2 C 4.44 g/m*3 -0.2 C 0 km/h
1117 24-12-2018 21:10:00 -0.2 C 4.49 g/m*3 -0.2 C 0 km/h
1118 24-12-2018 21:15:00 -0.3 C 4.46 g/m*3 -0.3 C 0 km/h
1119 24-12-2018 21:20:00 -0.3 C 4.46 g/m*3 -0.3 C 0 km/h
1120 24-12-2018 21:25:00 -0.3 C 4.46 g/m*3 -0.3 C 0 km/h
1121 24-12-2018 21:30:00 -0.3 C 4.46 g/m*3 -0.3 C 0 km/h
1122 24-12-2018 21:35:00 -0.3 C 4.46 g/m*3 -0.3 C 0 km/h
1123 24-12-2018 21:40:00 -0.3 C 4.46 g/m*3 -0.3 C 0 km/h
1124 24-12-2018 21:45:00 -0.4 C 4.43 g/m*3 -0.4 C 0 km/h
1125 24-12-2018 21:50:00 -0.4 C 4.43 g/m*3 -0.4 C 0 km/h
Sensor: Nr:Datum:Temp:Abs-Feuchte:Windchill:Wind:
Aussen-T/F 1126 24-12-2018 21:55:00 -0.4 C 4.48 g/m*3 -0.4 C 0 km/h
1127 24-12-2018 22:00:00 -0.4 C 4.43 g/m*3 -0.4 C 0 km/h
1128 24-12-2018 22:05:00 -0.4 C 4.48 g/m*3 -0.4 C 0 km/h
1129 24-12-2018 22:10:00 -0.4 C 4.48 g/m*3 -0.4 C 0 km/h
1130 24-12-2018 22:15:00 -0.5 C 4.45 g/m*3 -0.5 C 0 km/h
1131 24-12-2018 22:20:00 -0.5 C 4.45 g/m*3 -0.5 C 0 km/h
1132 24-12-2018 22:25:00 -0.4 C 4.48 g/m*3 -0.4 C 0 km/h
1133 24-12-2018 22:30:00 -0.4 C 4.48 g/m*3 -0.4 C 0 km/h
1134 24-12-2018 22:35:00 -0.3 C 4.51 g/m*3 -0.3 C 0 km/h
1135 24-12-2018 22:40:00 -0.2 C 4.54 g/m*3 -0.2 C 0 km/h
1136 24-12-2018 22:45:00 -0.1 C 4.57 g/m*3 -0.1 C 0 km/h
1137 24-12-2018 22:50:00 -0.1 C 4.62 g/m*3 -0.1 C 0 km/h
1138 24-12-2018 22:55:00 0 C 4.65 g/m*3 0 C 0 km/h
1139 24-12-2018 23:00:00 0.1 C 4.68 g/m*3 0.1 C 0 km/h
1140 24-12-2018 23:05:00 0.1 C 4.68 g/m*3 0.1 C 0 km/h
1141 24-12-2018 23:10:00 0.2 C 4.67 g/m*3 0.2 C 0 km/h
1142 24-12-2018 23:15:00 0.2 C 4.67 g/m*3 0.2 C 0 km/h
1143 24-12-2018 23:20:00 0.3 C 4.7 g/m*3 0.3 C 0 km/h
1144 24-12-2018 23:25:00 0.3 C 4.75 g/m*3 0.3 C 0 km/h
1145 24-12-2018 23:30:00 0.4 C 4.78 g/m*3 0.4 C 0 km/h
1146 24-12-2018 23:35:00 0.4 C 4.78 g/m*3 0.4 C 0 km/h
1147 24-12-2018 23:40:00 0.5 C 4.81 g/m*3 0.5 C 0 km/h
1148 24-12-2018 23:45:00 0.6 C 4.85 g/m*3 0.6 C 0 km/h
1149 24-12-2018 23:50:00 0.6 C 4.85 g/m*3 0.6 C 0 km/h
1150 24-12-2018 23:55:00 0.6 C 4.85 g/m*3 0.6 C 0 km/h
Sensor: Nr:Datum:Temp:Abs-Feuchte:Windchill:Wind:
Aussen-T/F 1151 25-12-2018 00:00:00 0.6 C 4.85 g/m*3 0.6 C 0 km/h
1152 25-12-2018 00:05:00 0.6 C 4.85 g/m*3 0.6 C 0 km/h
1153 25-12-2018 00:10:00 0.5 C 4.76 g/m*3 0.5 C 0 km/h
1154 25-12-2018 00:15:00 0.3 C 4.7 g/m*3 0.3 C 0 km/h
1155 25-12-2018 00:20:00 0.2 C 4.67 g/m*3 0.2 C 0 km/h
1156 25-12-2018 00:25:00 0.1 C 4.63 g/m*3 0.1 C 0 km/h
1157 25-12-2018 00:30:00 0 C 4.6 g/m*3 0 C 0 km/h
1158 25-12-2018 00:35:00 -0.1 C 4.57 g/m*3 -0.1 C 0 km/h
1159 25-12-2018 00:40:00 -0.2 C 4.54 g/m*3 -0.2 C 0 km/h
1160 25-12-2018 00:45:00 -0.2 C 4.54 g/m*3 -0.2 C 0 km/h
1161 25-12-2018 00:50:00 -0.3 C 4.51 g/m*3 -0.3 C 0 km/h
1162 25-12-2018 00:55:00 -0.4 C 4.48 g/m*3 -0.4 C 0 km/h
1163 25-12-2018 01:00:00 -0.4 C 4.48 g/m*3 -0.4 C 0 km/h
1164 25-12-2018 01:05:00 -0.4 C 4.48 g/m*3 -0.4 C 0 km/h
1165 25-12-2018 01:10:00 -0.4 C 4.48 g/m*3 -0.4 C 0 km/h
1166 25-12-2018 01:15:00 -0.3 C 4.56 g/m*3 -0.3 C 0 km/h
1167 25-12-2018 01:20:00 -0.2 C 4.59 g/m*3 -0.2 C 0 km/h
1168 25-12-2018 01:25:00 -0.2 C 4.59 g/m*3 -0.2 C 0 km/h
1169 25-12-2018 01:30:00 -0.1 C 4.62 g/m*3 -0.1 C 0 km/h
1170 25-12-2018 01:35:00 0 C 4.65 g/m*3 0 C 0 km/h
1171 25-12-2018 01:40:00 0.1 C 4.68 g/m*3 0.1 C 0 km/h
1172 25-12-2018 01:45:00 0.2 C 4.72 g/m*3 0.2 C 0 km/h
1173 25-12-2018 01:50:00 0.2 C 4.72 g/m*3 0.2 C 0 km/h
1174 25-12-2018 01:55:00 0.2 C 4.72 g/m*3 0.2 C 0 km/h
1175 25-12-2018 02:00:00 0.2 C 4.72 g/m*3 0.2 C 0 km/h
Sensor: Nr:Datum:Temp:Abs-Feuchte:Windchill:Wind:
Aussen-T/F 1176 25-12-2018 02:05:00 0.3 C 4.75 g/m*3 0.3 C 0 km/h
1177 25-12-2018 02:10:00 0.3 C 4.75 g/m*3 0.3 C 1.6 km/h
1178 25-12-2018 02:15:00 0.4 C 4.78 g/m*3 0.4 C 1.6 km/h
1179 25-12-2018 02:20:00 0.5 C 4.81 g/m*3 0.5 C 0 km/h
1180 25-12-2018 02:25:00 0.5 C 4.81 g/m*3 0.5 C 0 km/h
1181 25-12-2018 02:30:00 0.5 C 4.81 g/m*3 0.5 C 0 km/h
1182 25-12-2018 02:35:00 0.6 C 4.85 g/m*3 0.6 C 0 km/h
1183 25-12-2018 02:40:00 0.6 C 4.85 g/m*3 0.6 C 0 km/h
1184 25-12-2018 02:45:00 0.6 C 4.85 g/m*3 0.6 C 0 km/h
1185 25-12-2018 02:50:00 0.6 C 4.85 g/m*3 0.6 C 1.6 km/h
1186 25-12-2018 02:55:00 0.6 C 4.85 g/m*3 0.6 C 0 km/h
1187 25-12-2018 03:00:00 0.6 C 4.85 g/m*3 0.6 C 0 km/h
1188 25-12-2018 03:05:00 0.6 C 4.85 g/m*3 0.6 C 1.6 km/h
1189 25-12-2018 03:10:00 0.7 C 4.88 g/m*3 0.7 C 1.6 km/h
1190 25-12-2018 03:15:00 0.7 C 4.88 g/m*3 0.7 C 0 km/h
1191 25-12-2018 03:20:00 0.7 C 4.88 g/m*3 0.7 C 0 km/h
1192 25-12-2018 03:25:00 0.6 C 4.85 g/m*3 0.6 C 0 km/h
1193 25-12-2018 03:30:00 0.6 C 4.85 g/m*3 0.6 C 0 km/h
1194 25-12-2018 03:35:00 0.6 C 4.85 g/m*3 0.6 C 3.2 km/h
1195 25-12-2018 03:40:00 0.6 C 4.85 g/m*3 0.6 C 0 km/h
1196 25-12-2018 03:45:00 0.6 C 4.85 g/m*3 0.6 C 0 km/h
1197 25-12-2018 03:50:00 0.6 C 4.85 g/m*3 0.6 C 0 km/h
1198 25-12-2018 03:55:00 0.6 C 4.85 g/m*3 0.6 C 0 km/h
1199 25-12-2018 04:00:00 0.6 C 4.85 g/m*3 0.6 C 0 km/h
1200 25-12-2018 04:05:00 0.7 C 4.88 g/m*3 0.7 C 0 km/h
Sensor: Nr:Datum:Temp:Abs-Feuchte:Windchill:Wind:
Aussen-T/F 1201 25-12-2018 04:10:00 0.7 C 4.88 g/m*3 0.7 C 0 km/h
1202 25-12-2018 04:15:00 0.7 C 4.88 g/m*3 0.7 C 4.8 km/h
1203 25-12-2018 04:20:00 0.8 C 4.91 g/m*3 0.8 C 4.8 km/h
1204 25-12-2018 04:25:00 0.8 C 4.91 g/m*3 0.8 C 0 km/h
1205 25-12-2018 04:30:00 0.8 C 4.91 g/m*3 0.8 C 0 km/h
1206 25-12-2018 04:35:00 0.8 C 4.91 g/m*3 0.8 C 0 km/h
1207 25-12-2018 04:40:00 0.8 C 4.91 g/m*3 0.8 C 4.8 km/h
1208 25-12-2018 04:45:00 0.8 C 4.91 g/m*3 -1.26 C 6.4 km/h
1209 25-12-2018 04:50:00 0.9 C 4.95 g/m*3 -1.14 C 6.4 km/h
1210 25-12-2018 04:55:00 0.9 C 4.95 g/m*3 0.9 C 4.8 km/h
1211 25-12-2018 05:00:00 0.9 C 4.95 g/m*3 -3.21 C 14.5 km/h
1212 25-12-2018 05:05:00 1 C 4.98 g/m*3 -1.59 C 8.1 km/h
1213 25-12-2018 05:10:00 0.9 C 4.95 g/m*3 0.9 C 3.2 km/h
1214 25-12-2018 05:15:00 1 C 4.98 g/m*3 -2.04 C 9.7 km/h
1215 25-12-2018 05:20:00 1 C 4.98 g/m*3 -1.59 C 8.1 km/h
1216 25-12-2018 05:25:00 1 C 4.98 g/m*3 1 C 4.8 km/h
1217 25-12-2018 05:30:00 1 C 4.98 g/m*3 -1.59 C 8.1 km/h
1218 25-12-2018 05:35:00 1 C 4.98 g/m*3 1 C 3.2 km/h
1219 25-12-2018 05:40:00 1 C 4.98 g/m*3 -1.03 C 6.4 km/h
1220 25-12-2018 05:45:00 1.1 C 5.02 g/m*3 1.1 C 3.2 km/h
1221 25-12-2018 05:50:00 1.1 C 5.02 g/m*3 1.1 C 3.2 km/h
1222 25-12-2018 05:55:00 1.1 C 5.02 g/m*3 -0.91 C 6.4 km/h
1223 25-12-2018 06:00:00 1.1 C 5.02 g/m*3 1.1 C 3.2 km/h
1224 25-12-2018 06:05:00 1.1 C 5.02 g/m*3 1.1 C 0 km/h
1225 25-12-2018 06:10:00 1.1 C 5.02 g/m*3 1.1 C 0 km/h
Sensor: Nr:Datum:Temp:Abs-Feuchte:Windchill:Wind:
Aussen-T/F 1226 25-12-2018 06:15:00 1.1 C 5.02 g/m*3 1.1 C 0 km/h
1227 25-12-2018 06:20:00 1.1 C 5.02 g/m*3 1.1 C 0 km/h
1228 25-12-2018 06:25:00 1.2 C 5.05 g/m*3 1.2 C 0 km/h
1229 25-12-2018 06:30:00 1.1 C 5.02 g/m*3 1.1 C 0 km/h
1230 25-12-2018 06:35:00 1.1 C 5.02 g/m*3 1.1 C 0 km/h
1231 25-12-2018 06:40:00 1.1 C 5.02 g/m*3 1.1 C 0 km/h
1232 25-12-2018 06:45:00 1.2 C 5.05 g/m*3 1.2 C 4.8 km/h
1233 25-12-2018 06:50:00 1.2 C 5.05 g/m*3 -1.36 C 8.1 km/h
1234 25-12-2018 06:55:00 1.2 C 5.05 g/m*3 -0.8 C 6.4 km/h
1235 25-12-2018 07:00:00 1.2 C 5.05 g/m*3 -2.54 C 12.9 km/h
1236 25-12-2018 07:05:00 1.2 C 5.05 g/m*3 -1.8 C 9.7 km/h
1237 25-12-2018 07:10:00 1.2 C 5 g/m*3 -1.36 C 8.1 km/h
1238 25-12-2018 07:15:00 1.2 C 5.05 g/m*3 1.2 C 0 km/h
1239 25-12-2018 07:20:00 1.2 C 5.05 g/m*3 1.2 C 0 km/h
1240 25-12-2018 07:25:00 1.2 C 5.05 g/m*3 1.2 C 3.2 km/h
1241 25-12-2018 07:30:00 1.3 C 5.09 g/m*3 1.3 C 3.2 km/h
1242 25-12-2018 07:35:00 1.3 C 5.03 g/m*3 1.3 C 1.6 km/h
1243 25-12-2018 07:40:00 1.3 C 5.03 g/m*3 1.3 C 0 km/h
1244 25-12-2018 07:45:00 1.3 C 5.03 g/m*3 1.3 C 0 km/h
1245 25-12-2018 07:50:00 1.3 C 5.03 g/m*3 1.3 C 0 km/h
1246 25-12-2018 07:55:00 1.3 C 5.03 g/m*3 1.3 C 0 km/h
1247 25-12-2018 08:00:00 1.3 C 5.03 g/m*3 1.3 C 0 km/h
1248 25-12-2018 08:05:00 1.3 C 5.03 g/m*3 1.3 C 0 km/h
1249 25-12-2018 08:10:00 1.3 C 5.03 g/m*3 1.3 C 1.6 km/h
1250 25-12-2018 08:15:00 1.3 C 5.03 g/m*3 1.3 C 0 km/h
Sensor: Nr:Datum:Temp:Abs-Feuchte:Windchill:Wind:
Aussen-T/F 1251 25-12-2018 08:20:00 1.3 C 5.03 g/m*3 1.3 C 0 km/h
1252 25-12-2018 08:25:00 1.3 C 5.03 g/m*3 1.3 C 3.2 km/h
1253 25-12-2018 08:30:00 1.3 C 5.03 g/m*3 1.3 C 4.8 km/h
1254 25-12-2018 08:35:00 1.3 C 5.03 g/m*3 1.3 C 0 km/h
1255 25-12-2018 08:40:00 1.4 C 5.07 g/m*3 1.4 C 4.8 km/h
1256 25-12-2018 08:45:00 1.4 C 5.07 g/m*3 -0.56 C 6.4 km/h
1257 25-12-2018 08:50:00 1.4 C 5.07 g/m*3 1.4 C 4.8 km/h
1258 25-12-2018 08:55:00 1.4 C 5.07 g/m*3 -1.57 C 9.7 km/h
1259 25-12-2018 09:00:00 1.5 C 5.1 g/m*3 -1.45 C 9.7 km/h
1260 25-12-2018 09:05:00 1.6 C 5.14 g/m*3 -0.89 C 8.1 km/h
1261 25-12-2018 09:10:00 1.6 C 5.14 g/m*3 -1.33 C 9.7 km/h
1262 25-12-2018 09:15:00 1.7 C 5.12 g/m*3 -0.77 C 8.1 km/h
1263 25-12-2018 09:20:00 1.7 C 5.12 g/m*3 -0.77 C 8.1 km/h
1264 25-12-2018 09:25:00 1.8 C 5.15 g/m*3 -0.65 C 8.1 km/h
1265 25-12-2018 09:30:00 1.8 C 5.15 g/m*3 -0.65 C 8.1 km/h
1266 25-12-2018 09:35:00 1.8 C 5.15 g/m*3 -0.65 C 8.1 km/h
1267 25-12-2018 09:40:00 1.9 C 5.13 g/m*3 1.9 C 4.8 km/h
1268 25-12-2018 09:45:00 1.9 C 5.13 g/m*3 1.9 C 4.8 km/h
1269 25-12-2018 09:50:00 2 C 5.17 g/m*3 0.13 C 6.4 km/h
1270 25-12-2018 09:55:00 2.1 C 5.2 g/m*3 0.24 C 6.4 km/h
1271 25-12-2018 10:00:00 2.1 C 5.2 g/m*3 -0.3 C 8.1 km/h
1272 25-12-2018 10:05:00 2.1 C 5.2 g/m*3 2.1 C 4.8 km/h
1273 25-12-2018 10:10:00 2.2 C 5.18 g/m*3 2.2 C 3.2 km/h
1274 25-12-2018 10:15:00 2.2 C 5.18 g/m*3 2.2 C 4.8 km/h
1275 25-12-2018 10:20:00 2.2 C 5.18 g/m*3 2.2 C 1.6 km/h
Sensor: Nr:Datum:Temp:Abs-Feuchte:Windchill:Wind:
Aussen-T/F 1276 25-12-2018 10:25:00 2.3 C 5.22 g/m*3 2.3 C 4.8 km/h
1277 25-12-2018 10:30:00 2.3 C 5.22 g/m*3 2.3 C 0 km/h
1278 25-12-2018 10:35:00 2.4 C 5.25 g/m*3 2.4 C 0 km/h
1279 25-12-2018 10:40:00 2.5 C 5.29 g/m*3 2.5 C 0 km/h
1280 25-12-2018 10:45:00 2.6 C 5.32 g/m*3 2.6 C 0 km/h
1281 25-12-2018 10:50:00 2.6 C 5.32 g/m*3 2.6 C 0 km/h
1282 25-12-2018 10:55:00 2.7 C 5.36 g/m*3 2.7 C 3.2 km/h
1283 25-12-2018 11:00:00 2.8 C 5.34 g/m*3 2.8 C 4.8 km/h
1284 25-12-2018 11:05:00 2.8 C 5.34 g/m*3 1.05 C 6.4 km/h
1285 25-12-2018 11:10:00 2.8 C 5.28 g/m*3 2.8 C 4.8 km/h
1286 25-12-2018 11:15:00 2.8 C 5.28 g/m*3 1.05 C 6.4 km/h
1287 25-12-2018 11:20:00 2.8 C 5.28 g/m*3 2.8 C 4.8 km/h
1288 25-12-2018 11:25:00 2.8 C 5.28 g/m*3 0.52 C 8.1 km/h
1289 25-12-2018 11:30:00 2.8 C 5.28 g/m*3 1.05 C 6.4 km/h
1290 25-12-2018 11:35:00 2.8 C 5.28 g/m*3 1.05 C 6.4 km/h
1291 25-12-2018 11:40:00 2.8 C 5.28 g/m*3 2.8 C 4.8 km/h
1292 25-12-2018 11:45:00 2.7 C 5.19 g/m*3 2.7 C 4.8 km/h
1293 25-12-2018 11:50:00 2.7 C 5.24 g/m*3 2.7 C 0 km/h
1294 25-12-2018 11:55:00 2.7 C 5.24 g/m*3 2.7 C 0 km/h
1295 25-12-2018 12:00:00 2.6 C 5.21 g/m*3 2.6 C 0 km/h
1296 25-12-2018 12:05:00 2.6 C 5.21 g/m*3 2.6 C 1.6 km/h
1297 25-12-2018 12:10:00 2.5 C 5.17 g/m*3 2.5 C 1.6 km/h
1298 25-12-2018 12:15:00 2.4 C 5.2 g/m*3 2.4 C 0 km/h
1299 25-12-2018 12:20:00 2.4 C 5.2 g/m*3 2.4 C 1.6 km/h
1300 25-12-2018 12:25:00 2.4 C 5.2 g/m*3 0.05 C 8.1 km/h
Sensor: Nr:Datum:Temp:Abs-Feuchte:Windchill:Wind:
Aussen-T/F 1301 25-12-2018 12:30:00 2.4 C 5.2 g/m*3 0.59 C 6.4 km/h
1302 25-12-2018 12:35:00 2.5 C 5.23 g/m*3 2.5 C 3.2 km/h
1303 25-12-2018 12:40:00 2.5 C 5.23 g/m*3 2.5 C 3.2 km/h
1304 25-12-2018 12:45:00 2.5 C 5.23 g/m*3 2.5 C 3.2 km/h
1305 25-12-2018 12:50:00 2.6 C 5.27 g/m*3 2.6 C 3.2 km/h
1306 25-12-2018 12:55:00 2.5 C 5.23 g/m*3 2.5 C 1.6 km/h
1307 25-12-2018 13:00:00 2.5 C 5.23 g/m*3 2.5 C 3.2 km/h
1308 25-12-2018 13:05:00 2.5 C 5.23 g/m*3 2.5 C 1.6 km/h
1309 25-12-2018 13:10:00 2.5 C 5.23 g/m*3 0.71 C 6.4 km/h
1310 25-12-2018 13:15:00 2.5 C 5.23 g/m*3 2.5 C 3.2 km/h
1311 25-12-2018 13:20:00 2.5 C 5.23 g/m*3 2.5 C 3.2 km/h
1312 25-12-2018 13:25:00 2.6 C 5.27 g/m*3 2.6 C 1.6 km/h
1313 25-12-2018 13:30:00 2.6 C 5.32 g/m*3 2.6 C 1.6 km/h
1314 25-12-2018 13:35:00 2.6 C 5.32 g/m*3 2.6 C 0 km/h
1315 25-12-2018 13:40:00 2.6 C 5.32 g/m*3 2.6 C 1.6 km/h
1316 25-12-2018 13:45:00 2.7 C 5.36 g/m*3 2.7 C 0 km/h
1317 25-12-2018 13:50:00 2.7 C 5.36 g/m*3 2.7 C 0 km/h
1318 25-12-2018 13:55:00 2.8 C 5.4 g/m*3 2.8 C 0 km/h
1319 25-12-2018 14:00:00 2.8 C 5.46 g/m*3 2.8 C 0 km/h
1320 25-12-2018 14:05:00 3 C 5.53 g/m*3 3 C 0 km/h
1321 25-12-2018 14:10:00 3.2 C 5.66 g/m*3 3.2 C 1.6 km/h
1322 25-12-2018 14:15:00 3.6 C 5.76 g/m*3 1.98 C 6.4 km/h
1323 25-12-2018 14:20:00 3.8 C 5.77 g/m*3 2.21 C 6.4 km/h
1324 25-12-2018 14:25:00 3.9 C 5.75 g/m*3 3.9 C 4.8 km/h
1325 25-12-2018 14:30:00 4.1 C 5.82 g/m*3 4.1 C 1.6 km/h
Sensor: Nr:Datum:Temp:Abs-Feuchte:Windchill:Wind:
Aussen-T/F 1326 25-12-2018 14:35:00 4.3 C 5.9 g/m*3 4.3 C 0 km/h
1327 25-12-2018 14:40:00 4.4 C 5.94 g/m*3 4.4 C 0 km/h
1328 25-12-2018 14:45:00 4.6 C 6.02 g/m*3 4.6 C 1.6 km/h
1329 25-12-2018 14:50:00 4.7 C 6 g/m*3 4.7 C 0 km/h
1330 25-12-2018 14:55:00 4.7 C 6 g/m*3 4.7 C 0 km/h
1331 25-12-2018 15:00:00 4.8 C 6.04 g/m*3 4.8 C 0 km/h
1332 25-12-2018 15:05:00 4.8 C 6.04 g/m*3 4.8 C 0 km/h
1333 25-12-2018 15:10:00 4.9 C 6.08 g/m*3 4.9 C 0 km/h
1334 25-12-2018 15:15:00 4.9 C 6.08 g/m*3 4.9 C 0 km/h
1335 25-12-2018 15:20:00 5 C 6.12 g/m*3 5 C 0 km/h
1336 25-12-2018 15:25:00 5 C 6.12 g/m*3 5 C 0 km/h
1337 25-12-2018 15:30:00 5 C 6.12 g/m*3 5 C 0 km/h
1338 25-12-2018 15:35:00 4.9 C 6.08 g/m*3 4.9 C 0 km/h
1339 25-12-2018 15:40:00 4.9 C 6.08 g/m*3 4.9 C 1.6 km/h
1340 25-12-2018 15:45:00 4.9 C 6.08 g/m*3 4.9 C 0 km/h
1341 25-12-2018 15:50:00 4.9 C 6.01 g/m*3 4.9 C 3.2 km/h
1342 25-12-2018 15:55:00 4.8 C 5.97 g/m*3 4.8 C 0 km/h
1343 25-12-2018 16:00:00 4.8 C 5.97 g/m*3 4.8 C 0 km/h
1344 25-12-2018 16:05:00 4.8 C 6.04 g/m*3 4.8 C 0 km/h
1345 25-12-2018 16:10:00 4.8 C 6.04 g/m*3 4.8 C 0 km/h
1346 25-12-2018 16:15:00 4.7 C 6 g/m*3 4.7 C 0 km/h
1347 25-12-2018 16:20:00 4.7 C 6 g/m*3 4.7 C 1.6 km/h
1348 25-12-2018 16:25:00 4.6 C 5.96 g/m*3 4.6 C 0 km/h
1349 25-12-2018 16:30:00 4.6 C 5.96 g/m*3 4.6 C 0 km/h
1350 25-12-2018 16:35:00 4.5 C 5.92 g/m*3 4.5 C 1.6 km/h
Sensor: Nr:Datum:Temp:Abs-Feuchte:Windchill:Wind:
Aussen-T/F 1351 25-12-2018 16:40:00 4.4 C 5.88 g/m*3 4.4 C 1.6 km/h
1352 25-12-2018 16:45:00 4.3 C 5.84 g/m*3 4.3 C 0 km/h
1353 25-12-2018 16:50:00 4.2 C 5.8 g/m*3 4.2 C 1.6 km/h
1354 25-12-2018 16:55:00 4.2 C 5.8 g/m*3 4.2 C 0 km/h
1355 25-12-2018 17:00:00 4.1 C 5.76 g/m*3 4.1 C 0 km/h
1356 25-12-2018 17:05:00 4.1 C 5.76 g/m*3 4.1 C 4.8 km/h
1357 25-12-2018 17:10:00 4.1 C 5.76 g/m*3 4.1 C 3.2 km/h
1358 25-12-2018 17:15:00 4.1 C 5.76 g/m*3 4.1 C 1.6 km/h
1359 25-12-2018 17:20:00 4 C 5.72 g/m*3 4 C 0 km/h
1360 25-12-2018 17:25:00 4.1 C 5.82 g/m*3 4.1 C 0 km/h
1361 25-12-2018 17:30:00 4 C 5.79 g/m*3 4 C 0 km/h
1362 25-12-2018 17:35:00 4 C 5.79 g/m*3 4 C 0 km/h
1363 25-12-2018 17:40:00 4 C 5.79 g/m*3 4 C 0 km/h
1364 25-12-2018 17:45:00 3.9 C 5.75 g/m*3 3.9 C 0 km/h
1365 25-12-2018 17:50:00 3.9 C 5.75 g/m*3 3.9 C 0 km/h
1366 25-12-2018 17:55:00 3.8 C 5.71 g/m*3 3.8 C 0 km/h
1367 25-12-2018 18:00:00 3.8 C 5.71 g/m*3 3.8 C 0 km/h
1368 25-12-2018 18:05:00 3.8 C 5.71 g/m*3 3.8 C 0 km/h
1369 25-12-2018 18:10:00 3.8 C 5.77 g/m*3 3.8 C 0 km/h
1370 25-12-2018 18:15:00 3.7 C 5.73 g/m*3 3.7 C 1.6 km/h
1371 25-12-2018 18:20:00 3.7 C 5.67 g/m*3 3.7 C 0 km/h
1372 25-12-2018 18:25:00 3.6 C 5.63 g/m*3 3.6 C 0 km/h
1373 25-12-2018 18:30:00 3.6 C 5.69 g/m*3 3.6 C 0 km/h
1374 25-12-2018 18:35:00 3.5 C 5.66 g/m*3 3.5 C 0 km/h
1375 25-12-2018 18:40:00 3.4 C 5.62 g/m*3 3.4 C 0 km/h
Sensor: Nr:Datum:Temp:Abs-Feuchte:Windchill:Wind:
Aussen-T/F 1376 25-12-2018 18:45:00 3.4 C 5.62 g/m*3 3.4 C 0 km/h
1377 25-12-2018 18:50:00 3.3 C 5.58 g/m*3 3.3 C 0 km/h
1378 25-12-2018 18:55:00 3.3 C 5.58 g/m*3 3.3 C 0 km/h
1379 25-12-2018 19:00:00 3.3 C 5.58 g/m*3 3.3 C 0 km/h
1380 25-12-2018 19:05:00 3.3 C 5.58 g/m*3 3.3 C 0 km/h
1381 25-12-2018 19:10:00 3.3 C 5.52 g/m*3 3.3 C 3.2 km/h
1382 25-12-2018 19:15:00 3.3 C 5.52 g/m*3 3.3 C 4.8 km/h
1383 25-12-2018 19:20:00 3.3 C 5.52 g/m*3 3.3 C 0 km/h
1384 25-12-2018 19:25:00 3.4 C 5.62 g/m*3 3.4 C 0 km/h
1385 25-12-2018 19:30:00 3.4 C 5.62 g/m*3 3.4 C 0 km/h
1386 25-12-2018 19:35:00 3.4 C 5.56 g/m*3 3.4 C 0 km/h
1387 25-12-2018 19:40:00 3.3 C 5.52 g/m*3 3.3 C 0 km/h
1388 25-12-2018 19:45:00 3.3 C 5.52 g/m*3 3.3 C 0 km/h
1389 25-12-2018 19:50:00 3.2 C 5.48 g/m*3 3.2 C 0 km/h
1390 25-12-2018 19:55:00 3.2 C 5.48 g/m*3 3.2 C 0 km/h
1391 25-12-2018 20:00:00 3 C 5.41 g/m*3 3 C 0 km/h
1392 25-12-2018 20:05:00 2.8 C 5.28 g/m*3 2.8 C 0 km/h
1393 25-12-2018 20:10:00 2.6 C 5.21 g/m*3 2.6 C 0 km/h
1394 25-12-2018 20:15:00 2.4 C 5.14 g/m*3 2.4 C 0 km/h
1395 25-12-2018 20:20:00 2.2 C 5.07 g/m*3 2.2 C 0 km/h
1396 25-12-2018 20:25:00 1.9 C 4.97 g/m*3 1.9 C 0 km/h
1397 25-12-2018 20:30:00 1.7 C 4.95 g/m*3 1.7 C 3.2 km/h
1398 25-12-2018 20:35:00 1.6 C 4.92 g/m*3 1.6 C 0 km/h
1399 25-12-2018 20:40:00 1.4 C 4.85 g/m*3 1.4 C 3.2 km/h
1400 25-12-2018 20:45:00 1.4 C 4.91 g/m*3 1.4 C 3.2 km/h
Sensor: Nr:Datum:Temp:Abs-Feuchte:Windchill:Wind:
Aussen-T/F 1401 25-12-2018 20:50:00 1.3 C 4.87 g/m*3 1.3 C 0 km/h
1402 25-12-2018 20:55:00 1.2 C 4.84 g/m*3 1.2 C 0 km/h
1403 25-12-2018 21:00:00 1.1 C 4.81 g/m*3 1.1 C 0 km/h
1404 25-12-2018 21:05:00 1 C 4.78 g/m*3 1 C 0 km/h
1405 25-12-2018 21:10:00 0.9 C 4.74 g/m*3 0.9 C 0 km/h
1406 25-12-2018 21:15:00 0.8 C 4.71 g/m*3 0.8 C 0 km/h
1407 25-12-2018 21:20:00 0.7 C 4.73 g/m*3 0.7 C 0 km/h
1408 25-12-2018 21:25:00 0.7 C 4.73 g/m*3 0.7 C 0 km/h
1409 25-12-2018 21:30:00 0.6 C 4.7 g/m*3 0.6 C 0 km/h
1410 25-12-2018 21:35:00 0.6 C 4.7 g/m*3 0.6 C 0 km/h
1411 25-12-2018 21:40:00 0.4 C 4.63 g/m*3 0.4 C 0 km/h
1412 25-12-2018 21:45:00 0.4 C 4.63 g/m*3 0.4 C 0 km/h
1413 25-12-2018 21:50:00 0.3 C 4.6 g/m*3 0.3 C 0 km/h
1414 25-12-2018 21:55:00 0.3 C 4.6 g/m*3 0.3 C 1.6 km/h
1415 25-12-2018 22:00:00 0.2 C 4.57 g/m*3 0.2 C 0 km/h
1416 25-12-2018 22:05:00 0.2 C 4.62 g/m*3 0.2 C 0 km/h
1417 25-12-2018 22:10:00 0.2 C 4.57 g/m*3 0.2 C 0 km/h
1418 25-12-2018 22:15:00 0.1 C 4.59 g/m*3 0.1 C 0 km/h
1419 25-12-2018 22:20:00 0 C 4.55 g/m*3 0 C 3.2 km/h
1420 25-12-2018 22:25:00 -0.1 C 4.52 g/m*3 -0.1 C 0 km/h
1421 25-12-2018 22:30:00 -0.2 C 4.44 g/m*3 -0.2 C 0 km/h
1422 25-12-2018 22:35:00 -0.3 C 4.41 g/m*3 -0.3 C 0 km/h
1423 25-12-2018 22:40:00 -0.4 C 4.43 g/m*3 -0.4 C 0 km/h
1424 25-12-2018 22:45:00 -0.5 C 4.4 g/m*3 -0.5 C 0 km/h
1425 25-12-2018 22:50:00 -0.5 C 4.4 g/m*3 -0.5 C 3.2 km/h
Sensor: Nr:Datum:Temp:Abs-Feuchte:Windchill:Wind:
Aussen-T/F 1426 25-12-2018 22:55:00 -0.6 C 4.37 g/m*3 -0.6 C 0 km/h
1427 25-12-2018 23:00:00 -0.6 C 4.37 g/m*3 -0.6 C 1.6 km/h
1428 25-12-2018 23:05:00 -0.7 C 4.34 g/m*3 -0.7 C 0 km/h
1429 25-12-2018 23:10:00 -0.7 C 4.34 g/m*3 -0.7 C 0 km/h
1430 25-12-2018 23:15:00 -0.7 C 4.34 g/m*3 -0.7 C 0 km/h
1431 25-12-2018 23:20:00 -0.8 C 4.31 g/m*3 -0.8 C 0 km/h
1432 25-12-2018 23:25:00 -0.8 C 4.31 g/m*3 -0.8 C 0 km/h
1433 25-12-2018 23:30:00 -0.8 C 4.31 g/m*3 -0.8 C 4.8 km/h
1434 25-12-2018 23:35:00 -0.9 C 4.28 g/m*3 -0.9 C 1.6 km/h
1435 25-12-2018 23:40:00 -0.9 C 4.28 g/m*3 -0.9 C 0 km/h
1436 25-12-2018 23:45:00 -1 C 4.25 g/m*3 -1 C 0 km/h
1437 25-12-2018 23:50:00 -1.1 C 4.22 g/m*3 -1.1 C 0 km/h
1438 25-12-2018 23:55:00 -1.1 C 4.22 g/m*3 -1.1 C 0 km/h
1439 26-12-2018 00:00:00 -1.1 C 4.22 g/m*3 -1.1 C 3.2 km/h
1440 26-12-2018 00:05:00 -1.1 C 4.26 g/m*3 -1.1 C 3.2 km/h
1441 26-12-2018 00:10:00 -1.1 C 4.26 g/m*3 -1.1 C 0 km/h
1442 26-12-2018 00:15:00 -1.2 C 4.24 g/m*3 -1.2 C 0 km/h
1443 26-12-2018 00:20:00 -1.3 C 4.16 g/m*3 -1.3 C 4.8 km/h
1444 26-12-2018 00:25:00 -1.3 C 4.21 g/m*3 -1.3 C 4.8 km/h
1445 26-12-2018 00:30:00 -1.3 C 4.21 g/m*3 -1.3 C 1.6 km/h
1446 26-12-2018 00:35:00 -1.3 C 4.21 g/m*3 -1.3 C 1.6 km/h
1447 26-12-2018 00:40:00 -1.3 C 4.21 g/m*3 -1.3 C 1.6 km/h
1448 26-12-2018 00:45:00 -1.2 C 4.24 g/m*3 -1.2 C 4.8 km/h
1449 26-12-2018 00:50:00 -1.1 C 4.26 g/m*3 -1.1 C 4.8 km/h
1450 26-12-2018 00:55:00 -1.1 C 4.26 g/m*3 -3.45 C 6.4 km/h
Sensor: Nr:Datum:Temp:Abs-Feuchte:Windchill:Wind:
Aussen-T/F 1451 26-12-2018 01:00:00 -1 C 4.34 g/m*3 -1 C 4.8 km/h
1452 26-12-2018 01:05:00 -0.9 C 4.37 g/m*3 -3.22 C 6.4 km/h
1453 26-12-2018 01:10:00 -0.9 C 4.37 g/m*3 -0.9 C 4.8 km/h
1454 26-12-2018 01:15:00 -0.9 C 4.37 g/m*3 -0.9 C 4.8 km/h
1455 26-12-2018 01:20:00 -0.9 C 4.37 g/m*3 -3.22 C 6.4 km/h
1456 26-12-2018 01:25:00 -1 C 4.29 g/m*3 -3.34 C 6.4 km/h
1457 26-12-2018 01:30:00 -1 C 4.29 g/m*3 -1 C 4.8 km/h
1458 26-12-2018 01:35:00 -1.1 C 4.26 g/m*3 -4.97 C 11.3 km/h
1459 26-12-2018 01:40:00 -1.1 C 4.26 g/m*3 -3.45 C 6.4 km/h
1460 26-12-2018 01:45:00 -1.1 C 4.31 g/m*3 -1.1 C 4.8 km/h
1461 26-12-2018 01:50:00 -1.1 C 4.31 g/m*3 -3.45 C 6.4 km/h
1462 26-12-2018 01:55:00 -1.1 C 4.31 g/m*3 -1.1 C 3.2 km/h
1463 26-12-2018 02:00:00 -1.1 C 4.31 g/m*3 -1.1 C 0 km/h
1464 26-12-2018 02:05:00 -1.1 C 4.31 g/m*3 -1.1 C 4.8 km/h
1465 26-12-2018 02:10:00 -1.1 C 4.31 g/m*3 -1.1 C 3.2 km/h
1466 26-12-2018 02:15:00 -1.1 C 4.31 g/m*3 -3.45 C 6.4 km/h
1467 26-12-2018 02:20:00 -1.1 C 4.31 g/m*3 -1.1 C 4.8 km/h
1468 26-12-2018 02:25:00 -1.2 C 4.28 g/m*3 -1.2 C 4.8 km/h
1469 26-12-2018 02:30:00 -1.2 C 4.28 g/m*3 -4.18 C 8.1 km/h
1470 26-12-2018 02:35:00 -1.2 C 4.28 g/m*3 -3.57 C 6.4 km/h
1471 26-12-2018 02:40:00 -1.2 C 4.28 g/m*3 -4.18 C 8.1 km/h
1472 26-12-2018 02:45:00 -1.3 C 4.25 g/m*3 -3.68 C 6.4 km/h
1473 26-12-2018 02:50:00 -1.3 C 4.25 g/m*3 -1.3 C 4.8 km/h
1474 26-12-2018 02:55:00 -1.3 C 4.25 g/m*3 -3.68 C 6.4 km/h
1475 26-12-2018 03:00:00 -1.3 C 4.25 g/m*3 -1.3 C 1.6 km/h
Sensor: Nr:Datum:Temp:Abs-Feuchte:Windchill:Wind:
Aussen-T/F 1476 26-12-2018 03:05:00 -1.4 C 4.22 g/m*3 -1.4 C 3.2 km/h
1477 26-12-2018 03:10:00 -1.4 C 4.22 g/m*3 -1.4 C 3.2 km/h
1478 26-12-2018 03:15:00 -1.4 C 4.22 g/m*3 -1.4 C 4.8 km/h
1479 26-12-2018 03:20:00 -1.4 C 4.22 g/m*3 -1.4 C 4.8 km/h
1480 26-12-2018 03:25:00 -1.5 C 4.19 g/m*3 -4.53 C 8.1 km/h
1481 26-12-2018 03:30:00 -1.4 C 4.22 g/m*3 -3.8 C 6.4 km/h
1482 26-12-2018 03:35:00 -1.4 C 4.22 g/m*3 -3.8 C 6.4 km/h
1483 26-12-2018 03:40:00 -1.4 C 4.22 g/m*3 -1.4 C 3.2 km/h
1484 26-12-2018 03:45:00 -1.4 C 4.22 g/m*3 -1.4 C 4.8 km/h
1485 26-12-2018 03:50:00 -1.5 C 4.19 g/m*3 -3.91 C 6.4 km/h
1486 26-12-2018 03:55:00 -1.5 C 4.19 g/m*3 -1.5 C 4.8 km/h
1487 26-12-2018 04:00:00 -1.6 C 4.16 g/m*3 -1.6 C 4.8 km/h
1488 26-12-2018 04:05:00 -1.6 C 4.16 g/m*3 -1.6 C 1.6 km/h
1489 26-12-2018 04:10:00 -1.6 C 4.16 g/m*3 -1.6 C 3.2 km/h
1490 26-12-2018 04:15:00 -1.6 C 4.16 g/m*3 -1.6 C 0 km/h
1491 26-12-2018 04:20:00 -1.6 C 4.16 g/m*3 -1.6 C 0 km/h
1492 26-12-2018 04:25:00 -1.6 C 4.16 g/m*3 -1.6 C 0 km/h
1493 26-12-2018 04:30:00 -1.6 C 4.16 g/m*3 -1.6 C 0 km/h
1494 26-12-2018 04:35:00 -1.6 C 4.16 g/m*3 -1.6 C 0 km/h
1495 26-12-2018 04:40:00 -1.6 C 4.16 g/m*3 -1.6 C 0 km/h
1496 26-12-2018 04:45:00 -1.6 C 4.16 g/m*3 -1.6 C 0 km/h
1497 26-12-2018 04:50:00 -1.6 C 4.16 g/m*3 -1.6 C 0 km/h
1498 26-12-2018 04:55:00 -1.6 C 4.16 g/m*3 -1.6 C 3.2 km/h
1499 26-12-2018 05:00:00 -1.6 C 4.16 g/m*3 -1.6 C 4.8 km/h
1500 26-12-2018 05:05:00 -1.6 C 4.16 g/m*3 -4.03 C 6.4 km/h
Sensor: Nr:Datum:Temp:Abs-Feuchte:Windchill:Wind:
Aussen-T/F 1501 26-12-2018 05:10:00 -1.6 C 4.16 g/m*3 -1.6 C 4.8 km/h
1502 26-12-2018 05:15:00 -1.6 C 4.16 g/m*3 -4.03 C 6.4 km/h
1503 26-12-2018 05:20:00 -1.6 C 4.16 g/m*3 -1.6 C 4.8 km/h
1504 26-12-2018 05:25:00 -1.6 C 4.16 g/m*3 -4.03 C 6.4 km/h
1505 26-12-2018 05:30:00 -1.6 C 4.16 g/m*3 -1.6 C 4.8 km/h
1506 26-12-2018 05:35:00 -1.7 C 4.13 g/m*3 -1.7 C 1.6 km/h
1507 26-12-2018 05:40:00 -1.7 C 4.13 g/m*3 -1.7 C 4.8 km/h
1508 26-12-2018 05:45:00 -1.7 C 4.13 g/m*3 -4.77 C 8.1 km/h
1509 26-12-2018 05:50:00 -1.7 C 4.13 g/m*3 -1.7 C 0 km/h
1510 26-12-2018 05:55:00 -1.7 C 4.13 g/m*3 -1.7 C 1.6 km/h
1511 26-12-2018 06:00:00 -1.7 C 4.13 g/m*3 -1.7 C 4.8 km/h
1512 26-12-2018 06:05:00 -1.6 C 4.16 g/m*3 -1.6 C 3.2 km/h
1513 26-12-2018 06:10:00 -1.6 C 4.16 g/m*3 -1.6 C 3.2 km/h
1514 26-12-2018 06:15:00 -1.6 C 4.16 g/m*3 -1.6 C 1.6 km/h
1515 26-12-2018 06:20:00 -1.6 C 4.16 g/m*3 -1.6 C 0 km/h
1516 26-12-2018 06:25:00 -1.7 C 4.13 g/m*3 -1.7 C 0 km/h
1517 26-12-2018 06:30:00 -1.7 C 4.13 g/m*3 -1.7 C 3.2 km/h
1518 26-12-2018 06:35:00 -1.8 C 4.1 g/m*3 -1.8 C 1.6 km/h
1519 26-12-2018 06:40:00 -1.8 C 4.1 g/m*3 -1.8 C 1.6 km/h
1520 26-12-2018 06:45:00 -1.8 C 4.1 g/m*3 -1.8 C 0 km/h
1521 26-12-2018 06:50:00 -1.9 C 4.08 g/m*3 -1.9 C 1.6 km/h
1522 26-12-2018 06:55:00 -1.9 C 4.08 g/m*3 -1.9 C 3.2 km/h
1523 26-12-2018 07:00:00 -1.9 C 4.08 g/m*3 -1.9 C 4.8 km/h
1524 26-12-2018 07:05:00 -1.9 C 4.08 g/m*3 -1.9 C 0 km/h
1525 26-12-2018 07:10:00 -1.9 C 4.08 g/m*3 -1.9 C 1.6 km/h
Sensor: Nr:Datum:Temp:Abs-Feuchte:Windchill:Wind:
Aussen-T/F 1526 26-12-2018 07:15:00 -1.9 C 4.08 g/m*3 -1.9 C 1.6 km/h
1527 26-12-2018 07:20:00 -1.9 C 4.08 g/m*3 -1.9 C 1.6 km/h
1528 26-12-2018 07:25:00 -1.9 C 4.08 g/m*3 -1.9 C 1.6 km/h
1529 26-12-2018 07:30:00 -1.9 C 4.08 g/m*3 -1.9 C 1.6 km/h
1530 26-12-2018 07:35:00 -1.9 C 4.08 g/m*3 -1.9 C 3.2 km/h
1531 26-12-2018 07:40:00 -2 C 4.05 g/m*3 -2 C 3.2 km/h
1532 26-12-2018 07:45:00 -2 C 4.05 g/m*3 -2 C 3.2 km/h
1533 26-12-2018 07:50:00 -2 C 4.05 g/m*3 -2 C 1.6 km/h
1534 26-12-2018 07:55:00 -2.1 C 4.02 g/m*3 -2.1 C 1.6 km/h
1535 26-12-2018 08:00:00 -2.1 C 4.02 g/m*3 -2.1 C 1.6 km/h
1536 26-12-2018 08:05:00 -2.1 C 4.02 g/m*3 -2.1 C 3.2 km/h
1537 26-12-2018 08:10:00 -2.1 C 4.02 g/m*3 -2.1 C 4.8 km/h
1538 26-12-2018 08:15:00 -2.1 C 4.02 g/m*3 -2.1 C 0 km/h
1539 26-12-2018 08:20:00 -2.1 C 4.02 g/m*3 -2.1 C 0 km/h
1540 26-12-2018 08:25:00 -2.1 C 4.02 g/m*3 -2.1 C 1.6 km/h
1541 26-12-2018 08:30:00 -2.1 C 4.02 g/m*3 -2.1 C 0 km/h
1542 26-12-2018 08:35:00 -2.1 C 4.02 g/m*3 -2.1 C 0 km/h
1543 26-12-2018 08:40:00 -2.1 C 4.02 g/m*3 -2.1 C 0 km/h
1544 26-12-2018 08:45:00 -2 C 4.05 g/m*3 -2 C 3.2 km/h
1545 26-12-2018 08:50:00 -1.9 C 4.08 g/m*3 -4.38 C 6.4 km/h
1546 26-12-2018 08:55:00 -1.9 C 4.08 g/m*3 -1.9 C 4.8 km/h
1547 26-12-2018 09:00:00 -1.9 C 4.08 g/m*3 -4.38 C 6.4 km/h
1548 26-12-2018 09:05:00 -1.9 C 4.08 g/m*3 -1.9 C 1.6 km/h
1549 26-12-2018 09:10:00 -1.9 C 4.08 g/m*3 -1.9 C 4.8 km/h
1550 26-12-2018 09:15:00 -1.9 C 4.08 g/m*3 -1.9 C 0 km/h
Sensor: Nr:Datum:Temp:Abs-Feuchte:Windchill:Wind:
Aussen-T/F 1551 26-12-2018 09:20:00 -1.9 C 4.08 g/m*3 -4.38 C 6.4 km/h
1552 26-12-2018 09:25:00 -1.9 C 4.08 g/m*3 -1.9 C 3.2 km/h
1553 26-12-2018 09:30:00 -1.9 C 4.08 g/m*3 -1.9 C 4.8 km/h
1554 26-12-2018 09:35:00 -1.9 C 4.08 g/m*3 -1.9 C 3.2 km/h
1555 26-12-2018 09:40:00 -1.9 C 4.08 g/m*3 -1.9 C 3.2 km/h
1556 26-12-2018 09:45:00 -1.9 C 4.08 g/m*3 -1.9 C 1.6 km/h
1557 26-12-2018 09:50:00 -1.9 C 4.08 g/m*3 -1.9 C 4.8 km/h
1558 26-12-2018 09:55:00 -1.9 C 4.08 g/m*3 -1.9 C 3.2 km/h
1559 26-12-2018 10:00:00 -1.9 C 4.08 g/m*3 -1.9 C 0 km/h
1560 26-12-2018 10:05:00 -1.9 C 4.08 g/m*3 -1.9 C 4.8 km/h
1561 26-12-2018 10:10:00 -1.9 C 4.08 g/m*3 -1.9 C 4.8 km/h
1562 26-12-2018 10:15:00 -1.9 C 4.08 g/m*3 -1.9 C 3.2 km/h
1563 26-12-2018 10:20:00 -1.9 C 4.08 g/m*3 -1.9 C 3.2 km/h
1564 26-12-2018 10:25:00 -1.8 C 4.1 g/m*3 -1.8 C 3.2 km/h
1565 26-12-2018 10:30:00 -1.8 C 4.1 g/m*3 -1.8 C 1.6 km/h
1566 26-12-2018 10:35:00 -1.8 C 4.1 g/m*3 -1.8 C 0 km/h
1567 26-12-2018 10:40:00 -1.7 C 4.13 g/m*3 -1.7 C 0 km/h
1568 26-12-2018 10:45:00 -1.7 C 4.13 g/m*3 -1.7 C 0 km/h
1569 26-12-2018 10:50:00 -1.6 C 4.16 g/m*3 -1.6 C 0 km/h
1570 26-12-2018 10:55:00 -1.5 C 4.19 g/m*3 -1.5 C 3.2 km/h
1571 26-12-2018 11:00:00 -1.5 C 4.19 g/m*3 -1.5 C 0 km/h
1572 26-12-2018 11:05:00 -1.4 C 4.22 g/m*3 -1.4 C 1.6 km/h
1573 26-12-2018 11:10:00 -1.3 C 4.25 g/m*3 -1.3 C 3.2 km/h
1574 26-12-2018 11:15:00 -1.2 C 4.28 g/m*3 -1.2 C 1.6 km/h
1575 26-12-2018 11:20:00 -1.2 C 4.28 g/m*3 -1.2 C 1.6 km/h
Sensor: Nr:Datum:Temp:Abs-Feuchte:Windchill:Wind:
Aussen-T/F 1576 26-12-2018 11:25:00 -1.2 C 4.28 g/m*3 -1.2 C 0 km/h
1577 26-12-2018 11:30:00 -1.1 C 4.31 g/m*3 -1.1 C 0 km/h
1578 26-12-2018 11:35:00 -1 C 4.34 g/m*3 -1 C 0 km/h
1579 26-12-2018 11:40:00 -0.9 C 4.37 g/m*3 -0.9 C 0 km/h
1580 26-12-2018 11:45:00 -0.9 C 4.37 g/m*3 -0.9 C 0 km/h
1581 26-12-2018 11:50:00 -0.8 C 4.4 g/m*3 -0.8 C 0 km/h
1582 26-12-2018 11:55:00 -0.8 C 4.35 g/m*3 -0.8 C 0 km/h
1583 26-12-2018 12:00:00 -0.7 C 4.43 g/m*3 -0.7 C 0 km/h
1584 26-12-2018 12:05:00 -0.7 C 4.39 g/m*3 -0.7 C 0 km/h
1585 26-12-2018 12:10:00 -0.7 C 4.39 g/m*3 -0.7 C 0 km/h
1586 26-12-2018 12:15:00 -0.6 C 4.42 g/m*3 -0.6 C 0 km/h
1587 26-12-2018 12:20:00 -0.6 C 4.42 g/m*3 -0.6 C 0 km/h
1588 26-12-2018 12:25:00 -0.4 C 4.48 g/m*3 -0.4 C 0 km/h
1589 26-12-2018 12:30:00 -0.4 C 4.48 g/m*3 -0.4 C 0 km/h
1590 26-12-2018 12:35:00 -0.3 C 4.51 g/m*3 -0.3 C 0 km/h
1591 26-12-2018 12:40:00 -0.2 C 4.54 g/m*3 -0.2 C 0 km/h
1592 26-12-2018 12:45:00 -0.1 C 4.57 g/m*3 -0.1 C 0 km/h
1593 26-12-2018 12:50:00 -0.1 C 4.57 g/m*3 -0.1 C 0 km/h
1594 26-12-2018 12:55:00 0 C 4.6 g/m*3 0 C 4.8 km/h
1595 26-12-2018 13:00:00 0 C 4.6 g/m*3 0 C 1.6 km/h
1596 26-12-2018 13:05:00 0 C 4.6 g/m*3 0 C 0 km/h
1597 26-12-2018 13:10:00 0.1 C 4.63 g/m*3 0.1 C 4.8 km/h
1598 26-12-2018 13:15:00 0.1 C 4.63 g/m*3 0.1 C 4.8 km/h
1599 26-12-2018 13:20:00 0.1 C 4.63 g/m*3 0.1 C 4.8 km/h
1600 26-12-2018 13:25:00 0.2 C 4.67 g/m*3 0.2 C 3.2 km/h
Sensor: Nr:Datum:Temp:Abs-Feuchte:Windchill:Wind:
Aussen-T/F 1601 26-12-2018 13:30:00 0.2 C 4.67 g/m*3 0.2 C 0 km/h
1602 26-12-2018 13:35:00 0.3 C 4.7 g/m*3 0.3 C 3.2 km/h
1603 26-12-2018 13:40:00 0.3 C 4.7 g/m*3 0.3 C 3.2 km/h
1604 26-12-2018 13:45:00 0.4 C 4.73 g/m*3 0.4 C 1.6 km/h
1605 26-12-2018 13:50:00 0.4 C 4.73 g/m*3 0.4 C 3.2 km/h
1606 26-12-2018 13:55:00 0.5 C 4.76 g/m*3 0.5 C 0 km/h
1607 26-12-2018 14:00:00 0.6 C 4.8 g/m*3 0.6 C 0 km/h
1608 26-12-2018 14:05:00 0.6 C 4.8 g/m*3 0.6 C 0 km/h
1609 26-12-2018 14:10:00 0.6 C 4.8 g/m*3 0.6 C 0 km/h
1610 26-12-2018 14:15:00 0.6 C 4.75 g/m*3 0.6 C 0 km/h
1611 26-12-2018 14:20:00 0.6 C 4.75 g/m*3 0.6 C 0 km/h
1612 26-12-2018 14:25:00 0.7 C 4.78 g/m*3 0.7 C 0 km/h
1613 26-12-2018 14:30:00 0.7 C 4.78 g/m*3 0.7 C 0 km/h
1614 26-12-2018 14:35:00 0.8 C 4.81 g/m*3 0.8 C 0 km/h
1615 26-12-2018 14:40:00 0.8 C 4.86 g/m*3 0.8 C 0 km/h
1616 26-12-2018 14:45:00 0.9 C 4.9 g/m*3 0.9 C 0 km/h
1617 26-12-2018 14:50:00 1.1 C 4.96 g/m*3 1.1 C 0 km/h
1618 26-12-2018 14:55:00 1.1 C 4.96 g/m*3 1.1 C 0 km/h
1619 26-12-2018 15:00:00 1.2 C 5 g/m*3 1.2 C 0 km/h
1620 26-12-2018 15:05:00 1.3 C 5.03 g/m*3 1.3 C 0 km/h
1621 26-12-2018 15:10:00 1.3 C 5.03 g/m*3 1.3 C 0 km/h
1622 26-12-2018 15:15:00 1.3 C 5.03 g/m*3 1.3 C 1.6 km/h
1623 26-12-2018 15:20:00 1.3 C 4.98 g/m*3 1.3 C 1.6 km/h
1624 26-12-2018 15:25:00 1.3 C 4.98 g/m*3 1.3 C 0 km/h
1625 26-12-2018 15:30:00 1.3 C 4.98 g/m*3 1.3 C 0 km/h
Sensor: Nr:Datum:Temp:Abs-Feuchte:Windchill:Wind:
Aussen-T/F 1626 26-12-2018 15:35:00 1.3 C 4.98 g/m*3 1.3 C 0 km/h
1627 26-12-2018 15:40:00 1.2 C 4.95 g/m*3 1.2 C 0 km/h
1628 26-12-2018 15:45:00 1.2 C 4.95 g/m*3 1.2 C 0 km/h
1629 26-12-2018 15:50:00 1.1 C 4.91 g/m*3 1.1 C 0 km/h
1630 26-12-2018 15:55:00 1 C 4.88 g/m*3 1 C 0 km/h
1631 26-12-2018 16:00:00 0.9 C 4.85 g/m*3 0.9 C 0 km/h
1632 26-12-2018 16:05:00 0.8 C 4.81 g/m*3 0.8 C 0 km/h
1633 26-12-2018 16:10:00 0.8 C 4.81 g/m*3 0.8 C 0 km/h
1634 26-12-2018 16:15:00 0.7 C 4.78 g/m*3 0.7 C 0 km/h
1635 26-12-2018 16:20:00 0.7 C 4.78 g/m*3 0.7 C 0 km/h
1636 26-12-2018 16:25:00 0.6 C 4.75 g/m*3 0.6 C 0 km/h
1637 26-12-2018 16:30:00 0.5 C 4.71 g/m*3 0.5 C 0 km/h
1638 26-12-2018 16:35:00 0.4 C 4.68 g/m*3 0.4 C 0 km/h
1639 26-12-2018 16:40:00 0.4 C 4.68 g/m*3 0.4 C 0 km/h
1640 26-12-2018 16:45:00 0.3 C 4.65 g/m*3 0.3 C 0 km/h
1641 26-12-2018 16:50:00 0.3 C 4.65 g/m*3 0.3 C 0 km/h
1642 26-12-2018 16:55:00 0.2 C 4.62 g/m*3 0.2 C 0 km/h
1643 26-12-2018 17:00:00 0.2 C 4.62 g/m*3 0.2 C 0 km/h
1644 26-12-2018 17:05:00 0.1 C 4.59 g/m*3 0.1 C 0 km/h
1645 26-12-2018 17:10:00 0.1 C 4.59 g/m*3 0.1 C 0 km/h
1646 26-12-2018 17:15:00 0 C 4.6 g/m*3 0 C 0 km/h
1647 26-12-2018 17:20:00 -0.1 C 4.57 g/m*3 -0.1 C 0 km/h
1648 26-12-2018 17:25:00 -0.1 C 4.57 g/m*3 -0.1 C 0 km/h
1649 26-12-2018 17:30:00 -0.2 C 4.49 g/m*3 -0.2 C 0 km/h
1650 26-12-2018 17:35:00 -0.2 C 4.54 g/m*3 -0.2 C 0 km/h
Sensor: Nr:Datum:Temp:Abs-Feuchte:Windchill:Wind:
Aussen-T/F 1651 26-12-2018 17:40:00 -0.2 C 4.54 g/m*3 -0.2 C 0 km/h
1652 26-12-2018 17:45:00 -0.2 C 4.54 g/m*3 -0.2 C 0 km/h
1653 26-12-2018 17:50:00 -0.3 C 4.51 g/m*3 -0.3 C 0 km/h
1654 26-12-2018 17:55:00 -0.3 C 4.51 g/m*3 -0.3 C 0 km/h
1655 26-12-2018 18:00:00 -0.3 C 4.51 g/m*3 -0.3 C 0 km/h
1656 26-12-2018 18:05:00 -0.3 C 4.51 g/m*3 -0.3 C 0 km/h
1657 26-12-2018 18:10:00 -0.4 C 4.48 g/m*3 -0.4 C 0 km/h
1658 26-12-2018 18:15:00 -0.4 C 4.48 g/m*3 -0.4 C 0 km/h
1659 26-12-2018 18:20:00 -0.4 C 4.48 g/m*3 -0.4 C 0 km/h
1660 26-12-2018 18:25:00 -0.4 C 4.48 g/m*3 -0.4 C 0 km/h
1661 26-12-2018 18:30:00 -0.5 C 4.45 g/m*3 -0.5 C 0 km/h
1662 26-12-2018 18:35:00 -0.5 C 4.45 g/m*3 -0.5 C 0 km/h
1663 26-12-2018 18:40:00 -0.6 C 4.42 g/m*3 -0.6 C 0 km/h
1664 26-12-2018 18:45:00 -0.6 C 4.42 g/m*3 -0.6 C 0 km/h
1665 26-12-2018 18:50:00 -0.7 C 4.39 g/m*3 -0.7 C 0 km/h
1666 26-12-2018 18:55:00 -0.7 C 4.39 g/m*3 -0.7 C 0 km/h
1667 26-12-2018 19:00:00 -0.7 C 4.39 g/m*3 -0.7 C 0 km/h
1668 26-12-2018 19:05:00 -0.8 C 4.35 g/m*3 -0.8 C 0 km/h
1669 26-12-2018 19:10:00 -0.8 C 4.35 g/m*3 -0.8 C 0 km/h
1670 26-12-2018 19:15:00 -0.8 C 4.35 g/m*3 -0.8 C 0 km/h
1671 26-12-2018 19:20:00 -0.8 C 4.35 g/m*3 -0.8 C 0 km/h
1672 26-12-2018 19:25:00 -0.8 C 4.35 g/m*3 -0.8 C 0 km/h
1673 26-12-2018 19:30:00 -0.8 C 4.35 g/m*3 -0.8 C 0 km/h
1674 26-12-2018 19:35:00 -0.8 C 4.35 g/m*3 -0.8 C 0 km/h
1675 26-12-2018 19:40:00 -0.8 C 4.35 g/m*3 -0.8 C 0 km/h
Sensor: Nr:Datum:Temp:Abs-Feuchte:Windchill:Wind:
Aussen-T/F 1676 26-12-2018 19:45:00 -0.8 C 4.35 g/m*3 -0.8 C 0 km/h
1677 26-12-2018 19:50:00 -0.8 C 4.35 g/m*3 -0.8 C 0 km/h
1678 26-12-2018 19:55:00 -0.8 C 4.35 g/m*3 -0.8 C 0 km/h
1679 26-12-2018 20:00:00 -0.8 C 4.4 g/m*3 -0.8 C 0 km/h
1680 26-12-2018 20:05:00 -0.8 C 4.4 g/m*3 -0.8 C 0 km/h
1681 26-12-2018 20:10:00 -0.8 C 4.4 g/m*3 -0.8 C 0 km/h
1682 26-12-2018 20:15:00 -0.8 C 4.4 g/m*3 -0.8 C 0 km/h
1683 26-12-2018 20:20:00 -0.8 C 4.4 g/m*3 -0.8 C 0 km/h
1684 26-12-2018 20:25:00 -0.8 C 4.4 g/m*3 -0.8 C 0 km/h
1685 26-12-2018 20:30:00 -0.9 C 4.37 g/m*3 -0.9 C 0 km/h
1686 26-12-2018 20:35:00 -0.9 C 4.37 g/m*3 -0.9 C 0 km/h
1687 26-12-2018 20:40:00 -0.9 C 4.37 g/m*3 -0.9 C 0 km/h
1688 26-12-2018 20:45:00 -0.9 C 4.37 g/m*3 -0.9 C 0 km/h
1689 26-12-2018 20:50:00 -0.9 C 4.37 g/m*3 -0.9 C 0 km/h
1690 26-12-2018 20:55:00 -0.9 C 4.37 g/m*3 -0.9 C 0 km/h
1691 26-12-2018 21:00:00 -1 C 4.34 g/m*3 -1 C 0 km/h
1692 26-12-2018 21:05:00 -1.1 C 4.31 g/m*3 -1.1 C 0 km/h
1693 26-12-2018 21:10:00 -1.1 C 4.31 g/m*3 -1.1 C 0 km/h
1694 26-12-2018 21:15:00 -1 C 4.34 g/m*3 -1 C 0 km/h
1695 26-12-2018 21:20:00 -0.9 C 4.37 g/m*3 -0.9 C 0 km/h
1696 26-12-2018 21:25:00 -0.9 C 4.37 g/m*3 -0.9 C 0 km/h
1697 26-12-2018 21:30:00 -0.9 C 4.37 g/m*3 -0.9 C 0 km/h
1698 26-12-2018 21:35:00 -1 C 4.34 g/m*3 -1 C 0 km/h
1699 26-12-2018 21:40:00 -1 C 4.34 g/m*3 -1 C 0 km/h
1700 26-12-2018 21:45:00 -1.1 C 4.31 g/m*3 -1.1 C 0 km/h
Sensor: Nr:Datum:Temp:Abs-Feuchte:Windchill:Wind:
Aussen-T/F 1701 26-12-2018 21:50:00 -1.1 C 4.31 g/m*3 -1.1 C 0 km/h
1702 26-12-2018 21:55:00 -1.1 C 4.31 g/m*3 -1.1 C 0 km/h
1703 26-12-2018 22:00:00 -1.1 C 4.31 g/m*3 -1.1 C 0 km/h
1704 26-12-2018 22:05:00 -1.1 C 4.31 g/m*3 -1.1 C 0 km/h
1705 26-12-2018 22:10:00 -1.1 C 4.31 g/m*3 -1.1 C 0 km/h
1706 26-12-2018 22:15:00 -1.2 C 4.28 g/m*3 -1.2 C 0 km/h
1707 26-12-2018 22:20:00 -1.2 C 4.28 g/m*3 -1.2 C 0 km/h
1708 26-12-2018 22:25:00 -1.2 C 4.28 g/m*3 -1.2 C 0 km/h
1709 26-12-2018 22:30:00 -1.3 C 4.25 g/m*3 -1.3 C 0 km/h
1710 26-12-2018 22:35:00 -1.3 C 4.25 g/m*3 -1.3 C 0 km/h
1711 26-12-2018 22:40:00 -1.3 C 4.25 g/m*3 -1.3 C 0 km/h
1712 26-12-2018 22:45:00 -1.3 C 4.25 g/m*3 -1.3 C 0 km/h
1713 26-12-2018 22:50:00 -1.3 C 4.25 g/m*3 -1.3 C 0 km/h
1714 26-12-2018 22:55:00 -1.3 C 4.25 g/m*3 -1.3 C 0 km/h
1715 26-12-2018 23:00:00 -1.3 C 4.25 g/m*3 -1.3 C 0 km/h
1716 26-12-2018 23:05:00 -1.3 C 4.25 g/m*3 -1.3 C 0 km/h
1717 26-12-2018 23:10:00 -1.3 C 4.25 g/m*3 -1.3 C 0 km/h
1718 26-12-2018 23:15:00 -1.3 C 4.25 g/m*3 -1.3 C 0 km/h
1719 26-12-2018 23:20:00 -1.3 C 4.25 g/m*3 -1.3 C 0 km/h
1720 26-12-2018 23:25:00 -1.4 C 4.22 g/m*3 -1.4 C 0 km/h
1721 26-12-2018 23:30:00 -1.4 C 4.22 g/m*3 -1.4 C 0 km/h
1722 26-12-2018 23:35:00 -1.4 C 4.22 g/m*3 -1.4 C 0 km/h
1723 26-12-2018 23:40:00 -1.4 C 4.22 g/m*3 -1.4 C 0 km/h
1724 26-12-2018 23:45:00 -1.4 C 4.22 g/m*3 -1.4 C 0 km/h
1725 26-12-2018 23:50:00 -1.3 C 4.25 g/m*3 -1.3 C 0 km/h
Sensor: Nr:Datum:Temp:Abs-Feuchte:Windchill:Wind:
Aussen-T/F 1726 26-12-2018 23:55:00 -1.3 C 4.25 g/m*3 -1.3 C 0 km/h
1727 27-12-2018 00:00:00 -1.3 C 4.25 g/m*3 -1.3 C 0 km/h
1728 27-12-2018 00:05:00 -1.3 C 4.25 g/m*3 -1.3 C 0 km/h
1729 27-12-2018 00:10:00 -1.3 C 4.25 g/m*3 -1.3 C 0 km/h
1730 27-12-2018 00:15:00 -1.1 C 4.31 g/m*3 -1.1 C 0 km/h
1731 27-12-2018 00:20:00 -1 C 4.34 g/m*3 -1 C 0 km/h
1732 27-12-2018 00:25:00 -1 C 4.34 g/m*3 -1 C 0 km/h
1733 27-12-2018 00:30:00 -0.9 C 4.42 g/m*3 -0.9 C 0 km/h
1734 27-12-2018 00:35:00 -0.9 C 4.42 g/m*3 -0.9 C 0 km/h
1735 27-12-2018 00:40:00 -0.9 C 4.42 g/m*3 -0.9 C 0 km/h
1736 27-12-2018 00:45:00 -0.9 C 4.37 g/m*3 -0.9 C 0 km/h
1737 27-12-2018 00:50:00 -0.9 C 4.37 g/m*3 -0.9 C 0 km/h
1738 27-12-2018 00:55:00 -0.8 C 4.4 g/m*3 -0.8 C 0 km/h
1739 27-12-2018 01:00:00 -0.8 C 4.4 g/m*3 -0.8 C 0 km/h
1740 27-12-2018 01:05:00 -0.8 C 4.4 g/m*3 -0.8 C 0 km/h
1741 27-12-2018 01:10:00 -0.8 C 4.4 g/m*3 -0.8 C 0 km/h
1742 27-12-2018 01:15:00 -0.8 C 4.4 g/m*3 -0.8 C 0 km/h
1743 27-12-2018 01:20:00 -0.8 C 4.45 g/m*3 -0.8 C 0 km/h
1744 27-12-2018 01:25:00 -0.8 C 4.4 g/m*3 -0.8 C 0 km/h
1745 27-12-2018 01:30:00 -0.8 C 4.4 g/m*3 -0.8 C 0 km/h
1746 27-12-2018 01:35:00 -0.8 C 4.4 g/m*3 -0.8 C 0 km/h
1747 27-12-2018 01:40:00 -0.8 C 4.4 g/m*3 -0.8 C 0 km/h
1748 27-12-2018 01:45:00 -0.7 C 4.43 g/m*3 -0.7 C 0 km/h
1749 27-12-2018 01:50:00 -0.7 C 4.43 g/m*3 -0.7 C 0 km/h
1750 27-12-2018 01:55:00 -0.7 C 4.43 g/m*3 -0.7 C 0 km/h
Sensor: Nr:Datum:Temp:Abs-Feuchte:Windchill:Wind:
Aussen-T/F 1751 27-12-2018 02:00:00 -0.7 C 4.48 g/m*3 -0.7 C 0 km/h
1752 27-12-2018 02:05:00 -0.7 C 4.48 g/m*3 -0.7 C 0 km/h
1753 27-12-2018 02:10:00 -0.6 C 4.51 g/m*3 -0.6 C 0 km/h
1754 27-12-2018 02:15:00 -0.6 C 4.51 g/m*3 -0.6 C 0 km/h
1755 27-12-2018 02:20:00 -0.6 C 4.51 g/m*3 -0.6 C 0 km/h
1756 27-12-2018 02:25:00 -0.6 C 4.51 g/m*3 -0.6 C 0 km/h
1757 27-12-2018 02:30:00 -0.5 C 4.54 g/m*3 -0.5 C 0 km/h
1758 27-12-2018 02:35:00 -0.5 C 4.54 g/m*3 -0.5 C 0 km/h
1759 27-12-2018 02:40:00 -0.6 C 4.51 g/m*3 -0.6 C 0 km/h
1760 27-12-2018 02:45:00 -0.6 C 4.51 g/m*3 -0.6 C 0 km/h
1761 27-12-2018 02:50:00 -0.5 C 4.54 g/m*3 -0.5 C 0 km/h
1762 27-12-2018 02:55:00 -0.5 C 4.54 g/m*3 -0.5 C 0 km/h
1763 27-12-2018 03:00:00 -0.5 C 4.54 g/m*3 -0.5 C 0 km/h
1764 27-12-2018 03:05:00 -0.5 C 4.54 g/m*3 -0.5 C 0 km/h
1765 27-12-2018 03:10:00 -0.4 C 4.57 g/m*3 -0.4 C 0 km/h
1766 27-12-2018 03:15:00 -0.4 C 4.57 g/m*3 -0.4 C 0 km/h
1767 27-12-2018 03:20:00 -0.4 C 4.57 g/m*3 -0.4 C 0 km/h
1768 27-12-2018 03:25:00 -0.4 C 4.57 g/m*3 -0.4 C 0 km/h
1769 27-12-2018 03:30:00 -0.3 C 4.6 g/m*3 -0.3 C 0 km/h
1770 27-12-2018 03:35:00 -0.3 C 4.6 g/m*3 -0.3 C 0 km/h
1771 27-12-2018 03:40:00 -0.3 C 4.6 g/m*3 -0.3 C 0 km/h
1772 27-12-2018 03:45:00 -0.3 C 4.6 g/m*3 -0.3 C 0 km/h
1773 27-12-2018 03:50:00 -0.3 C 4.6 g/m*3 -0.3 C 0 km/h
1774 27-12-2018 03:55:00 -0.3 C 4.6 g/m*3 -0.3 C 0 km/h
1775 27-12-2018 04:00:00 -0.3 C 4.6 g/m*3 -0.3 C 0 km/h
Sensor: Nr:Datum:Temp:Abs-Feuchte:Windchill:Wind:
Aussen-T/F 1776 27-12-2018 04:05:00 -0.3 C 4.6 g/m*3 -0.3 C 0 km/h
1777 27-12-2018 04:10:00 -0.3 C 4.6 g/m*3 -0.3 C 0 km/h
1778 27-12-2018 04:15:00 -0.4 C 4.57 g/m*3 -0.4 C 0 km/h
1779 27-12-2018 04:20:00 -0.4 C 4.52 g/m*3 -0.4 C 0 km/h
1780 27-12-2018 04:25:00 -0.5 C 4.49 g/m*3 -0.5 C 0 km/h
1781 27-12-2018 04:30:00 -0.5 C 4.49 g/m*3 -0.5 C 0 km/h
1782 27-12-2018 04:35:00 -0.5 C 4.49 g/m*3 -0.5 C 0 km/h
1783 27-12-2018 04:40:00 -0.6 C 4.46 g/m*3 -0.6 C 0 km/h
1784 27-12-2018 04:45:00 -0.6 C 4.46 g/m*3 -0.6 C 0 km/h
1785 27-12-2018 04:50:00 -0.7 C 4.43 g/m*3 -0.7 C 0 km/h
1786 27-12-2018 04:55:00 -0.7 C 4.43 g/m*3 -0.7 C 0 km/h
1787 27-12-2018 05:00:00 -0.7 C 4.43 g/m*3 -0.7 C 0 km/h
1788 27-12-2018 05:05:00 -0.8 C 4.4 g/m*3 -0.8 C 0 km/h
1789 27-12-2018 05:10:00 -0.8 C 4.4 g/m*3 -0.8 C 0 km/h
1790 27-12-2018 05:15:00 -0.8 C 4.4 g/m*3 -0.8 C 0 km/h
1791 27-12-2018 05:20:00 -0.9 C 4.37 g/m*3 -0.9 C 0 km/h
1792 27-12-2018 05:25:00 -0.9 C 4.37 g/m*3 -0.9 C 0 km/h
1793 27-12-2018 05:30:00 -1 C 4.34 g/m*3 -1 C 0 km/h
1794 27-12-2018 05:35:00 -1.1 C 4.31 g/m*3 -1.1 C 0 km/h
1795 27-12-2018 05:40:00 -1.1 C 4.31 g/m*3 -1.1 C 0 km/h
1796 27-12-2018 05:45:00 -1.1 C 4.31 g/m*3 -1.1 C 0 km/h
1797 27-12-2018 05:50:00 -1.2 C 4.28 g/m*3 -1.2 C 0 km/h
1798 27-12-2018 05:55:00 -1.2 C 4.28 g/m*3 -1.2 C 0 km/h
1799 27-12-2018 06:00:00 -1.2 C 4.28 g/m*3 -1.2 C 0 km/h
1800 27-12-2018 06:05:00 -1.3 C 4.25 g/m*3 -1.3 C 0 km/h
Sensor: Nr:Datum:Temp:Abs-Feuchte:Windchill:Wind:
Aussen-T/F 1801 27-12-2018 06:10:00 -1.3 C 4.25 g/m*3 -1.3 C 0 km/h
1802 27-12-2018 06:15:00 -1.3 C 4.25 g/m*3 -1.3 C 0 km/h
1803 27-12-2018 06:20:00 -1.3 C 4.25 g/m*3 -1.3 C 0 km/h
1804 27-12-2018 06:25:00 -1.4 C 4.22 g/m*3 -1.4 C 0 km/h
1805 27-12-2018 06:30:00 -1.4 C 4.22 g/m*3 -1.4 C 0 km/h
1806 27-12-2018 06:35:00 -1.5 C 4.19 g/m*3 -1.5 C 0 km/h
1807 27-12-2018 06:40:00 -1.5 C 4.19 g/m*3 -1.5 C 0 km/h
1808 27-12-2018 06:45:00 -1.5 C 4.19 g/m*3 -1.5 C 0 km/h
1809 27-12-2018 06:50:00 -1.5 C 4.19 g/m*3 -1.5 C 0 km/h
1810 27-12-2018 06:55:00 -1.5 C 4.19 g/m*3 -1.5 C 0 km/h
1811 27-12-2018 07:00:00 -1.5 C 4.19 g/m*3 -1.5 C 0 km/h
1812 27-12-2018 07:05:00 -1.6 C 4.16 g/m*3 -1.6 C 0 km/h
1813 27-12-2018 07:10:00 -1.6 C 4.16 g/m*3 -1.6 C 0 km/h
1814 27-12-2018 07:15:00 -1.6 C 4.16 g/m*3 -1.6 C 0 km/h
1815 27-12-2018 07:20:00 -1.7 C 4.13 g/m*3 -1.7 C 0 km/h
1816 27-12-2018 07:25:00 -1.7 C 4.13 g/m*3 -1.7 C 0 km/h
1817 27-12-2018 07:30:00 -1.7 C 4.13 g/m*3 -1.7 C 0 km/h
1818 27-12-2018 07:35:00 -1.8 C 4.1 g/m*3 -1.8 C 0 km/h
1819 27-12-2018 07:40:00 -1.8 C 4.1 g/m*3 -1.8 C 0 km/h
1820 27-12-2018 07:45:00 -1.8 C 4.1 g/m*3 -1.8 C 0 km/h
1821 27-12-2018 07:50:00 -1.8 C 4.1 g/m*3 -1.8 C 0 km/h
1822 27-12-2018 07:55:00 -1.8 C 4.1 g/m*3 -1.8 C 0 km/h
1823 27-12-2018 08:00:00 -1.8 C 4.1 g/m*3 -1.8 C 0 km/h
1824 27-12-2018 08:05:00 -1.9 C 4.08 g/m*3 -1.9 C 0 km/h
1825 27-12-2018 08:10:00 -1.9 C 4.08 g/m*3 -1.9 C 0 km/h
Sensor: Nr:Datum:Temp:Abs-Feuchte:Windchill:Wind:
Aussen-T/F 1826 27-12-2018 08:15:00 -1.9 C 4.08 g/m*3 -1.9 C 0 km/h
1827 27-12-2018 08:20:00 -1.9 C 4.08 g/m*3 -1.9 C 0 km/h
1828 27-12-2018 08:25:00 -2 C 4.05 g/m*3 -2 C 0 km/h
1829 27-12-2018 08:30:00 -2.1 C 4.02 g/m*3 -2.1 C 0 km/h
1830 27-12-2018 08:35:00 -2.1 C 4.02 g/m*3 -2.1 C 0 km/h
1831 27-12-2018 08:40:00 -2.1 C 4.02 g/m*3 -2.1 C 0 km/h
1832 27-12-2018 08:45:00 -2.1 C 4.02 g/m*3 -2.1 C 0 km/h
1833 27-12-2018 08:50:00 -2.1 C 4.02 g/m*3 -2.1 C 0 km/h
1834 27-12-2018 08:55:00 -2.1 C 4.02 g/m*3 -2.1 C 0 km/h
1835 27-12-2018 09:00:00 -2 C 4.05 g/m*3 -2 C 0 km/h
1836 27-12-2018 09:05:00 -1.9 C 4.12 g/m*3 -1.9 C 0 km/h
1837 27-12-2018 09:10:00 -1.9 C 4.12 g/m*3 -1.9 C 0 km/h
1838 27-12-2018 09:15:00 -1.9 C 4.12 g/m*3 -1.9 C 0 km/h
1839 27-12-2018 09:20:00 -1.9 C 4.12 g/m*3 -1.9 C 0 km/h
1840 27-12-2018 09:25:00 -1.9 C 4.12 g/m*3 -1.9 C 0 km/h
1841 27-12-2018 09:30:00 -1.8 C 4.15 g/m*3 -1.8 C 0 km/h
1842 27-12-2018 09:35:00 -1.8 C 4.15 g/m*3 -1.8 C 0 km/h
1843 27-12-2018 09:40:00 -1.7 C 4.18 g/m*3 -1.7 C 0 km/h
1844 27-12-2018 09:45:00 -1.6 C 4.21 g/m*3 -1.6 C 0 km/h
1845 27-12-2018 09:50:00 -1.4 C 4.26 g/m*3 -1.4 C 0 km/h
1846 27-12-2018 09:55:00 -1.4 C 4.26 g/m*3 -1.4 C 0 km/h
1847 27-12-2018 10:00:00 -1.3 C 4.29 g/m*3 -1.3 C 0 km/h
1848 27-12-2018 10:05:00 -1.3 C 4.29 g/m*3 -1.3 C 0 km/h
1849 27-12-2018 10:10:00 -1.2 C 4.32 g/m*3 -1.2 C 0 km/h
1850 27-12-2018 10:15:00 -1.1 C 4.35 g/m*3 -1.1 C 0 km/h
Sensor: Nr:Datum:Temp:Abs-Feuchte:Windchill:Wind:
Aussen-T/F 1851 27-12-2018 10:20:00 -1.1 C 4.35 g/m*3 -1.1 C 0 km/h
1852 27-12-2018 10:25:00 -1 C 4.38 g/m*3 -1 C 0 km/h
1853 27-12-2018 10:30:00 -0.9 C 4.42 g/m*3 -0.9 C 0 km/h
1854 27-12-2018 10:35:00 -0.8 C 4.45 g/m*3 -0.8 C 0 km/h
1855 27-12-2018 10:40:00 -0.7 C 4.48 g/m*3 -0.7 C 0 km/h
1856 27-12-2018 10:45:00 -0.6 C 4.51 g/m*3 -0.6 C 1.6 km/h
1857 27-12-2018 10:50:00 -0.6 C 4.51 g/m*3 -0.6 C 1.6 km/h
1858 27-12-2018 10:55:00 -0.5 C 4.54 g/m*3 -0.5 C 0 km/h
1859 27-12-2018 11:00:00 -0.4 C 4.57 g/m*3 -0.4 C 0 km/h
1860 27-12-2018 11:05:00 -0.4 C 4.57 g/m*3 -0.4 C 0 km/h
1861 27-12-2018 11:10:00 -0.3 C 4.6 g/m*3 -0.3 C 0 km/h
1862 27-12-2018 11:15:00 -0.3 C 4.6 g/m*3 -0.3 C 0 km/h
1863 27-12-2018 11:20:00 -0.2 C 4.64 g/m*3 -0.2 C 0 km/h
1864 27-12-2018 11:25:00 -0.1 C 4.67 g/m*3 -0.1 C 0 km/h
1865 27-12-2018 11:30:00 -0.1 C 4.67 g/m*3 -0.1 C 0 km/h
1866 27-12-2018 11:35:00 0 C 4.7 g/m*3 0 C 0 km/h
1867 27-12-2018 11:40:00 0.1 C 4.73 g/m*3 0.1 C 0 km/h
1868 27-12-2018 11:45:00 0.2 C 4.77 g/m*3 0.2 C 0 km/h
1869 27-12-2018 11:50:00 0.2 C 4.77 g/m*3 0.2 C 0 km/h
1870 27-12-2018 11:55:00 0.3 C 4.8 g/m*3 0.3 C 0 km/h
1871 27-12-2018 12:00:00 0.4 C 4.83 g/m*3 0.4 C 0 km/h
1872 27-12-2018 12:05:00 0.4 C 4.83 g/m*3 0.4 C 0 km/h
1873 27-12-2018 12:10:00 0.5 C 4.86 g/m*3 0.5 C 0 km/h
1874 27-12-2018 12:15:00 0.6 C 4.9 g/m*3 0.6 C 0 km/h
1875 27-12-2018 12:20:00 0.6 C 4.9 g/m*3 0.6 C 1.6 km/h
Sensor: Nr:Datum:Temp:Abs-Feuchte:Windchill:Wind:
Aussen-T/F 1876 27-12-2018 12:25:00 0.7 C 4.93 g/m*3 0.7 C 0 km/h
1877 27-12-2018 12:30:00 0.8 C 4.97 g/m*3 0.8 C 0 km/h
1878 27-12-2018 12:35:00 0.8 C 4.97 g/m*3 0.8 C 0 km/h
1879 27-12-2018 12:40:00 0.9 C 5 g/m*3 0.9 C 0 km/h
1880 27-12-2018 12:45:00 0.9 C 5 g/m*3 0.9 C 0 km/h
1881 27-12-2018 12:50:00 1.1 C 5.07 g/m*3 1.1 C 0 km/h
1882 27-12-2018 12:55:00 1.1 C 5.07 g/m*3 1.1 C 0 km/h
1883 27-12-2018 13:00:00 1.1 C 5.07 g/m*3 1.1 C 0 km/h
1884 27-12-2018 13:05:00 1.2 C 5.1 g/m*3 1.2 C 0 km/h
1885 27-12-2018 13:10:00 1.2 C 5.1 g/m*3 1.2 C 0 km/h
1886 27-12-2018 13:15:00 1.2 C 5.1 g/m*3 1.2 C 0 km/h
1887 27-12-2018 13:20:00 1.3 C 5.14 g/m*3 1.3 C 0 km/h
1888 27-12-2018 13:25:00 1.4 C 5.17 g/m*3 1.4 C 0 km/h
1889 27-12-2018 13:30:00 1.4 C 5.12 g/m*3 1.4 C 0 km/h
1890 27-12-2018 13:35:00 1.5 C 5.21 g/m*3 1.5 C 0 km/h
1891 27-12-2018 13:40:00 1.6 C 5.25 g/m*3 1.6 C 0 km/h
1892 27-12-2018 13:45:00 1.6 C 5.19 g/m*3 1.6 C 0 km/h
1893 27-12-2018 13:50:00 1.7 C 5.23 g/m*3 1.7 C 0 km/h
1894 27-12-2018 13:55:00 1.7 C 5.23 g/m*3 1.7 C 0 km/h
1895 27-12-2018 14:00:00 1.8 C 5.26 g/m*3 1.8 C 0 km/h
1896 27-12-2018 14:05:00 1.9 C 5.3 g/m*3 1.9 C 0 km/h
1897 27-12-2018 14:10:00 1.9 C 5.3 g/m*3 1.9 C 0 km/h
1898 27-12-2018 14:15:00 1.9 C 5.3 g/m*3 1.9 C 0 km/h
1899 27-12-2018 14:20:00 2 C 5.33 g/m*3 2 C 0 km/h
1900 27-12-2018 14:25:00 2.1 C 5.37 g/m*3 2.1 C 0 km/h
Sensor: Nr:Datum:Temp:Abs-Feuchte:Windchill:Wind:
Aussen-T/F 1901 27-12-2018 14:30:00 2.2 C 5.41 g/m*3 2.2 C 0 km/h
1902 27-12-2018 14:35:00 2.2 C 5.41 g/m*3 2.2 C 0 km/h
1903 27-12-2018 14:40:00 2.2 C 5.41 g/m*3 2.2 C 0 km/h
1904 27-12-2018 14:45:00 2.2 C 5.41 g/m*3 2.2 C 0 km/h
1905 27-12-2018 14:50:00 2.3 C 5.44 g/m*3 2.3 C 0 km/h
1906 27-12-2018 14:55:00 2.3 C 5.39 g/m*3 2.3 C 0 km/h
1907 27-12-2018 15:00:00 2.3 C 5.39 g/m*3 2.3 C 0 km/h
1908 27-12-2018 15:05:00 2.3 C 5.39 g/m*3 2.3 C 0 km/h
1909 27-12-2018 15:10:00 2.3 C 5.39 g/m*3 2.3 C 0 km/h
1910 27-12-2018 15:15:00 2.3 C 5.39 g/m*3 2.3 C 0 km/h
1911 27-12-2018 15:20:00 2.3 C 5.39 g/m*3 2.3 C 0 km/h
1912 27-12-2018 15:25:00 2.2 C 5.35 g/m*3 2.2 C 0 km/h
1913 27-12-2018 15:30:00 2.2 C 5.35 g/m*3 2.2 C 0 km/h
1914 27-12-2018 15:35:00 2.1 C 5.26 g/m*3 2.1 C 0 km/h
1915 27-12-2018 15:40:00 2.1 C 5.26 g/m*3 2.1 C 0 km/h
1916 27-12-2018 15:45:00 2.1 C 5.26 g/m*3 2.1 C 0 km/h
1917 27-12-2018 15:50:00 2 C 5.22 g/m*3 2 C 0 km/h
1918 27-12-2018 15:55:00 1.9 C 5.19 g/m*3 1.9 C 0 km/h
1919 27-12-2018 16:00:00 1.8 C 5.15 g/m*3 1.8 C 0 km/h
1920 27-12-2018 16:05:00 1.8 C 5.15 g/m*3 1.8 C 0 km/h
1921 27-12-2018 16:10:00 1.7 C 5.12 g/m*3 1.7 C 0 km/h
1922 27-12-2018 16:15:00 1.7 C 5.12 g/m*3 1.7 C 0 km/h
1923 27-12-2018 16:20:00 1.6 C 5.08 g/m*3 1.6 C 0 km/h
1924 27-12-2018 16:25:00 1.6 C 5.08 g/m*3 1.6 C 0 km/h
1925 27-12-2018 16:30:00 1.5 C 5.05 g/m*3 1.5 C 0 km/h
Sensor: Nr:Datum:Temp:Abs-Feuchte:Windchill:Wind:
Aussen-T/F 1926 27-12-2018 16:35:00 1.4 C 5.01 g/m*3 1.4 C 0 km/h
1927 27-12-2018 16:40:00 1.3 C 4.98 g/m*3 1.3 C 0 km/h
1928 27-12-2018 16:45:00 1.3 C 4.98 g/m*3 1.3 C 1.6 km/h
1929 27-12-2018 16:50:00 1.3 C 5.03 g/m*3 1.3 C 0 km/h
1930 27-12-2018 16:55:00 1.3 C 5.03 g/m*3 1.3 C 0 km/h
1931 27-12-2018 17:00:00 1.2 C 5 g/m*3 1.2 C 0 km/h
1932 27-12-2018 17:05:00 1.2 C 5 g/m*3 1.2 C 0 km/h
1933 27-12-2018 17:10:00 1.2 C 4.95 g/m*3 1.2 C 0 km/h
1934 27-12-2018 17:15:00 1.1 C 4.91 g/m*3 1.1 C 0 km/h
1935 27-12-2018 17:20:00 1.1 C 4.91 g/m*3 1.1 C 0 km/h
1936 27-12-2018 17:25:00 1.1 C 4.91 g/m*3 1.1 C 0 km/h
1937 27-12-2018 17:30:00 1 C 4.93 g/m*3 1 C 0 km/h
1938 27-12-2018 17:35:00 1 C 4.93 g/m*3 1 C 0 km/h
1939 27-12-2018 17:40:00 0.9 C 4.9 g/m*3 0.9 C 0 km/h
1940 27-12-2018 17:45:00 0.9 C 4.9 g/m*3 0.9 C 0 km/h
1941 27-12-2018 17:50:00 0.9 C 4.9 g/m*3 0.9 C 0 km/h
1942 27-12-2018 17:55:00 0.9 C 4.9 g/m*3 0.9 C 0 km/h
1943 27-12-2018 18:00:00 0.9 C 4.9 g/m*3 0.9 C 0 km/h
1944 27-12-2018 18:05:00 0.9 C 4.9 g/m*3 0.9 C 0 km/h
1945 27-12-2018 18:10:00 1 C 4.93 g/m*3 1 C 0 km/h
1946 27-12-2018 18:15:00 1.1 C 4.96 g/m*3 1.1 C 0 km/h
1947 27-12-2018 18:20:00 1.1 C 4.96 g/m*3 1.1 C 0 km/h
1948 27-12-2018 18:25:00 1.2 C 5 g/m*3 1.2 C 0 km/h
1949 27-12-2018 18:30:00 1.1 C 4.91 g/m*3 1.1 C 0 km/h
1950 27-12-2018 18:35:00 1.1 C 4.91 g/m*3 1.1 C 0 km/h
Sensor: Nr:Datum:Temp:Abs-Feuchte:Windchill:Wind:
Aussen-T/F 1951 27-12-2018 18:40:00 1.1 C 4.91 g/m*3 1.1 C 0 km/h
1952 27-12-2018 18:45:00 1 C 4.88 g/m*3 1 C 0 km/h
1953 27-12-2018 18:50:00 0.9 C 4.85 g/m*3 0.9 C 0 km/h
1954 27-12-2018 18:55:00 0.9 C 4.85 g/m*3 0.9 C 0 km/h
1955 27-12-2018 19:00:00 0.8 C 4.81 g/m*3 0.8 C 0 km/h
1956 27-12-2018 19:05:00 0.7 C 4.78 g/m*3 0.7 C 0 km/h
1957 27-12-2018 19:10:00 0.7 C 4.78 g/m*3 0.7 C 0 km/h
1958 27-12-2018 19:15:00 0.6 C 4.75 g/m*3 0.6 C 0 km/h
1959 27-12-2018 19:20:00 0.6 C 4.75 g/m*3 0.6 C 0 km/h
1960 27-12-2018 19:25:00 0.6 C 4.8 g/m*3 0.6 C 0 km/h
1961 27-12-2018 19:30:00 0.6 C 4.75 g/m*3 0.6 C 0 km/h
1962 27-12-2018 19:35:00 0.5 C 4.76 g/m*3 0.5 C 0 km/h
1963 27-12-2018 19:40:00 0.4 C 4.68 g/m*3 0.4 C 0 km/h
1964 27-12-2018 19:45:00 0.4 C 4.68 g/m*3 0.4 C 0 km/h
1965 27-12-2018 19:50:00 0.4 C 4.73 g/m*3 0.4 C 0 km/h
1966 27-12-2018 19:55:00 0.4 C 4.73 g/m*3 0.4 C 0 km/h
1967 27-12-2018 20:00:00 0.4 C 4.73 g/m*3 0.4 C 0 km/h
1968 27-12-2018 20:05:00 0.5 C 4.76 g/m*3 0.5 C 0 km/h
1969 27-12-2018 20:10:00 0.6 C 4.8 g/m*3 0.6 C 0 km/h
1970 27-12-2018 20:15:00 0.6 C 4.8 g/m*3 0.6 C 0 km/h
1971 27-12-2018 20:20:00 0.7 C 4.83 g/m*3 0.7 C 0 km/h
1972 27-12-2018 20:25:00 0.7 C 4.83 g/m*3 0.7 C 0 km/h
1973 27-12-2018 20:30:00 0.7 C 4.83 g/m*3 0.7 C 0 km/h
1974 27-12-2018 20:35:00 0.8 C 4.86 g/m*3 0.8 C 0 km/h
1975 27-12-2018 20:40:00 0.8 C 4.86 g/m*3 0.8 C 0 km/h
Sensor: Nr:Datum:Temp:Abs-Feuchte:Windchill:Wind:
Aussen-T/F 1976 27-12-2018 20:45:00 0.9 C 4.9 g/m*3 0.9 C 0 km/h
1977 27-12-2018 20:50:00 1 C 4.93 g/m*3 1 C 0 km/h
1978 27-12-2018 20:55:00 1.1 C 4.96 g/m*3 1.1 C 0 km/h
1979 27-12-2018 21:00:00 1.1 C 4.96 g/m*3 1.1 C 0 km/h
1980 27-12-2018 21:05:00 1.1 C 4.96 g/m*3 1.1 C 0 km/h
1981 27-12-2018 21:10:00 1 C 4.93 g/m*3 1 C 0 km/h
1982 27-12-2018 21:15:00 0.9 C 4.9 g/m*3 0.9 C 0 km/h
1983 27-12-2018 21:20:00 0.9 C 4.9 g/m*3 0.9 C 0 km/h
1984 27-12-2018 21:25:00 0.9 C 4.9 g/m*3 0.9 C 0 km/h
1985 27-12-2018 21:30:00 0.9 C 4.9 g/m*3 0.9 C 0 km/h
1986 27-12-2018 21:35:00 0.9 C 4.9 g/m*3 0.9 C 0 km/h
1987 27-12-2018 21:40:00 0.9 C 4.9 g/m*3 0.9 C 0 km/h
1988 27-12-2018 21:45:00 0.9 C 4.9 g/m*3 0.9 C 0 km/h
1989 27-12-2018 21:50:00 0.9 C 4.9 g/m*3 0.9 C 0 km/h
1990 27-12-2018 21:55:00 0.9 C 4.9 g/m*3 0.9 C 0 km/h
1991 27-12-2018 22:00:00 0.9 C 4.9 g/m*3 0.9 C 0 km/h
1992 27-12-2018 22:05:00 0.9 C 4.9 g/m*3 0.9 C 0 km/h
1993 27-12-2018 22:10:00 0.9 C 4.9 g/m*3 0.9 C 0 km/h
1994 27-12-2018 22:15:00 0.9 C 4.9 g/m*3 0.9 C 0 km/h
1995 27-12-2018 22:20:00 0.9 C 4.9 g/m*3 0.9 C 0 km/h
1996 27-12-2018 22:25:00 0.9 C 4.9 g/m*3 0.9 C 0 km/h
1997 27-12-2018 22:30:00 0.9 C 4.9 g/m*3 0.9 C 0 km/h
1998 27-12-2018 22:35:00 0.9 C 4.9 g/m*3 0.9 C 0 km/h
1999 27-12-2018 22:40:00 0.9 C 4.9 g/m*3 0.9 C 0 km/h
2000 27-12-2018 22:45:00 0.9 C 4.9 g/m*3 0.9 C 0 km/h
Sensor: Nr:Datum:Temp:Abs-Feuchte:Windchill:Wind:
Aussen-T/F 2001 27-12-2018 22:50:00 0.9 C 4.9 g/m*3 0.9 C 0 km/h
2002 27-12-2018 22:55:00 0.9 C 4.9 g/m*3 0.9 C 0 km/h
2003 27-12-2018 23:00:00 1 C 4.93 g/m*3 1 C 0 km/h
2004 27-12-2018 23:05:00 1 C 4.93 g/m*3 1 C 0 km/h
2005 27-12-2018 23:10:00 0.9 C 4.9 g/m*3 0.9 C 0 km/h
2006 27-12-2018 23:15:00 0.9 C 4.9 g/m*3 0.9 C 0 km/h
2007 27-12-2018 23:20:00 0.9 C 4.9 g/m*3 0.9 C 0 km/h
2008 27-12-2018 23:25:00 0.8 C 4.86 g/m*3 0.8 C 0 km/h
2009 27-12-2018 23:30:00 0.8 C 4.86 g/m*3 0.8 C 1.6 km/h
2010 27-12-2018 23:35:00 0.8 C 4.86 g/m*3 0.8 C 0 km/h
2011 27-12-2018 23:40:00 0.9 C 4.9 g/m*3 0.9 C 0 km/h
2012 27-12-2018 23:45:00 0.9 C 4.9 g/m*3 0.9 C 0 km/h
2013 27-12-2018 23:50:00 0.9 C 4.9 g/m*3 0.9 C 0 km/h
2014 27-12-2018 23:55:00 0.9 C 4.9 g/m*3 0.9 C 0 km/h
2015 28-12-2018 00:00:00 0.9 C 4.9 g/m*3 0.9 C 0 km/h
2016 28-12-2018 00:05:00 0.8 C 4.86 g/m*3 0.8 C 0 km/h
2017 28-12-2018 00:10:00 0.8 C 4.86 g/m*3 0.8 C 0 km/h
2018 28-12-2018 00:15:00 0.8 C 4.86 g/m*3 0.8 C 0 km/h
2019 28-12-2018 00:20:00 0.8 C 4.86 g/m*3 0.8 C 0 km/h
2020 28-12-2018 00:25:00 0.8 C 4.86 g/m*3 0.8 C 0 km/h
2021 28-12-2018 00:30:00 0.8 C 4.86 g/m*3 0.8 C 0 km/h
2022 28-12-2018 00:35:00 0.8 C 4.86 g/m*3 0.8 C 0 km/h
2023 28-12-2018 00:40:00 0.8 C 4.86 g/m*3 0.8 C 0 km/h
2024 28-12-2018 00:45:00 0.7 C 4.83 g/m*3 0.7 C 0 km/h
2025 28-12-2018 00:50:00 0.7 C 4.83 g/m*3 0.7 C 0 km/h
Sensor: Nr:Datum:Temp:Abs-Feuchte:Windchill:Wind:
Aussen-T/F 2026 28-12-2018 00:55:00 0.7 C 4.83 g/m*3 0.7 C 0 km/h
2027 28-12-2018 01:00:00 0.7 C 4.83 g/m*3 0.7 C 0 km/h
2028 28-12-2018 01:05:00 0.6 C 4.8 g/m*3 0.6 C 0 km/h
2029 28-12-2018 01:10:00 0.7 C 4.88 g/m*3 0.7 C 0 km/h
2030 28-12-2018 01:15:00 0.7 C 4.88 g/m*3 0.7 C 0 km/h
2031 28-12-2018 01:20:00 0.7 C 4.83 g/m*3 0.7 C 0 km/h
2032 28-12-2018 01:25:00 0.6 C 4.8 g/m*3 0.6 C 0 km/h
2033 28-12-2018 01:30:00 0.6 C 4.8 g/m*3 0.6 C 0 km/h
2034 28-12-2018 01:35:00 0.5 C 4.76 g/m*3 0.5 C 0 km/h
2035 28-12-2018 01:40:00 0.5 C 4.76 g/m*3 0.5 C 0 km/h
2036 28-12-2018 01:45:00 0.4 C 4.73 g/m*3 0.4 C 0 km/h
2037 28-12-2018 01:50:00 0.4 C 4.73 g/m*3 0.4 C 0 km/h
2038 28-12-2018 01:55:00 0.3 C 4.7 g/m*3 0.3 C 0 km/h
2039 28-12-2018 02:00:00 0.3 C 4.7 g/m*3 0.3 C 0 km/h
2040 28-12-2018 02:05:00 0.3 C 4.7 g/m*3 0.3 C 0 km/h
2041 28-12-2018 02:10:00 0.3 C 4.7 g/m*3 0.3 C 0 km/h
2042 28-12-2018 02:15:00 0.3 C 4.7 g/m*3 0.3 C 0 km/h
2043 28-12-2018 02:20:00 0.3 C 4.75 g/m*3 0.3 C 0 km/h
2044 28-12-2018 02:25:00 0.3 C 4.75 g/m*3 0.3 C 0 km/h
2045 28-12-2018 02:30:00 0.3 C 4.75 g/m*3 0.3 C 0 km/h
2046 28-12-2018 02:35:00 0.3 C 4.75 g/m*3 0.3 C 0 km/h
2047 28-12-2018 02:40:00 0.4 C 4.78 g/m*3 0.4 C 0 km/h
2048 28-12-2018 02:45:00 0.4 C 4.78 g/m*3 0.4 C 0 km/h
2049 28-12-2018 02:50:00 0.4 C 4.78 g/m*3 0.4 C 0 km/h
2050 28-12-2018 02:55:00 0.5 C 4.81 g/m*3 0.5 C 0 km/h
Sensor: Nr:Datum:Temp:Abs-Feuchte:Windchill:Wind:
Aussen-T/F 2051 28-12-2018 03:00:00 0.6 C 4.85 g/m*3 0.6 C 0 km/h
2052 28-12-2018 03:05:00 0.6 C 4.85 g/m*3 0.6 C 0 km/h
2053 28-12-2018 03:10:00 0.7 C 4.88 g/m*3 0.7 C 1.6 km/h
2054 28-12-2018 03:15:00 0.7 C 4.88 g/m*3 0.7 C 0 km/h
2055 28-12-2018 03:20:00 0.7 C 4.88 g/m*3 0.7 C 0 km/h
2056 28-12-2018 03:25:00 0.7 C 4.88 g/m*3 0.7 C 1.6 km/h
2057 28-12-2018 03:30:00 0.6 C 4.85 g/m*3 0.6 C 0 km/h
2058 28-12-2018 03:35:00 0.6 C 4.85 g/m*3 0.6 C 1.6 km/h
2059 28-12-2018 03:40:00 0.6 C 4.85 g/m*3 0.6 C 0 km/h
2060 28-12-2018 03:45:00 0.6 C 4.85 g/m*3 0.6 C 0 km/h
2061 28-12-2018 03:50:00 0.6 C 4.85 g/m*3 0.6 C 0 km/h
2062 28-12-2018 03:55:00 0.5 C 4.81 g/m*3 0.5 C 0 km/h
2063 28-12-2018 04:00:00 0.4 C 4.78 g/m*3 0.4 C 1.6 km/h
2064 28-12-2018 04:05:00 0.4 C 4.78 g/m*3 0.4 C 1.6 km/h
2065 28-12-2018 04:10:00 0.4 C 4.78 g/m*3 0.4 C 0 km/h
2066 28-12-2018 04:15:00 0.3 C 4.75 g/m*3 0.3 C 0 km/h
2067 28-12-2018 04:20:00 0.3 C 4.75 g/m*3 0.3 C 1.6 km/h
2068 28-12-2018 04:25:00 0.4 C 4.78 g/m*3 0.4 C 4.8 km/h
2069 28-12-2018 04:30:00 0.6 C 4.85 g/m*3 -1.49 C 6.4 km/h
2070 28-12-2018 04:35:00 0.7 C 4.88 g/m*3 -1.37 C 6.4 km/h
2071 28-12-2018 04:40:00 0.7 C 4.88 g/m*3 0.7 C 1.6 km/h
2072 28-12-2018 04:45:00 0.6 C 4.85 g/m*3 0.6 C 1.6 km/h
2073 28-12-2018 04:50:00 0.6 C 4.85 g/m*3 0.6 C 1.6 km/h
2074 28-12-2018 04:55:00 0.5 C 4.81 g/m*3 0.5 C 0 km/h
2075 28-12-2018 05:00:00 0.4 C 4.73 g/m*3 0.4 C 0 km/h
Sensor: Nr:Datum:Temp:Abs-Feuchte:Windchill:Wind:
Aussen-T/F 2076 28-12-2018 05:05:00 0.3 C 4.7 g/m*3 0.3 C 0 km/h
2077 28-12-2018 05:10:00 0.2 C 4.67 g/m*3 0.2 C 0 km/h
2078 28-12-2018 05:15:00 0.1 C 4.63 g/m*3 0.1 C 0 km/h
2079 28-12-2018 05:20:00 0 C 4.6 g/m*3 0 C 0 km/h
2080 28-12-2018 05:25:00 -0.1 C 4.57 g/m*3 -0.1 C 0 km/h
2081 28-12-2018 05:30:00 -0.1 C 4.57 g/m*3 -0.1 C 0 km/h
2082 28-12-2018 05:35:00 0 C 4.65 g/m*3 0 C 0 km/h
2083 28-12-2018 05:40:00 0 C 4.65 g/m*3 0 C 0 km/h
2084 28-12-2018 05:45:00 0 C 4.65 g/m*3 0 C 0 km/h
2085 28-12-2018 05:50:00 0 C 4.65 g/m*3 0 C 0 km/h
2086 28-12-2018 05:55:00 -0.1 C 4.57 g/m*3 -0.1 C 0 km/h
2087 28-12-2018 06:00:00 -0.1 C 4.57 g/m*3 -0.1 C 0 km/h
2088 28-12-2018 06:05:00 -0.2 C 4.54 g/m*3 -0.2 C 0 km/h
2089 28-12-2018 06:10:00 -0.2 C 4.54 g/m*3 -0.2 C 0 km/h
2090 28-12-2018 06:15:00 -0.3 C 4.51 g/m*3 -0.3 C 0 km/h
2091 28-12-2018 06:20:00 -0.3 C 4.56 g/m*3 -0.3 C 1.6 km/h
2092 28-12-2018 06:25:00 -0.3 C 4.56 g/m*3 -0.3 C 1.6 km/h
2093 28-12-2018 06:30:00 -0.3 C 4.56 g/m*3 -0.3 C 1.6 km/h
2094 28-12-2018 06:35:00 -0.2 C 4.59 g/m*3 -0.2 C 0 km/h
2095 28-12-2018 06:40:00 -0.2 C 4.59 g/m*3 -0.2 C 0 km/h
2096 28-12-2018 06:45:00 -0.3 C 4.56 g/m*3 -0.3 C 0 km/h
2097 28-12-2018 06:50:00 -0.4 C 4.52 g/m*3 -0.4 C 0 km/h
2098 28-12-2018 06:55:00 -0.4 C 4.48 g/m*3 -0.4 C 0 km/h
2099 28-12-2018 07:00:00 -0.5 C 4.45 g/m*3 -0.5 C 0 km/h
2100 28-12-2018 07:05:00 -0.6 C 4.46 g/m*3 -0.6 C 0 km/h
Sensor: Nr:Datum:Temp:Abs-Feuchte:Windchill:Wind:
Aussen-T/F 2101 28-12-2018 07:10:00 -0.7 C 4.43 g/m*3 -0.7 C 0 km/h
2102 28-12-2018 07:15:00 -0.7 C 4.43 g/m*3 -0.7 C 0 km/h
2103 28-12-2018 07:20:00 -0.7 C 4.39 g/m*3 -0.7 C 0 km/h
2104 28-12-2018 07:25:00 -0.7 C 4.43 g/m*3 -0.7 C 0 km/h
2105 28-12-2018 07:30:00 -0.7 C 4.43 g/m*3 -0.7 C 0 km/h
2106 28-12-2018 07:35:00 -0.7 C 4.43 g/m*3 -0.7 C 0 km/h
2107 28-12-2018 07:40:00 -0.8 C 4.4 g/m*3 -0.8 C 1.6 km/h
2108 28-12-2018 07:45:00 -0.8 C 4.4 g/m*3 -0.8 C 0 km/h
2109 28-12-2018 07:50:00 -0.8 C 4.4 g/m*3 -0.8 C 0 km/h
2110 28-12-2018 07:55:00 -0.8 C 4.4 g/m*3 -0.8 C 0 km/h
2111 28-12-2018 08:00:00 -0.8 C 4.4 g/m*3 -0.8 C 0 km/h
2112 28-12-2018 08:05:00 -0.8 C 4.4 g/m*3 -0.8 C 0 km/h
2113 28-12-2018 08:10:00 -0.8 C 4.4 g/m*3 -0.8 C 0 km/h
2114 28-12-2018 08:15:00 -0.8 C 4.4 g/m*3 -0.8 C 0 km/h
2115 28-12-2018 08:20:00 -0.8 C 4.4 g/m*3 -0.8 C 0 km/h
2116 28-12-2018 08:25:00 -0.9 C 4.37 g/m*3 -0.9 C 0 km/h
2117 28-12-2018 08:30:00 -0.9 C 4.37 g/m*3 -0.9 C 0 km/h
2118 28-12-2018 08:35:00 -1 C 4.34 g/m*3 -1 C 0 km/h
2119 28-12-2018 08:40:00 -1 C 4.34 g/m*3 -1 C 0 km/h
2120 28-12-2018 08:45:00 -1 C 4.34 g/m*3 -1 C 0 km/h
2121 28-12-2018 08:50:00 -1 C 4.34 g/m*3 -1 C 0 km/h
2122 28-12-2018 08:55:00 -0.9 C 4.37 g/m*3 -0.9 C 0 km/h
2123 28-12-2018 09:00:00 -0.9 C 4.37 g/m*3 -0.9 C 0 km/h
2124 28-12-2018 09:05:00 -0.9 C 4.37 g/m*3 -0.9 C 0 km/h
2125 28-12-2018 09:10:00 -0.9 C 4.37 g/m*3 -0.9 C 0 km/h
Sensor: Nr:Datum:Temp:Abs-Feuchte:Windchill:Wind:
Aussen-T/F 2126 28-12-2018 09:15:00 -0.9 C 4.37 g/m*3 -0.9 C 0 km/h
2127 28-12-2018 09:20:00 -0.9 C 4.37 g/m*3 -0.9 C 0 km/h
2128 28-12-2018 09:25:00 -0.9 C 4.37 g/m*3 -0.9 C 0 km/h
2129 28-12-2018 09:30:00 -0.8 C 4.4 g/m*3 -0.8 C 3.2 km/h
2130 28-12-2018 09:35:00 -0.8 C 4.4 g/m*3 -0.8 C 1.6 km/h
2131 28-12-2018 09:40:00 -0.7 C 4.43 g/m*3 -0.7 C 4.8 km/h
2132 28-12-2018 09:45:00 -0.6 C 4.46 g/m*3 -3.95 C 9.7 km/h
2133 28-12-2018 09:50:00 -0.5 C 4.49 g/m*3 -3.83 C 9.7 km/h
2134 28-12-2018 09:55:00 -0.4 C 4.52 g/m*3 -3.24 C 8.1 km/h
2135 28-12-2018 10:00:00 -0.3 C 4.6 g/m*3 -0.3 C 4.8 km/h
2136 28-12-2018 10:05:00 -0.3 C 4.6 g/m*3 -0.3 C 4.8 km/h
2137 28-12-2018 10:10:00 -0.2 C 4.59 g/m*3 -0.2 C 0 km/h
2138 28-12-2018 10:15:00 -0.2 C 4.59 g/m*3 -3 C 8.1 km/h
2139 28-12-2018 10:20:00 -0.1 C 4.62 g/m*3 -3.35 C 9.7 km/h
2140 28-12-2018 10:25:00 -0.1 C 4.62 g/m*3 -2.89 C 8.1 km/h
2141 28-12-2018 10:30:00 -0.1 C 4.67 g/m*3 -2.89 C 8.1 km/h
2142 28-12-2018 10:35:00 0 C 4.7 g/m*3 -2.18 C 6.4 km/h
2143 28-12-2018 10:40:00 0.1 C 4.73 g/m*3 0.1 C 4.8 km/h
2144 28-12-2018 10:45:00 0.1 C 4.68 g/m*3 -2.07 C 6.4 km/h
2145 28-12-2018 10:50:00 0.1 C 4.68 g/m*3 -2.07 C 6.4 km/h
2146 28-12-2018 10:55:00 0.1 C 4.68 g/m*3 -3.12 C 9.7 km/h
2147 28-12-2018 11:00:00 0.1 C 4.68 g/m*3 -2.65 C 8.1 km/h
2148 28-12-2018 11:05:00 0.2 C 4.72 g/m*3 -3 C 9.7 km/h
2149 28-12-2018 11:10:00 0.2 C 4.72 g/m*3 -2.53 C 8.1 km/h
2150 28-12-2018 11:15:00 0.2 C 4.72 g/m*3 -2.53 C 8.1 km/h
Sensor: Nr:Datum:Temp:Abs-Feuchte:Windchill:Wind:
Aussen-T/F 2151 28-12-2018 11:20:00 0.2 C 4.72 g/m*3 -3 C 9.7 km/h
2152 28-12-2018 11:25:00 0.2 C 4.72 g/m*3 -3 C 9.7 km/h
2153 28-12-2018 11:30:00 0.2 C 4.72 g/m*3 0.2 C 4.8 km/h
2154 28-12-2018 11:35:00 0.3 C 4.75 g/m*3 -2.42 C 8.1 km/h
2155 28-12-2018 11:40:00 0.3 C 4.75 g/m*3 -1.84 C 6.4 km/h
2156 28-12-2018 11:45:00 0.3 C 4.75 g/m*3 -2.88 C 9.7 km/h
2157 28-12-2018 11:50:00 0.3 C 4.75 g/m*3 -2.42 C 8.1 km/h
2158 28-12-2018 11:55:00 0.3 C 4.75 g/m*3 -2.42 C 8.1 km/h
2159 28-12-2018 12:00:00 0.4 C 4.78 g/m*3 -2.3 C 8.1 km/h
2160 28-12-2018 12:05:00 0.4 C 4.78 g/m*3 0.4 C 4.8 km/h
2161 28-12-2018 12:10:00 0.4 C 4.78 g/m*3 0.4 C 4.8 km/h
2162 28-12-2018 12:15:00 0.5 C 4.81 g/m*3 -2.18 C 8.1 km/h
2163 28-12-2018 12:20:00 0.6 C 4.85 g/m*3 -1.49 C 6.4 km/h
2164 28-12-2018 12:25:00 0.6 C 4.85 g/m*3 -2.06 C 8.1 km/h
2165 28-12-2018 12:30:00 0.6 C 4.85 g/m*3 0.6 C 4.8 km/h
2166 28-12-2018 12:35:00 0.6 C 4.85 g/m*3 0.6 C 4.8 km/h
2167 28-12-2018 12:40:00 0.7 C 4.88 g/m*3 0.7 C 4.8 km/h
2168 28-12-2018 12:45:00 0.7 C 4.88 g/m*3 -1.37 C 6.4 km/h
2169 28-12-2018 12:50:00 0.7 C 4.88 g/m*3 0.7 C 4.8 km/h
2170 28-12-2018 12:55:00 0.8 C 4.86 g/m*3 -1.26 C 6.4 km/h
2171 28-12-2018 13:00:00 0.8 C 4.86 g/m*3 -1.83 C 8.1 km/h
2172 28-12-2018 13:05:00 0.8 C 4.86 g/m*3 0.8 C 3.2 km/h
2173 28-12-2018 13:10:00 0.8 C 4.86 g/m*3 -1.26 C 6.4 km/h
2174 28-12-2018 13:15:00 0.9 C 4.9 g/m*3 -1.14 C 6.4 km/h
2175 28-12-2018 13:20:00 1 C 4.93 g/m*3 1 C 3.2 km/h
Sensor: Nr:Datum:Temp:Abs-Feuchte:Windchill:Wind:
Aussen-T/F 2176 28-12-2018 13:25:00 1.1 C 4.96 g/m*3 -1.92 C 9.7 km/h
2177 28-12-2018 13:30:00 1.1 C 4.96 g/m*3 -1.48 C 8.1 km/h
2178 28-12-2018 13:35:00 1.1 C 4.96 g/m*3 1.1 C 4.8 km/h
2179 28-12-2018 13:40:00 1.1 C 4.91 g/m*3 1.1 C 4.8 km/h
2180 28-12-2018 13:45:00 1.1 C 4.91 g/m*3 1.1 C 0 km/h
2181 28-12-2018 13:50:00 1.2 C 4.95 g/m*3 1.2 C 4.8 km/h
2182 28-12-2018 13:55:00 1.2 C 4.95 g/m*3 1.2 C 3.2 km/h
2183 28-12-2018 14:00:00 1.2 C 4.95 g/m*3 -0.8 C 6.4 km/h
2184 28-12-2018 14:05:00 1.2 C 4.95 g/m*3 1.2 C 4.8 km/h
2185 28-12-2018 14:10:00 1.3 C 4.98 g/m*3 1.3 C 4.8 km/h
2186 28-12-2018 14:15:00 1.3 C 4.98 g/m*3 1.3 C 3.2 km/h
2187 28-12-2018 14:20:00 1.3 C 4.98 g/m*3 1.3 C 4.8 km/h
2188 28-12-2018 14:25:00 1.4 C 5.01 g/m*3 1.4 C 3.2 km/h
2189 28-12-2018 14:30:00 1.4 C 5.01 g/m*3 1.4 C 3.2 km/h
2190 28-12-2018 14:35:00 1.3 C 4.93 g/m*3 1.3 C 4.8 km/h
2191 28-12-2018 14:40:00 1.3 C 4.93 g/m*3 -1.24 C 8.1 km/h
2192 28-12-2018 14:45:00 1.2 C 4.89 g/m*3 -1.36 C 8.1 km/h
2193 28-12-2018 14:50:00 1.2 C 4.89 g/m*3 -0.8 C 6.4 km/h
2194 28-12-2018 14:55:00 1.2 C 4.89 g/m*3 1.2 C 4.8 km/h
2195 28-12-2018 15:00:00 1.2 C 4.89 g/m*3 1.2 C 4.8 km/h
2196 28-12-2018 15:05:00 1.2 C 4.89 g/m*3 1.2 C 1.6 km/h
2197 28-12-2018 15:10:00 1.2 C 4.89 g/m*3 1.2 C 1.6 km/h
2198 28-12-2018 15:15:00 1.2 C 4.89 g/m*3 1.2 C 4.8 km/h
2199 28-12-2018 15:20:00 1.1 C 4.86 g/m*3 -0.91 C 6.4 km/h
2200 28-12-2018 15:25:00 1 C 4.83 g/m*3 -1.03 C 6.4 km/h
Sensor: Nr:Datum:Temp:Abs-Feuchte:Windchill:Wind:
Aussen-T/F 2201 28-12-2018 15:30:00 0.9 C 4.79 g/m*3 0.9 C 4.8 km/h
2202 28-12-2018 15:35:00 0.9 C 4.79 g/m*3 0.9 C 4.8 km/h
2203 28-12-2018 15:40:00 0.8 C 4.76 g/m*3 -1.83 C 8.1 km/h
2204 28-12-2018 15:45:00 0.8 C 4.76 g/m*3 -1.83 C 8.1 km/h
2205 28-12-2018 15:50:00 0.8 C 4.76 g/m*3 0.8 C 3.2 km/h
2206 28-12-2018 15:55:00 0.8 C 4.76 g/m*3 -1.26 C 6.4 km/h
2207 28-12-2018 16:00:00 0.7 C 4.73 g/m*3 -1.37 C 6.4 km/h
2208 28-12-2018 16:05:00 0.7 C 4.73 g/m*3 -1.37 C 6.4 km/h
2209 28-12-2018 16:10:00 0.7 C 4.73 g/m*3 0.7 C 4.8 km/h
2210 28-12-2018 16:15:00 0.7 C 4.73 g/m*3 0.7 C 1.6 km/h
2211 28-12-2018 16:20:00 0.6 C 4.7 g/m*3 0.6 C 4.8 km/h
2212 28-12-2018 16:25:00 0.6 C 4.75 g/m*3 -2.06 C 8.1 km/h
2213 28-12-2018 16:30:00 0.6 C 4.75 g/m*3 0.6 C 3.2 km/h
2214 28-12-2018 16:35:00 0.5 C 4.66 g/m*3 0.5 C 1.6 km/h
2215 28-12-2018 16:40:00 0.4 C 4.63 g/m*3 0.4 C 3.2 km/h
2216 28-12-2018 16:45:00 0.4 C 4.68 g/m*3 0.4 C 4.8 km/h
2217 28-12-2018 16:50:00 0.4 C 4.68 g/m*3 0.4 C 3.2 km/h
2218 28-12-2018 16:55:00 0.4 C 4.68 g/m*3 -2.3 C 8.1 km/h
2219 28-12-2018 17:00:00 0.4 C 4.68 g/m*3 0.4 C 4.8 km/h
2220 28-12-2018 17:05:00 0.4 C 4.68 g/m*3 -2.76 C 9.7 km/h
2221 28-12-2018 17:10:00 0.4 C 4.68 g/m*3 0.4 C 3.2 km/h
2222 28-12-2018 17:15:00 0.4 C 4.68 g/m*3 0.4 C 0 km/h
2223 28-12-2018 17:20:00 0.3 C 4.65 g/m*3 0.3 C 4.8 km/h
2224 28-12-2018 17:25:00 0.3 C 4.65 g/m*3 0.3 C 4.8 km/h
2225 28-12-2018 17:30:00 0.3 C 4.65 g/m*3 0.3 C 1.6 km/h
Sensor: Nr:Datum:Temp:Abs-Feuchte:Windchill:Wind:
Aussen-T/F 2226 28-12-2018 17:35:00 0.3 C 4.65 g/m*3 0.3 C 3.2 km/h
2227 28-12-2018 17:40:00 0.3 C 4.65 g/m*3 0.3 C 3.2 km/h
2228 28-12-2018 17:45:00 0.3 C 4.65 g/m*3 0.3 C 1.6 km/h
2229 28-12-2018 17:50:00 0.3 C 4.65 g/m*3 0.3 C 3.2 km/h
2230 28-12-2018 17:55:00 0.3 C 4.65 g/m*3 0.3 C 4.8 km/h
2231 28-12-2018 18:00:00 0.3 C 4.65 g/m*3 0.3 C 4.8 km/h
2232 28-12-2018 18:05:00 0.3 C 4.65 g/m*3 -1.84 C 6.4 km/h
2233 28-12-2018 18:10:00 0.3 C 4.65 g/m*3 -1.84 C 6.4 km/h
2234 28-12-2018 18:15:00 0.3 C 4.65 g/m*3 -1.84 C 6.4 km/h
2235 28-12-2018 18:20:00 0.2 C 4.62 g/m*3 -1.95 C 6.4 km/h
2236 28-12-2018 18:25:00 0.2 C 4.62 g/m*3 0.2 C 4.8 km/h
2237 28-12-2018 18:30:00 0.2 C 4.62 g/m*3 0.2 C 4.8 km/h
2238 28-12-2018 18:35:00 0.2 C 4.62 g/m*3 0.2 C 4.8 km/h
2239 28-12-2018 18:40:00 0.2 C 4.62 g/m*3 -1.95 C 6.4 km/h
2240 28-12-2018 18:45:00 0.2 C 4.62 g/m*3 -3 C 9.7 km/h
2241 28-12-2018 18:50:00 0.1 C 4.59 g/m*3 0.1 C 3.2 km/h
2242 28-12-2018 18:55:00 0.1 C 4.59 g/m*3 -2.65 C 8.1 km/h
2243 28-12-2018 19:00:00 0.1 C 4.59 g/m*3 0.1 C 3.2 km/h
2244 28-12-2018 19:05:00 0.1 C 4.59 g/m*3 -2.07 C 6.4 km/h
2245 28-12-2018 19:10:00 0.1 C 4.59 g/m*3 0.1 C 4.8 km/h
2246 28-12-2018 19:15:00 0.2 C 4.62 g/m*3 0.2 C 3.2 km/h
2247 28-12-2018 19:20:00 0.2 C 4.62 g/m*3 0.2 C 4.8 km/h
2248 28-12-2018 19:25:00 0.2 C 4.62 g/m*3 0.2 C 4.8 km/h
2249 28-12-2018 19:30:00 0.2 C 4.62 g/m*3 0.2 C 4.8 km/h
2250 28-12-2018 19:35:00 0.1 C 4.59 g/m*3 0.1 C 4.8 km/h
Sensor: Nr:Datum:Temp:Abs-Feuchte:Windchill:Wind:
Aussen-T/F 2251 28-12-2018 19:40:00 0.1 C 4.59 g/m*3 0.1 C 3.2 km/h
2252 28-12-2018 19:45:00 0.1 C 4.59 g/m*3 -2.07 C 6.4 km/h
2253 28-12-2018 19:50:00 0.1 C 4.59 g/m*3 -2.07 C 6.4 km/h
2254 28-12-2018 19:55:00 0.1 C 4.59 g/m*3 0.1 C 4.8 km/h
2255 28-12-2018 20:00:00 0.1 C 4.59 g/m*3 0.1 C 4.8 km/h
2256 28-12-2018 20:05:00 0.1 C 4.59 g/m*3 0.1 C 3.2 km/h
2257 28-12-2018 20:10:00 0.1 C 4.59 g/m*3 0.1 C 0 km/h
2258 28-12-2018 20:15:00 0 C 4.55 g/m*3 0 C 0 km/h
2259 28-12-2018 20:20:00 0 C 4.55 g/m*3 0 C 4.8 km/h
2260 28-12-2018 20:25:00 0 C 4.55 g/m*3 0 C 1.6 km/h
2261 28-12-2018 20:30:00 -0.1 C 4.52 g/m*3 -0.1 C 1.6 km/h
2262 28-12-2018 20:35:00 -0.1 C 4.52 g/m*3 -0.1 C 4.8 km/h
2263 28-12-2018 20:40:00 -0.1 C 4.52 g/m*3 -0.1 C 0 km/h
2264 28-12-2018 20:45:00 -0.1 C 4.52 g/m*3 -0.1 C 1.6 km/h
2265 28-12-2018 20:50:00 -0.1 C 4.52 g/m*3 -0.1 C 0 km/h
2266 28-12-2018 20:55:00 -0.1 C 4.52 g/m*3 -0.1 C 0 km/h
2267 28-12-2018 21:00:00 -0.1 C 4.52 g/m*3 -0.1 C 1.6 km/h
2268 28-12-2018 21:05:00 -0.1 C 4.52 g/m*3 -0.1 C 0 km/h
2269 28-12-2018 21:10:00 -0.1 C 4.52 g/m*3 -0.1 C 0 km/h
2270 28-12-2018 21:15:00 -0.1 C 4.52 g/m*3 -0.1 C 0 km/h
2271 28-12-2018 21:20:00 -0.1 C 4.52 g/m*3 -0.1 C 0 km/h
2272 28-12-2018 21:25:00 -0.1 C 4.52 g/m*3 -0.1 C 0 km/h
2273 28-12-2018 21:30:00 0 C 4.55 g/m*3 0 C 0 km/h
2274 28-12-2018 21:35:00 -0.1 C 4.52 g/m*3 -0.1 C 0 km/h
2275 28-12-2018 21:40:00 -0.1 C 4.52 g/m*3 -0.1 C 0 km/h
Sensor: Nr:Datum:Temp:Abs-Feuchte:Windchill:Wind:
Aussen-T/F 2276 28-12-2018 21:45:00 -0.1 C 4.52 g/m*3 -0.1 C 0 km/h
2277 28-12-2018 21:50:00 -0.1 C 4.52 g/m*3 -0.1 C 0 km/h
2278 28-12-2018 21:55:00 -0.1 C 4.52 g/m*3 -0.1 C 0 km/h
2279 28-12-2018 22:00:00 -0.1 C 4.57 g/m*3 -0.1 C 0 km/h
2280 28-12-2018 22:05:00 -0.1 C 4.57 g/m*3 -0.1 C 0 km/h
2281 28-12-2018 22:10:00 -0.1 C 4.52 g/m*3 -0.1 C 0 km/h
2282 28-12-2018 22:15:00 -0.1 C 4.52 g/m*3 -0.1 C 0 km/h
2283 28-12-2018 22:20:00 -0.1 C 4.52 g/m*3 -0.1 C 0 km/h
2284 28-12-2018 22:25:00 -0.2 C 4.54 g/m*3 -0.2 C 0 km/h
2285 28-12-2018 22:30:00 -0.1 C 4.57 g/m*3 -0.1 C 0 km/h
2286 28-12-2018 22:35:00 -0.1 C 4.57 g/m*3 -0.1 C 3.2 km/h
2287 28-12-2018 22:40:00 -0.1 C 4.57 g/m*3 -0.1 C 0 km/h
2288 28-12-2018 22:45:00 0 C 4.6 g/m*3 0 C 0 km/h
2289 28-12-2018 22:50:00 0 C 4.6 g/m*3 0 C 0 km/h
2290 28-12-2018 22:55:00 0 C 4.6 g/m*3 0 C 1.6 km/h
2291 28-12-2018 23:00:00 0 C 4.6 g/m*3 -2.18 C 6.4 km/h
2292 28-12-2018 23:05:00 0 C 4.6 g/m*3 0 C 4.8 km/h
2293 28-12-2018 23:10:00 0.1 C 4.59 g/m*3 0.1 C 3.2 km/h
2294 28-12-2018 23:15:00 0.1 C 4.59 g/m*3 0.1 C 4.8 km/h
2295 28-12-2018 23:20:00 0.1 C 4.59 g/m*3 0.1 C 1.6 km/h
2296 28-12-2018 23:25:00 0.1 C 4.59 g/m*3 0.1 C 4.8 km/h
2297 28-12-2018 23:30:00 0.1 C 4.59 g/m*3 -2.07 C 6.4 km/h
2298 28-12-2018 23:35:00 0.1 C 4.59 g/m*3 -2.07 C 6.4 km/h
2299 28-12-2018 23:40:00 0.1 C 4.59 g/m*3 0.1 C 1.6 km/h
2300 28-12-2018 23:45:00 0.2 C 4.62 g/m*3 0.2 C 3.2 km/h
Sensor: Nr:Datum:Temp:Abs-Feuchte:Windchill:Wind:
Aussen-T/F 2301 28-12-2018 23:50:00 0.2 C 4.62 g/m*3 -1.95 C 6.4 km/h
2302 28-12-2018 23:55:00 0.2 C 4.62 g/m*3 0.2 C 3.2 km/h
2303 29-12-2018 00:00:00 0.2 C 4.62 g/m*3 0.2 C 4.8 km/h
2304 29-12-2018 00:05:00 0.2 C 4.62 g/m*3 0.2 C 4.8 km/h
2305 29-12-2018 00:10:00 0.2 C 4.62 g/m*3 0.2 C 4.8 km/h
2306 29-12-2018 00:15:00 0.2 C 4.62 g/m*3 0.2 C 3.2 km/h
2307 29-12-2018 00:20:00 0.2 C 4.62 g/m*3 -1.95 C 6.4 km/h
2308 29-12-2018 00:25:00 0.3 C 4.65 g/m*3 0.3 C 4.8 km/h
2309 29-12-2018 00:30:00 0.3 C 4.65 g/m*3 0.3 C 3.2 km/h
2310 29-12-2018 00:35:00 0.3 C 4.65 g/m*3 0.3 C 3.2 km/h
2311 29-12-2018 00:40:00 0.3 C 4.65 g/m*3 0.3 C 4.8 km/h
2312 29-12-2018 00:45:00 0.3 C 4.65 g/m*3 0.3 C 0 km/h
2313 29-12-2018 00:50:00 0.3 C 4.65 g/m*3 0.3 C 0 km/h
2314 29-12-2018 00:55:00 0.4 C 4.68 g/m*3 0.4 C 3.2 km/h
2315 29-12-2018 01:00:00 0.4 C 4.68 g/m*3 0.4 C 1.6 km/h
2316 29-12-2018 01:05:00 0.4 C 4.68 g/m*3 0.4 C 3.2 km/h
2317 29-12-2018 01:10:00 0.4 C 4.68 g/m*3 0.4 C 1.6 km/h
2318 29-12-2018 01:15:00 0.4 C 4.68 g/m*3 0.4 C 0 km/h
2319 29-12-2018 01:20:00 0.4 C 4.68 g/m*3 0.4 C 0 km/h
2320 29-12-2018 01:25:00 0.4 C 4.68 g/m*3 0.4 C 0 km/h
2321 29-12-2018 01:30:00 0.5 C 4.71 g/m*3 0.5 C 0 km/h
2322 29-12-2018 01:35:00 0.5 C 4.71 g/m*3 0.5 C 0 km/h
2323 29-12-2018 01:40:00 0.5 C 4.71 g/m*3 0.5 C 0 km/h
2324 29-12-2018 01:45:00 0.5 C 4.71 g/m*3 0.5 C 0 km/h
2325 29-12-2018 01:50:00 0.5 C 4.71 g/m*3 0.5 C 0 km/h
Sensor: Nr:Datum:Temp:Abs-Feuchte:Windchill:Wind:
Aussen-T/F 2326 29-12-2018 01:55:00 0.6 C 4.75 g/m*3 0.6 C 0 km/h
2327 29-12-2018 02:00:00 0.6 C 4.75 g/m*3 0.6 C 0 km/h
2328 29-12-2018 02:05:00 0.6 C 4.75 g/m*3 0.6 C 0 km/h
2329 29-12-2018 02:10:00 0.6 C 4.75 g/m*3 0.6 C 0 km/h
2330 29-12-2018 02:15:00 0.6 C 4.75 g/m*3 0.6 C 4.8 km/h
2331 29-12-2018 02:20:00 0.6 C 4.75 g/m*3 0.6 C 3.2 km/h
2332 29-12-2018 02:25:00 0.7 C 4.78 g/m*3 -1.37 C 6.4 km/h
2333 29-12-2018 02:30:00 0.7 C 4.78 g/m*3 0.7 C 0 km/h
2334 29-12-2018 02:35:00 0.7 C 4.78 g/m*3 0.7 C 0 km/h
2335 29-12-2018 02:40:00 0.7 C 4.78 g/m*3 0.7 C 0 km/h
2336 29-12-2018 02:45:00 0.8 C 4.81 g/m*3 0.8 C 0 km/h
2337 29-12-2018 02:50:00 0.8 C 4.81 g/m*3 0.8 C 0 km/h
2338 29-12-2018 02:55:00 0.8 C 4.81 g/m*3 0.8 C 0 km/h
2339 29-12-2018 03:00:00 0.8 C 4.81 g/m*3 0.8 C 0 km/h
2340 29-12-2018 03:05:00 0.8 C 4.81 g/m*3 0.8 C 0 km/h
2341 29-12-2018 03:10:00 0.8 C 4.81 g/m*3 0.8 C 0 km/h
2342 29-12-2018 03:15:00 0.8 C 4.81 g/m*3 0.8 C 3.2 km/h
2343 29-12-2018 03:20:00 0.8 C 4.81 g/m*3 0.8 C 1.6 km/h
2344 29-12-2018 03:25:00 0.9 C 4.85 g/m*3 0.9 C 3.2 km/h
2345 29-12-2018 03:30:00 0.9 C 4.85 g/m*3 0.9 C 3.2 km/h
2346 29-12-2018 03:35:00 0.9 C 4.85 g/m*3 0.9 C 1.6 km/h
2347 29-12-2018 03:40:00 0.9 C 4.85 g/m*3 0.9 C 3.2 km/h
2348 29-12-2018 03:45:00 1 C 4.88 g/m*3 1 C 0 km/h
2349 29-12-2018 03:50:00 1 C 4.88 g/m*3 1 C 0 km/h
2350 29-12-2018 03:55:00 1 C 4.88 g/m*3 1 C 0 km/h
Sensor: Nr:Datum:Temp:Abs-Feuchte:Windchill:Wind:
Aussen-T/F 2351 29-12-2018 04:00:00 1 C 4.88 g/m*3 1 C 1.6 km/h
2352 29-12-2018 04:05:00 1 C 4.88 g/m*3 1 C 0 km/h
2353 29-12-2018 04:10:00 1.1 C 4.91 g/m*3 1.1 C 1.6 km/h
2354 29-12-2018 04:15:00 1.1 C 4.91 g/m*3 1.1 C 0 km/h
2355 29-12-2018 04:20:00 1.1 C 4.91 g/m*3 1.1 C 0 km/h
2356 29-12-2018 04:25:00 1.1 C 4.91 g/m*3 1.1 C 0 km/h
2357 29-12-2018 04:30:00 1.1 C 4.91 g/m*3 1.1 C 0 km/h
2358 29-12-2018 04:35:00 1.1 C 4.91 g/m*3 1.1 C 0 km/h
2359 29-12-2018 04:40:00 1.1 C 4.91 g/m*3 1.1 C 0 km/h
2360 29-12-2018 04:45:00 1.1 C 4.91 g/m*3 1.1 C 0 km/h
2361 29-12-2018 04:50:00 1.1 C 4.91 g/m*3 1.1 C 0 km/h
2362 29-12-2018 04:55:00 1.2 C 4.95 g/m*3 1.2 C 0 km/h
2363 29-12-2018 05:00:00 1.2 C 4.95 g/m*3 1.2 C 0 km/h
2364 29-12-2018 05:05:00 1.2 C 4.95 g/m*3 1.2 C 0 km/h
2365 29-12-2018 05:10:00 1.2 C 4.95 g/m*3 1.2 C 0 km/h
2366 29-12-2018 05:15:00 1.2 C 4.95 g/m*3 1.2 C 0 km/h
2367 29-12-2018 05:20:00 1.2 C 4.95 g/m*3 1.2 C 0 km/h
2368 29-12-2018 05:25:00 1.2 C 4.95 g/m*3 1.2 C 0 km/h
2369 29-12-2018 05:30:00 1.2 C 4.95 g/m*3 1.2 C 0 km/h
2370 29-12-2018 05:35:00 1.2 C 4.95 g/m*3 1.2 C 1.6 km/h
2371 29-12-2018 05:40:00 1.2 C 4.95 g/m*3 1.2 C 1.6 km/h
2372 29-12-2018 05:45:00 1.3 C 4.98 g/m*3 1.3 C 3.2 km/h
2373 29-12-2018 05:50:00 1.3 C 4.98 g/m*3 1.3 C 0 km/h
2374 29-12-2018 05:55:00 1.3 C 4.98 g/m*3 1.3 C 4.8 km/h
2375 29-12-2018 06:00:00 1.3 C 4.98 g/m*3 1.3 C 1.6 km/h
Sensor: Nr:Datum:Temp:Abs-Feuchte:Windchill:Wind:
Aussen-T/F 2376 29-12-2018 06:05:00 1.3 C 4.98 g/m*3 1.3 C 0 km/h
2377 29-12-2018 06:10:00 1.3 C 4.98 g/m*3 1.3 C 0 km/h
2378 29-12-2018 06:15:00 1.3 C 4.98 g/m*3 1.3 C 0 km/h
2379 29-12-2018 06:20:00 1.3 C 4.98 g/m*3 1.3 C 0 km/h
2380 29-12-2018 06:25:00 1.4 C 5.01 g/m*3 1.4 C 0 km/h
2381 29-12-2018 06:30:00 1.4 C 5.01 g/m*3 1.4 C 4.8 km/h
2382 29-12-2018 06:35:00 1.4 C 5.01 g/m*3 1.4 C 0 km/h
2383 29-12-2018 06:40:00 1.4 C 5.01 g/m*3 1.4 C 0 km/h
2384 29-12-2018 06:45:00 1.4 C 5.01 g/m*3 1.4 C 0 km/h
2385 29-12-2018 06:50:00 1.4 C 5.01 g/m*3 1.4 C 0 km/h
2386 29-12-2018 06:55:00 1.4 C 5.01 g/m*3 1.4 C 3.2 km/h
2387 29-12-2018 07:00:00 1.4 C 5.01 g/m*3 1.4 C 4.8 km/h
2388 29-12-2018 07:05:00 1.4 C 5.01 g/m*3 1.4 C 0 km/h
2389 29-12-2018 07:10:00 1.4 C 5.01 g/m*3 1.4 C 0 km/h
2390 29-12-2018 07:15:00 1.4 C 5.01 g/m*3 1.4 C 0 km/h
2391 29-12-2018 07:20:00 1.4 C 5.01 g/m*3 1.4 C 0 km/h
2392 29-12-2018 07:25:00 1.4 C 5.07 g/m*3 1.4 C 0 km/h
2393 29-12-2018 07:30:00 1.5 C 5.1 g/m*3 1.5 C 0 km/h
2394 29-12-2018 07:35:00 1.5 C 5.1 g/m*3 1.5 C 0 km/h
2395 29-12-2018 07:40:00 1.5 C 5.1 g/m*3 1.5 C 0 km/h
2396 29-12-2018 07:45:00 1.5 C 5.1 g/m*3 1.5 C 0 km/h
2397 29-12-2018 07:50:00 1.5 C 5.1 g/m*3 1.5 C 1.6 km/h
2398 29-12-2018 07:55:00 1.5 C 5.1 g/m*3 1.5 C 0 km/h
2399 29-12-2018 08:00:00 1.5 C 5.1 g/m*3 1.5 C 3.2 km/h
2400 29-12-2018 08:05:00 1.6 C 5.14 g/m*3 -0.33 C 6.4 km/h
Sensor: Nr:Datum:Temp:Abs-Feuchte:Windchill:Wind:
Aussen-T/F 2401 29-12-2018 08:10:00 1.6 C 5.14 g/m*3 1.6 C 4.8 km/h
2402 29-12-2018 08:15:00 1.6 C 5.14 g/m*3 1.6 C 4.8 km/h
2403 29-12-2018 08:20:00 1.6 C 5.14 g/m*3 1.6 C 4.8 km/h
2404 29-12-2018 08:25:00 1.6 C 5.14 g/m*3 -0.33 C 6.4 km/h
2405 29-12-2018 08:30:00 1.6 C 5.14 g/m*3 1.6 C 4.8 km/h
2406 29-12-2018 08:35:00 1.7 C 5.17 g/m*3 1.7 C 3.2 km/h
2407 29-12-2018 08:40:00 1.7 C 5.17 g/m*3 1.7 C 1.6 km/h
2408 29-12-2018 08:45:00 1.7 C 5.17 g/m*3 1.7 C 0 km/h
2409 29-12-2018 08:50:00 1.7 C 5.17 g/m*3 1.7 C 0 km/h
2410 29-12-2018 08:55:00 1.7 C 5.17 g/m*3 1.7 C 0 km/h
2411 29-12-2018 09:00:00 1.8 C 5.21 g/m*3 1.8 C 4.8 km/h
2412 29-12-2018 09:05:00 1.8 C 5.21 g/m*3 1.8 C 0 km/h
2413 29-12-2018 09:10:00 1.8 C 5.21 g/m*3 -0.65 C 8.1 km/h
2414 29-12-2018 09:15:00 1.8 C 5.21 g/m*3 -1.09 C 9.7 km/h
2415 29-12-2018 09:20:00 1.8 C 5.21 g/m*3 1.8 C 4.8 km/h
2416 29-12-2018 09:25:00 1.9 C 5.24 g/m*3 1.9 C 4.8 km/h
2417 29-12-2018 09:30:00 1.9 C 5.24 g/m*3 -0.54 C 8.1 km/h
2418 29-12-2018 09:35:00 2 C 5.28 g/m*3 -0.85 C 9.7 km/h
2419 29-12-2018 09:40:00 2.1 C 5.31 g/m*3 2.1 C 3.2 km/h
2420 29-12-2018 09:45:00 2.1 C 5.31 g/m*3 2.1 C 1.6 km/h
2421 29-12-2018 09:50:00 2.2 C 5.35 g/m*3 0.36 C 6.4 km/h
2422 29-12-2018 09:55:00 2.2 C 5.35 g/m*3 -0.18 C 8.1 km/h
2423 29-12-2018 10:00:00 2.2 C 5.35 g/m*3 -0.61 C 9.7 km/h
2424 29-12-2018 10:05:00 2.3 C 5.39 g/m*3 2.3 C 3.2 km/h
2425 29-12-2018 10:10:00 2.4 C 5.42 g/m*3 2.4 C 4.8 km/h
Sensor: Nr:Datum:Temp:Abs-Feuchte:Windchill:Wind:
Aussen-T/F 2426 29-12-2018 10:15:00 2.4 C 5.42 g/m*3 0.05 C 8.1 km/h
2427 29-12-2018 10:20:00 2.4 C 5.42 g/m*3 0.59 C 6.4 km/h
2428 29-12-2018 10:25:00 2.4 C 5.42 g/m*3 0.05 C 8.1 km/h
2429 29-12-2018 10:30:00 2.5 C 5.46 g/m*3 2.5 C 4.8 km/h
2430 29-12-2018 10:35:00 2.5 C 5.46 g/m*3 0.17 C 8.1 km/h
2431 29-12-2018 10:40:00 2.6 C 5.5 g/m*3 0.29 C 8.1 km/h
2432 29-12-2018 10:45:00 2.6 C 5.5 g/m*3 0.29 C 8.1 km/h
2433 29-12-2018 10:50:00 2.6 C 5.5 g/m*3 -0.14 C 9.7 km/h
2434 29-12-2018 10:55:00 2.7 C 5.54 g/m*3 2.7 C 4.8 km/h
2435 29-12-2018 11:00:00 2.7 C 5.54 g/m*3 0.94 C 6.4 km/h
2436 29-12-2018 11:05:00 2.8 C 5.57 g/m*3 1.05 C 6.4 km/h
2437 29-12-2018 11:10:00 2.8 C 5.57 g/m*3 2.8 C 4.8 km/h
2438 29-12-2018 11:15:00 2.8 C 5.57 g/m*3 1.05 C 6.4 km/h
2439 29-12-2018 11:20:00 2.9 C 5.61 g/m*3 1.17 C 6.4 km/h
2440 29-12-2018 11:25:00 3 C 5.65 g/m*3 0.76 C 8.1 km/h
2441 29-12-2018 11:30:00 3.1 C 5.63 g/m*3 1.4 C 6.4 km/h
2442 29-12-2018 11:35:00 3.1 C 5.63 g/m*3 3.1 C 4.8 km/h
2443 29-12-2018 11:40:00 3.2 C 5.66 g/m*3 1.51 C 6.4 km/h
2444 29-12-2018 11:45:00 3.2 C 5.66 g/m*3 0.99 C 8.1 km/h
2445 29-12-2018 11:50:00 3.3 C 5.7 g/m*3 1.11 C 8.1 km/h
2446 29-12-2018 11:55:00 3.3 C 5.7 g/m*3 1.63 C 6.4 km/h
2447 29-12-2018 12:00:00 3.4 C 5.74 g/m*3 1.75 C 6.4 km/h
2448 29-12-2018 12:05:00 3.4 C 5.68 g/m*3 1.23 C 8.1 km/h
2449 29-12-2018 12:10:00 3.4 C 5.68 g/m*3 0.46 C 11.3 km/h
2450 29-12-2018 12:15:00 3.4 C 5.68 g/m*3 0.46 C 11.3 km/h
Sensor: Nr:Datum:Temp:Abs-Feuchte:Windchill:Wind:
Aussen-T/F 2451 29-12-2018 12:20:00 3.5 C 5.72 g/m*3 1.34 C 8.1 km/h
2452 29-12-2018 12:25:00 3.6 C 5.76 g/m*3 3.6 C 4.8 km/h
2453 29-12-2018 12:30:00 3.7 C 5.8 g/m*3 1.18 C 9.7 km/h
2454 29-12-2018 12:35:00 3.8 C 5.83 g/m*3 1.29 C 9.7 km/h
2455 29-12-2018 12:40:00 3.8 C 5.77 g/m*3 0.94 C 11.3 km/h
2456 29-12-2018 12:45:00 3.9 C 5.81 g/m*3 0.75 C 12.9 km/h
2457 29-12-2018 12:50:00 3.9 C 5.81 g/m*3 0.47 C 14.5 km/h
2458 29-12-2018 12:55:00 3.9 C 5.81 g/m*3 0.22 C 16.1 km/h
2459 29-12-2018 13:00:00 3.9 C 5.81 g/m*3 -0.23 C 19.3 km/h
2460 29-12-2018 13:05:00 3.8 C 5.77 g/m*3 0.1 C 16.1 km/h
2461 29-12-2018 13:10:00 3.9 C 5.81 g/m*3 0.47 C 14.5 km/h
2462 29-12-2018 13:15:00 3.9 C 5.75 g/m*3 -0.01 C 17.7 km/h
2463 29-12-2018 13:20:00 3.9 C 5.75 g/m*3 0.47 C 14.5 km/h
2464 29-12-2018 13:25:00 3.9 C 5.75 g/m*3 -0.01 C 17.7 km/h
2465 29-12-2018 13:30:00 3.9 C 5.75 g/m*3 0.75 C 12.9 km/h
2466 29-12-2018 13:35:00 3.9 C 5.75 g/m*3 0.47 C 14.5 km/h
2467 29-12-2018 13:40:00 3.9 C 5.75 g/m*3 1.06 C 11.3 km/h
2468 29-12-2018 13:45:00 3.9 C 5.75 g/m*3 1.06 C 11.3 km/h
2469 29-12-2018 13:50:00 3.8 C 5.71 g/m*3 0.63 C 12.9 km/h
2470 29-12-2018 13:55:00 3.8 C 5.71 g/m*3 0.63 C 12.9 km/h
2471 29-12-2018 14:00:00 3.8 C 5.71 g/m*3 0.94 C 11.3 km/h
2472 29-12-2018 14:05:00 3.7 C 5.67 g/m*3 0.51 C 12.9 km/h
2473 29-12-2018 14:10:00 3.7 C 5.67 g/m*3 0.82 C 11.3 km/h
2474 29-12-2018 14:15:00 3.7 C 5.67 g/m*3 1.18 C 9.7 km/h
2475 29-12-2018 14:20:00 3.7 C 5.67 g/m*3 1.58 C 8.1 km/h
Sensor: Nr:Datum:Temp:Abs-Feuchte:Windchill:Wind:
Aussen-T/F 2476 29-12-2018 14:25:00 3.7 C 5.67 g/m*3 1.18 C 9.7 km/h
2477 29-12-2018 14:30:00 3.7 C 5.67 g/m*3 1.18 C 9.7 km/h
2478 29-12-2018 14:35:00 3.7 C 5.67 g/m*3 1.58 C 8.1 km/h
2479 29-12-2018 14:40:00 3.7 C 5.67 g/m*3 0.51 C 12.9 km/h
2480 29-12-2018 14:45:00 3.7 C 5.67 g/m*3 0.82 C 11.3 km/h
2481 29-12-2018 14:50:00 3.7 C 5.67 g/m*3 0.51 C 12.9 km/h
2482 29-12-2018 14:55:00 3.7 C 5.67 g/m*3 2.09 C 6.4 km/h
2483 29-12-2018 15:00:00 3.7 C 5.67 g/m*3 1.18 C 9.7 km/h
2484 29-12-2018 15:05:00 3.8 C 5.71 g/m*3 3.8 C 4.8 km/h
2485 29-12-2018 15:10:00 3.7 C 5.67 g/m*3 3.7 C 4.8 km/h
2486 29-12-2018 15:15:00 3.8 C 5.71 g/m*3 2.21 C 6.4 km/h
2487 29-12-2018 15:20:00 3.7 C 5.67 g/m*3 3.7 C 4.8 km/h
2488 29-12-2018 15:25:00 3.7 C 5.67 g/m*3 3.7 C 4.8 km/h
2489 29-12-2018 15:30:00 3.8 C 5.71 g/m*3 3.8 C 4.8 km/h
2490 29-12-2018 15:35:00 3.7 C 5.67 g/m*3 2.09 C 6.4 km/h
2491 29-12-2018 15:40:00 3.8 C 5.71 g/m*3 3.8 C 4.8 km/h
2492 29-12-2018 15:45:00 3.7 C 5.67 g/m*3 3.7 C 4.8 km/h
2493 29-12-2018 15:50:00 3.7 C 5.67 g/m*3 0.82 C 11.3 km/h
2494 29-12-2018 15:55:00 3.7 C 5.67 g/m*3 1.18 C 9.7 km/h
2495 29-12-2018 16:00:00 3.7 C 5.67 g/m*3 1.18 C 9.7 km/h
2496 29-12-2018 16:05:00 3.7 C 5.67 g/m*3 0.82 C 11.3 km/h
2497 29-12-2018 16:10:00 3.7 C 5.67 g/m*3 1.18 C 9.7 km/h
2498 29-12-2018 16:15:00 3.7 C 5.67 g/m*3 0.23 C 14.5 km/h
2499 29-12-2018 16:20:00 3.7 C 5.67 g/m*3 -0.69 C 20.9 km/h
2500 29-12-2018 16:25:00 3.7 C 5.67 g/m*3 -0.69 C 20.9 km/h
Sensor: Nr:Datum:Temp:Abs-Feuchte:Windchill:Wind:
Aussen-T/F 2501 29-12-2018 16:30:00 3.8 C 5.71 g/m*3 0.94 C 11.3 km/h
2502 29-12-2018 16:35:00 3.8 C 5.71 g/m*3 0.35 C 14.5 km/h
2503 29-12-2018 16:40:00 3.8 C 5.71 g/m*3 0.35 C 14.5 km/h
2504 29-12-2018 16:45:00 3.9 C 5.75 g/m*3 1.82 C 8.1 km/h
2505 29-12-2018 16:50:00 3.9 C 5.75 g/m*3 1.82 C 8.1 km/h
2506 29-12-2018 16:55:00 3.9 C 5.75 g/m*3 1.06 C 11.3 km/h
2507 29-12-2018 17:00:00 3.9 C 5.75 g/m*3 1.06 C 11.3 km/h
2508 29-12-2018 17:05:00 4 C 5.79 g/m*3 1.18 C 11.3 km/h
2509 29-12-2018 17:10:00 4.1 C 5.76 g/m*3 4.1 C 4.8 km/h
2510 29-12-2018 17:15:00 4.1 C 5.76 g/m*3 4.1 C 3.2 km/h
2511 29-12-2018 17:20:00 4 C 5.79 g/m*3 4 C 1.6 km/h
2512 29-12-2018 17:25:00 4 C 5.79 g/m*3 4 C 3.2 km/h
2513 29-12-2018 17:30:00 4.1 C 5.82 g/m*3 1.65 C 9.7 km/h
2514 29-12-2018 17:35:00 4.1 C 5.82 g/m*3 4.1 C 3.2 km/h
2515 29-12-2018 17:40:00 4.2 C 5.86 g/m*3 4.2 C 3.2 km/h
2516 29-12-2018 17:45:00 4.2 C 5.86 g/m*3 4.2 C 1.6 km/h
2517 29-12-2018 17:50:00 4.2 C 5.86 g/m*3 2.67 C 6.4 km/h
2518 29-12-2018 17:55:00 4.2 C 5.86 g/m*3 1.77 C 9.7 km/h
2519 29-12-2018 18:00:00 4.2 C 5.86 g/m*3 1.77 C 9.7 km/h
2520 29-12-2018 18:05:00 4.3 C 5.9 g/m*3 1.89 C 9.7 km/h
2521 29-12-2018 18:10:00 4.3 C 5.9 g/m*3 1.55 C 11.3 km/h
2522 29-12-2018 18:15:00 4.3 C 5.9 g/m*3 2.29 C 8.1 km/h
2523 29-12-2018 18:20:00 4.2 C 5.93 g/m*3 2.17 C 8.1 km/h
2524 29-12-2018 18:25:00 4.1 C 5.89 g/m*3 1.65 C 9.7 km/h
2525 29-12-2018 18:30:00 4.1 C 5.95 g/m*3 1.31 C 11.3 km/h
Sensor: Nr:Datum:Temp:Abs-Feuchte:Windchill:Wind:
Aussen-T/F 2526 29-12-2018 18:35:00 4 C 5.91 g/m*3 1.18 C 11.3 km/h
2527 29-12-2018 18:40:00 3.9 C 5.87 g/m*3 1.82 C 8.1 km/h
2528 29-12-2018 18:45:00 3.9 C 5.94 g/m*3 1.41 C 9.7 km/h
2529 29-12-2018 18:50:00 3.9 C 5.94 g/m*3 1.41 C 9.7 km/h
2530 29-12-2018 18:55:00 3.9 C 5.94 g/m*3 1.82 C 8.1 km/h
2531 29-12-2018 19:00:00 3.9 C 5.94 g/m*3 1.82 C 8.1 km/h
2532 29-12-2018 19:05:00 3.9 C 5.94 g/m*3 1.41 C 9.7 km/h
2533 29-12-2018 19:10:00 3.9 C 5.94 g/m*3 0.47 C 14.5 km/h
2534 29-12-2018 19:15:00 3.9 C 6 g/m*3 0.75 C 12.9 km/h
2535 29-12-2018 19:20:00 3.9 C 6 g/m*3 0.75 C 12.9 km/h
2536 29-12-2018 19:25:00 4 C 6.04 g/m*3 0.34 C 16.1 km/h
2537 29-12-2018 19:30:00 4 C 6.04 g/m*3 1.18 C 11.3 km/h
2538 29-12-2018 19:35:00 4 C 6.04 g/m*3 0.34 C 16.1 km/h
2539 29-12-2018 19:40:00 4.1 C 6.08 g/m*3 1 C 12.9 km/h
2540 29-12-2018 19:45:00 4.1 C 6.08 g/m*3 0.02 C 19.3 km/h
2541 29-12-2018 19:50:00 4.1 C 6.02 g/m*3 0.72 C 14.5 km/h
2542 29-12-2018 19:55:00 4.1 C 6.08 g/m*3 0.72 C 14.5 km/h
2543 29-12-2018 20:00:00 4.1 C 6.02 g/m*3 -0.37 C 22.5 km/h
2544 29-12-2018 20:05:00 4.1 C 6.02 g/m*3 0.47 C 16.1 km/h
2545 29-12-2018 20:10:00 4.2 C 6.06 g/m*3 -0.24 C 22.5 km/h
2546 29-12-2018 20:15:00 4.2 C 6.06 g/m*3 -0.05 C 20.9 km/h
2547 29-12-2018 20:20:00 4.2 C 6.06 g/m*3 1.12 C 12.9 km/h
2548 29-12-2018 20:25:00 4.2 C 6.06 g/m*3 -0.24 C 22.5 km/h
2549 29-12-2018 20:30:00 4.2 C 6.06 g/m*3 0.84 C 14.5 km/h
2550 29-12-2018 20:35:00 4.2 C 6.06 g/m*3 0.15 C 19.3 km/h
Sensor: Nr:Datum:Temp:Abs-Feuchte:Windchill:Wind:
Aussen-T/F 2551 29-12-2018 20:40:00 4.2 C 6.06 g/m*3 0.84 C 14.5 km/h
2552 29-12-2018 20:45:00 4.2 C 6.06 g/m*3 0.84 C 14.5 km/h
2553 29-12-2018 20:50:00 4.2 C 6.06 g/m*3 1.43 C 11.3 km/h
2554 29-12-2018 20:55:00 4.2 C 6.06 g/m*3 0.84 C 14.5 km/h
2555 29-12-2018 21:00:00 4.2 C 6.06 g/m*3 1.12 C 12.9 km/h
2556 29-12-2018 21:05:00 4.3 C 6.1 g/m*3 1.24 C 12.9 km/h
2557 29-12-2018 21:10:00 4.3 C 6.1 g/m*3 -0.11 C 22.5 km/h
2558 29-12-2018 21:15:00 4.4 C 6.07 g/m*3 0.4 C 19.3 km/h
2559 29-12-2018 21:20:00 4.4 C 6.07 g/m*3 0.4 C 19.3 km/h
2560 29-12-2018 21:25:00 4.4 C 6.07 g/m*3 0.84 C 16.1 km/h
2561 29-12-2018 21:30:00 4.4 C 6.07 g/m*3 1.09 C 14.5 km/h
2562 29-12-2018 21:35:00 4.4 C 6.07 g/m*3 1.36 C 12.9 km/h
2563 29-12-2018 21:40:00 4.4 C 6.07 g/m*3 1.36 C 12.9 km/h
2564 29-12-2018 21:45:00 4.4 C 6.07 g/m*3 1.36 C 12.9 km/h
2565 29-12-2018 21:50:00 4.4 C 6.07 g/m*3 1.67 C 11.3 km/h
2566 29-12-2018 21:55:00 4.4 C 6.07 g/m*3 1.67 C 11.3 km/h
2567 29-12-2018 22:00:00 4.3 C 6.03 g/m*3 0.97 C 14.5 km/h
2568 29-12-2018 22:05:00 4.4 C 6.07 g/m*3 0.61 C 17.7 km/h
2569 29-12-2018 22:10:00 4.4 C 6.07 g/m*3 1.67 C 11.3 km/h
2570 29-12-2018 22:15:00 4.4 C 6.07 g/m*3 0.84 C 16.1 km/h
2571 29-12-2018 22:20:00 4.4 C 6.07 g/m*3 1.36 C 12.9 km/h
2572 29-12-2018 22:25:00 4.4 C 6.07 g/m*3 1.67 C 11.3 km/h
2573 29-12-2018 22:30:00 4.4 C 6.07 g/m*3 0.84 C 16.1 km/h
2574 29-12-2018 22:35:00 4.4 C 6.07 g/m*3 0.84 C 16.1 km/h
2575 29-12-2018 22:40:00 4.5 C 6.11 g/m*3 0.14 C 22.5 km/h
Sensor: Nr:Datum:Temp:Abs-Feuchte:Windchill:Wind:
Aussen-T/F 2576 29-12-2018 22:45:00 4.5 C 6.11 g/m*3 1.21 C 14.5 km/h
2577 29-12-2018 22:50:00 4.5 C 6.11 g/m*3 0.74 C 17.7 km/h
2578 29-12-2018 22:55:00 4.6 C 6.15 g/m*3 1.34 C 14.5 km/h
2579 29-12-2018 23:00:00 4.6 C 6.15 g/m*3 1.34 C 14.5 km/h
2580 29-12-2018 23:05:00 4.6 C 6.15 g/m*3 1.61 C 12.9 km/h
2581 29-12-2018 23:10:00 4.6 C 6.15 g/m*3 2.25 C 9.7 km/h
2582 29-12-2018 23:15:00 4.6 C 6.15 g/m*3 2.25 C 9.7 km/h
2583 29-12-2018 23:20:00 4.6 C 6.15 g/m*3 1.61 C 12.9 km/h
2584 29-12-2018 23:25:00 4.6 C 6.15 g/m*3 1.91 C 11.3 km/h
2585 29-12-2018 23:30:00 4.7 C 6.19 g/m*3 1.21 C 16.1 km/h
2586 29-12-2018 23:35:00 4.6 C 6.15 g/m*3 2.25 C 9.7 km/h
2587 29-12-2018 23:40:00 4.7 C 6.26 g/m*3 2.37 C 9.7 km/h
2588 29-12-2018 23:45:00 4.7 C 6.26 g/m*3 2.37 C 9.7 km/h
2589 29-12-2018 23:50:00 4.8 C 6.3 g/m*3 2.87 C 8.1 km/h
2590 29-12-2018 23:55:00 4.8 C 6.3 g/m*3 4.8 C 4.8 km/h
2591 30-12-2018 00:00:00 4.9 C 6.35 g/m*3 2.61 C 9.7 km/h
2592 30-12-2018 00:05:00 5 C 6.39 g/m*3 3.11 C 8.1 km/h
2593 30-12-2018 00:10:00 5.1 C 6.36 g/m*3 2.51 C 11.3 km/h
2594 30-12-2018 00:15:00 5.1 C 6.36 g/m*3 2.51 C 11.3 km/h
2595 30-12-2018 00:20:00 5.1 C 6.36 g/m*3 3.23 C 8.1 km/h
2596 30-12-2018 00:25:00 5.2 C 6.4 g/m*3 2.96 C 9.7 km/h
2597 30-12-2018 00:30:00 5.2 C 6.4 g/m*3 2.96 C 9.7 km/h
2598 30-12-2018 00:35:00 5.3 C 6.45 g/m*3 2.75 C 11.3 km/h
2599 30-12-2018 00:40:00 5.4 C 6.49 g/m*3 3.2 C 9.7 km/h
2600 30-12-2018 00:45:00 5.6 C 6.57 g/m*3 3.81 C 8.1 km/h
Sensor: Nr:Datum:Temp:Abs-Feuchte:Windchill:Wind:
Aussen-T/F 2601 30-12-2018 00:50:00 5.8 C 6.66 g/m*3 4.52 C 6.4 km/h
2602 30-12-2018 00:55:00 5.9 C 6.71 g/m*3 3.8 C 9.7 km/h
2603 30-12-2018 01:00:00 6.2 C 6.84 g/m*3 4.52 C 8.1 km/h
2604 30-12-2018 01:05:00 6.7 C 6.99 g/m*3 4.44 C 11.3 km/h
2605 30-12-2018 01:10:00 7.2 C 7.06 g/m*3 4.77 C 12.9 km/h
2606 30-12-2018 01:15:00 7.4 C 7 g/m*3 5.28 C 11.3 km/h
2607 30-12-2018 01:20:00 7.8 C 7.02 g/m*3 4.68 C 19.3 km/h
2608 30-12-2018 01:25:00 8.1 C 7.07 g/m*3 5.23 C 17.7 km/h
2609 30-12-2018 01:30:00 8.2 C 7.03 g/m*3 5.55 C 16.1 km/h
2610 30-12-2018 01:35:00 8.3 C 7.08 g/m*3 6.12 C 12.9 km/h
2611 30-12-2018 01:40:00 8.4 C 7.13 g/m*3 6.49 C 11.3 km/h
2612 30-12-2018 01:45:00 8.4 C 7.13 g/m*3 5.61 C 17.7 km/h
2613 30-12-2018 01:50:00 8.4 C 7.13 g/m*3 4.83 C 25.7 km/h
2614 30-12-2018 01:55:00 8.4 C 7.13 g/m*3 5.8 C 16.1 km/h
2615 30-12-2018 02:00:00 8.3 C 7.08 g/m*3 5.68 C 16.1 km/h
2616 30-12-2018 02:05:00 8.3 C 7.08 g/m*3 6.12 C 12.9 km/h
2617 30-12-2018 02:10:00 8.3 C 7.08 g/m*3 5.48 C 17.7 km/h
2618 30-12-2018 02:15:00 8.3 C 7.16 g/m*3 5.31 C 19.3 km/h
2619 30-12-2018 02:20:00 8.3 C 7.16 g/m*3 5.31 C 19.3 km/h
2620 30-12-2018 02:25:00 8.3 C 7.16 g/m*3 5.89 C 14.5 km/h
2621 30-12-2018 02:30:00 8.2 C 7.03 g/m*3 5.36 C 17.7 km/h
2622 30-12-2018 02:35:00 8.2 C 7.03 g/m*3 5.55 C 16.1 km/h
2623 30-12-2018 02:40:00 8.2 C 6.95 g/m*3 5.76 C 14.5 km/h
2624 30-12-2018 02:45:00 8.3 C 6.91 g/m*3 5.89 C 14.5 km/h
2625 30-12-2018 02:50:00 8.3 C 6.91 g/m*3 4.98 C 22.5 km/h
Sensor: Nr:Datum:Temp:Abs-Feuchte:Windchill:Wind:
Aussen-T/F 2626 30-12-2018 02:55:00 8.3 C 6.91 g/m*3 5.14 C 20.9 km/h
2627 30-12-2018 03:00:00 8.3 C 6.91 g/m*3 5.68 C 16.1 km/h
2628 30-12-2018 03:05:00 8.3 C 6.91 g/m*3 6.66 C 9.7 km/h
2629 30-12-2018 03:10:00 8.3 C 6.83 g/m*3 5.48 C 17.7 km/h
2630 30-12-2018 03:15:00 8.4 C 6.87 g/m*3 5.43 C 19.3 km/h
2631 30-12-2018 03:20:00 8.4 C 6.87 g/m*3 6.24 C 12.9 km/h
2632 30-12-2018 03:25:00 8.4 C 6.87 g/m*3 6.49 C 11.3 km/h
2633 30-12-2018 03:30:00 8.3 C 6.83 g/m*3 5.89 C 14.5 km/h
2634 30-12-2018 03:35:00 8.3 C 6.83 g/m*3 6.12 C 12.9 km/h
2635 30-12-2018 03:40:00 8.3 C 6.83 g/m*3 6.37 C 11.3 km/h
2636 30-12-2018 03:45:00 8.3 C 6.83 g/m*3 5.14 C 20.9 km/h
2637 30-12-2018 03:50:00 8.3 C 6.83 g/m*3 5.89 C 14.5 km/h
2638 30-12-2018 03:55:00 8.3 C 6.91 g/m*3 4.84 C 24.1 km/h
2639 30-12-2018 04:00:00 8.3 C 6.91 g/m*3 5.89 C 14.5 km/h
2640 30-12-2018 04:05:00 8.3 C 6.91 g/m*3 5.31 C 19.3 km/h
2641 30-12-2018 04:10:00 8.3 C 6.91 g/m*3 5.68 C 16.1 km/h
2642 30-12-2018 04:15:00 8.2 C 6.87 g/m*3 6.87 C 8.1 km/h
2643 30-12-2018 04:20:00 8.2 C 6.95 g/m*3 6.87 C 8.1 km/h
2644 30-12-2018 04:25:00 8.2 C 6.95 g/m*3 5.55 C 16.1 km/h
2645 30-12-2018 04:30:00 8.2 C 6.95 g/m*3 6.54 C 9.7 km/h
2646 30-12-2018 04:35:00 8.2 C 6.95 g/m*3 5.99 C 12.9 km/h
2647 30-12-2018 04:40:00 8.1 C 6.91 g/m*3 6.42 C 9.7 km/h
2648 30-12-2018 04:45:00 8.1 C 6.91 g/m*3 5.43 C 16.1 km/h
2649 30-12-2018 04:50:00 8.2 C 6.95 g/m*3 6.54 C 9.7 km/h
2650 30-12-2018 04:55:00 8.2 C 6.95 g/m*3 5.99 C 12.9 km/h
Sensor: Nr:Datum:Temp:Abs-Feuchte:Windchill:Wind:
Aussen-T/F 2651 30-12-2018 05:00:00 8.1 C 6.91 g/m*3 6.13 C 11.3 km/h
2652 30-12-2018 05:05:00 8.1 C 6.91 g/m*3 5.23 C 17.7 km/h
2653 30-12-2018 05:10:00 8.1 C 6.91 g/m*3 5.64 C 14.5 km/h
2654 30-12-2018 05:15:00 8.1 C 6.91 g/m*3 5.87 C 12.9 km/h
2655 30-12-2018 05:20:00 8.1 C 6.91 g/m*3 5.64 C 14.5 km/h
2656 30-12-2018 05:25:00 8.1 C 6.91 g/m*3 5.87 C 12.9 km/h
2657 30-12-2018 05:30:00 8.1 C 6.91 g/m*3 5.87 C 12.9 km/h
2658 30-12-2018 05:35:00 8.1 C 6.91 g/m*3 5.05 C 19.3 km/h
2659 30-12-2018 05:40:00 8.1 C 6.91 g/m*3 5.87 C 12.9 km/h
2660 30-12-2018 05:45:00 8.1 C 6.91 g/m*3 5.43 C 16.1 km/h
2661 30-12-2018 05:50:00 8.1 C 6.91 g/m*3 5.64 C 14.5 km/h
2662 30-12-2018 05:55:00 8.1 C 6.91 g/m*3 5.87 C 12.9 km/h
2663 30-12-2018 06:00:00 8.1 C 6.91 g/m*3 6.13 C 11.3 km/h
2664 30-12-2018 06:05:00 8.1 C 6.99 g/m*3 6.13 C 11.3 km/h
2665 30-12-2018 06:10:00 8.1 C 6.99 g/m*3 5.87 C 12.9 km/h
2666 30-12-2018 06:15:00 8 C 6.94 g/m*3 6.3 C 9.7 km/h
2667 30-12-2018 06:20:00 8 C 6.94 g/m*3 5.75 C 12.9 km/h
2668 30-12-2018 06:25:00 7.9 C 6.9 g/m*3 7.9 C 3.2 km/h
2669 30-12-2018 06:30:00 7.9 C 6.9 g/m*3 6.18 C 9.7 km/h
2670 30-12-2018 06:35:00 7.9 C 6.9 g/m*3 4.98 C 17.7 km/h
2671 30-12-2018 06:40:00 7.9 C 6.9 g/m*3 6.52 C 8.1 km/h
2672 30-12-2018 06:45:00 7.9 C 6.9 g/m*3 6.18 C 9.7 km/h
2673 30-12-2018 06:50:00 7.9 C 6.9 g/m*3 6.94 C 6.4 km/h
2674 30-12-2018 06:55:00 7.9 C 6.9 g/m*3 5.39 C 14.5 km/h
2675 30-12-2018 07:00:00 7.9 C 6.9 g/m*3 6.52 C 8.1 km/h
Sensor: Nr:Datum:Temp:Abs-Feuchte:Windchill:Wind:
Aussen-T/F 2676 30-12-2018 07:05:00 7.9 C 6.9 g/m*3 6.18 C 9.7 km/h
2677 30-12-2018 07:10:00 7.9 C 6.82 g/m*3 7.9 C 4.8 km/h
2678 30-12-2018 07:15:00 7.9 C 6.9 g/m*3 7.9 C 4.8 km/h
2679 30-12-2018 07:20:00 7.9 C 6.9 g/m*3 7.9 C 3.2 km/h
2680 30-12-2018 07:25:00 7.8 C 6.86 g/m*3 6.83 C 6.4 km/h
2681 30-12-2018 07:30:00 7.8 C 6.86 g/m*3 6.06 C 9.7 km/h
2682 30-12-2018 07:35:00 7.8 C 6.94 g/m*3 6.4 C 8.1 km/h
2683 30-12-2018 07:40:00 7.8 C 6.94 g/m*3 7.8 C 4.8 km/h
2684 30-12-2018 07:45:00 7.7 C 6.89 g/m*3 6.71 C 6.4 km/h
2685 30-12-2018 07:50:00 7.7 C 6.89 g/m*3 7.7 C 4.8 km/h
2686 30-12-2018 07:55:00 7.7 C 6.97 g/m*3 7.7 C 4.8 km/h
2687 30-12-2018 08:00:00 7.7 C 6.97 g/m*3 5.65 C 11.3 km/h
2688 30-12-2018 08:05:00 7.7 C 6.97 g/m*3 6.71 C 6.4 km/h
2689 30-12-2018 08:10:00 7.7 C 6.97 g/m*3 7.7 C 3.2 km/h
2690 30-12-2018 08:15:00 7.6 C 7.01 g/m*3 5.82 C 9.7 km/h
2691 30-12-2018 08:20:00 7.6 C 7.01 g/m*3 6.16 C 8.1 km/h
2692 30-12-2018 08:25:00 7.6 C 7.01 g/m*3 6.6 C 6.4 km/h
2693 30-12-2018 08:30:00 7.6 C 7.01 g/m*3 7.6 C 3.2 km/h
2694 30-12-2018 08:35:00 7.6 C 7.01 g/m*3 5.82 C 9.7 km/h
2695 30-12-2018 08:40:00 7.6 C 7.01 g/m*3 7.6 C 0 km/h
2696 30-12-2018 08:45:00 7.6 C 6.93 g/m*3 7.6 C 4.8 km/h
2697 30-12-2018 08:50:00 7.6 C 7.01 g/m*3 7.6 C 4.8 km/h
2698 30-12-2018 08:55:00 7.6 C 7.01 g/m*3 7.6 C 4.8 km/h
2699 30-12-2018 09:00:00 7.6 C 7.01 g/m*3 7.6 C 4.8 km/h
2700 30-12-2018 09:05:00 7.6 C 7.01 g/m*3 7.6 C 4.8 km/h
Sensor: Nr:Datum:Temp:Abs-Feuchte:Windchill:Wind:
Aussen-T/F 2701 30-12-2018 09:10:00 7.6 C 7.01 g/m*3 7.6 C 4.8 km/h
2702 30-12-2018 09:15:00 7.6 C 7.01 g/m*3 7.6 C 3.2 km/h
2703 30-12-2018 09:20:00 7.6 C 7.01 g/m*3 7.6 C 0 km/h
2704 30-12-2018 09:25:00 7.6 C 7.01 g/m*3 6.16 C 8.1 km/h
2705 30-12-2018 09:30:00 7.6 C 7.01 g/m*3 6.6 C 6.4 km/h
2706 30-12-2018 09:35:00 7.6 C 7.01 g/m*3 7.6 C 4.8 km/h
2707 30-12-2018 09:40:00 7.6 C 7.01 g/m*3 6.6 C 6.4 km/h
2708 30-12-2018 09:45:00 7.6 C 7.01 g/m*3 7.6 C 3.2 km/h
2709 30-12-2018 09:50:00 7.6 C 7.01 g/m*3 7.6 C 4.8 km/h
2710 30-12-2018 09:55:00 7.6 C 7.01 g/m*3 7.6 C 0 km/h
2711 30-12-2018 10:00:00 7.6 C 7.01 g/m*3 7.6 C 3.2 km/h
2712 30-12-2018 10:05:00 7.6 C 7.09 g/m*3 6.6 C 6.4 km/h
2713 30-12-2018 10:10:00 7.5 C 7.04 g/m*3 7.5 C 4.8 km/h
2714 30-12-2018 10:15:00 7.5 C 7.04 g/m*3 7.5 C 4.8 km/h
2715 30-12-2018 10:20:00 7.5 C 7.04 g/m*3 7.5 C 3.2 km/h
2716 30-12-2018 10:25:00 7.4 C 7.08 g/m*3 7.4 C 4.8 km/h
2717 30-12-2018 10:30:00 7.4 C 7.08 g/m*3 7.4 C 3.2 km/h
2718 30-12-2018 10:35:00 7.4 C 7.08 g/m*3 7.4 C 4.8 km/h
2719 30-12-2018 10:40:00 7.4 C 7.08 g/m*3 7.4 C 3.2 km/h
2720 30-12-2018 10:45:00 7.4 C 7.08 g/m*3 7.4 C 4.8 km/h
2721 30-12-2018 10:50:00 7.4 C 7.16 g/m*3 7.4 C 4.8 km/h
2722 30-12-2018 10:55:00 7.4 C 7.16 g/m*3 7.4 C 4.8 km/h
2723 30-12-2018 11:00:00 7.4 C 7.16 g/m*3 7.4 C 4.8 km/h
2724 30-12-2018 11:05:00 7.4 C 7.16 g/m*3 7.4 C 3.2 km/h
2725 30-12-2018 11:10:00 7.5 C 7.2 g/m*3 7.5 C 4.8 km/h
Sensor: Nr:Datum:Temp:Abs-Feuchte:Windchill:Wind:
Aussen-T/F 2726 30-12-2018 11:15:00 7.6 C 7.17 g/m*3 7.6 C 4.8 km/h
2727 30-12-2018 11:20:00 7.6 C 7.17 g/m*3 7.6 C 3.2 km/h
2728 30-12-2018 11:25:00 7.7 C 7.14 g/m*3 6.28 C 8.1 km/h
2729 30-12-2018 11:30:00 7.7 C 7.14 g/m*3 7.7 C 4.8 km/h
2730 30-12-2018 11:35:00 7.8 C 7.1 g/m*3 6.4 C 8.1 km/h
2731 30-12-2018 11:40:00 7.8 C 7.1 g/m*3 7.8 C 4.8 km/h
2732 30-12-2018 11:45:00 7.8 C 7.1 g/m*3 7.8 C 3.2 km/h
2733 30-12-2018 11:50:00 7.9 C 7.15 g/m*3 6.94 C 6.4 km/h
2734 30-12-2018 11:55:00 7.9 C 7.06 g/m*3 7.9 C 4.8 km/h
2735 30-12-2018 12:00:00 8.1 C 7.16 g/m*3 8.1 C 4.8 km/h
2736 30-12-2018 12:05:00 8.1 C 7.16 g/m*3 8.1 C 3.2 km/h
2737 30-12-2018 12:10:00 8.2 C 7.12 g/m*3 7.29 C 6.4 km/h
2738 30-12-2018 12:15:00 8.2 C 7.12 g/m*3 8.2 C 3.2 km/h
2739 30-12-2018 12:20:00 8.2 C 7.03 g/m*3 8.2 C 4.8 km/h
2740 30-12-2018 12:25:00 8.3 C 7.08 g/m*3 8.3 C 3.2 km/h
2741 30-12-2018 12:30:00 8.3 C 7.08 g/m*3 7.41 C 6.4 km/h
2742 30-12-2018 12:35:00 8.3 C 7.08 g/m*3 8.3 C 4.8 km/h
2743 30-12-2018 12:40:00 8.3 C 7 g/m*3 8.3 C 4.8 km/h
2744 30-12-2018 12:45:00 8.3 C 7 g/m*3 8.3 C 4.8 km/h
2745 30-12-2018 12:50:00 8.4 C 7.04 g/m*3 8.4 C 4.8 km/h
2746 30-12-2018 12:55:00 8.4 C 7.04 g/m*3 8.4 C 4.8 km/h
2747 30-12-2018 13:00:00 8.4 C 6.96 g/m*3 8.4 C 3.2 km/h
2748 30-12-2018 13:05:00 8.5 C 7.09 g/m*3 8.5 C 4.8 km/h
2749 30-12-2018 13:10:00 8.5 C 7 g/m*3 8.5 C 3.2 km/h
2750 30-12-2018 13:15:00 8.5 C 7 g/m*3 8.5 C 4.8 km/h
Sensor: Nr:Datum:Temp:Abs-Feuchte:Windchill:Wind:
Aussen-T/F 2751 30-12-2018 13:20:00 8.5 C 7 g/m*3 8.5 C 1.6 km/h
2752 30-12-2018 13:25:00 8.5 C 7 g/m*3 8.5 C 1.6 km/h
2753 30-12-2018 13:30:00 8.5 C 7.09 g/m*3 8.5 C 1.6 km/h
2754 30-12-2018 13:35:00 8.5 C 7.09 g/m*3 8.5 C 4.8 km/h
2755 30-12-2018 13:40:00 8.4 C 6.96 g/m*3 8.4 C 4.8 km/h
2756 30-12-2018 13:45:00 8.4 C 6.96 g/m*3 8.4 C 0 km/h
2757 30-12-2018 13:50:00 8.4 C 6.96 g/m*3 8.4 C 0 km/h
2758 30-12-2018 13:55:00 8.4 C 7.04 g/m*3 8.4 C 0 km/h
2759 30-12-2018 14:00:00 8.4 C 6.96 g/m*3 8.4 C 4.8 km/h
2760 30-12-2018 14:05:00 8.4 C 7.04 g/m*3 8.4 C 4.8 km/h
2761 30-12-2018 14:10:00 8.4 C 6.96 g/m*3 7.52 C 6.4 km/h
2762 30-12-2018 14:15:00 8.4 C 6.96 g/m*3 8.4 C 4.8 km/h
2763 30-12-2018 14:20:00 8.4 C 6.96 g/m*3 8.4 C 4.8 km/h
2764 30-12-2018 14:25:00 8.4 C 7.04 g/m*3 7.11 C 8.1 km/h
2765 30-12-2018 14:30:00 8.4 C 6.96 g/m*3 8.4 C 1.6 km/h
2766 30-12-2018 14:35:00 8.4 C 7.04 g/m*3 8.4 C 1.6 km/h
2767 30-12-2018 14:40:00 8.3 C 6.91 g/m*3 7.41 C 6.4 km/h
2768 30-12-2018 14:45:00 8.3 C 6.91 g/m*3 8.3 C 3.2 km/h
2769 30-12-2018 14:50:00 8.3 C 6.91 g/m*3 8.3 C 4.8 km/h
2770 30-12-2018 14:55:00 8.4 C 6.96 g/m*3 8.4 C 0 km/h
2771 30-12-2018 15:00:00 8.4 C 7.04 g/m*3 8.4 C 1.6 km/h
2772 30-12-2018 15:05:00 8.3 C 7 g/m*3 8.3 C 3.2 km/h
2773 30-12-2018 15:10:00 8.3 C 7.08 g/m*3 8.3 C 3.2 km/h
2774 30-12-2018 15:15:00 8.3 C 7.08 g/m*3 8.3 C 1.6 km/h
2775 30-12-2018 15:20:00 8.2 C 7.03 g/m*3 8.2 C 4.8 km/h
Sensor: Nr:Datum:Temp:Abs-Feuchte:Windchill:Wind:
Aussen-T/F 2776 30-12-2018 15:25:00 8.2 C 7.03 g/m*3 8.2 C 1.6 km/h
2777 30-12-2018 15:30:00 8.1 C 6.99 g/m*3 8.1 C 1.6 km/h
2778 30-12-2018 15:35:00 8.1 C 6.99 g/m*3 8.1 C 3.2 km/h
2779 30-12-2018 15:40:00 8.1 C 7.07 g/m*3 8.1 C 1.6 km/h
2780 30-12-2018 15:45:00 8.1 C 6.99 g/m*3 8.1 C 1.6 km/h
2781 30-12-2018 15:50:00 8 C 7.03 g/m*3 8 C 0 km/h
2782 30-12-2018 15:55:00 7.9 C 6.98 g/m*3 7.9 C 3.2 km/h
2783 30-12-2018 16:00:00 7.9 C 6.98 g/m*3 7.9 C 3.2 km/h
2784 30-12-2018 16:05:00 7.9 C 6.98 g/m*3 7.9 C 3.2 km/h
2785 30-12-2018 16:10:00 7.9 C 7.06 g/m*3 7.9 C 3.2 km/h
2786 30-12-2018 16:15:00 7.8 C 7.02 g/m*3 6.4 C 8.1 km/h
2787 30-12-2018 16:20:00 7.8 C 7.02 g/m*3 7.8 C 3.2 km/h
2788 30-12-2018 16:25:00 7.7 C 7.05 g/m*3 7.7 C 4.8 km/h
2789 30-12-2018 16:30:00 7.7 C 7.05 g/m*3 7.7 C 1.6 km/h
2790 30-12-2018 16:35:00 7.6 C 7.01 g/m*3 6.6 C 6.4 km/h
2791 30-12-2018 16:40:00 7.5 C 6.96 g/m*3 7.5 C 3.2 km/h
2792 30-12-2018 16:45:00 7.4 C 7 g/m*3 7.4 C 1.6 km/h
2793 30-12-2018 16:50:00 7.4 C 7 g/m*3 7.4 C 3.2 km/h
2794 30-12-2018 16:55:00 7.3 C 6.95 g/m*3 7.3 C 3.2 km/h
2795 30-12-2018 17:00:00 7.3 C 7.03 g/m*3 7.3 C 4.8 km/h
2796 30-12-2018 17:05:00 7.2 C 6.99 g/m*3 7.2 C 4.8 km/h
2797 30-12-2018 17:10:00 7.2 C 6.99 g/m*3 7.2 C 3.2 km/h
2798 30-12-2018 17:15:00 7.2 C 6.99 g/m*3 7.2 C 4.8 km/h
2799 30-12-2018 17:20:00 7.1 C 6.94 g/m*3 6.02 C 6.4 km/h
2800 30-12-2018 17:25:00 7.1 C 6.94 g/m*3 7.1 C 4.8 km/h
Sensor: Nr:Datum:Temp:Abs-Feuchte:Windchill:Wind:
Aussen-T/F 2801 30-12-2018 17:30:00 7.1 C 7.02 g/m*3 6.02 C 6.4 km/h
2802 30-12-2018 17:35:00 7.1 C 7.02 g/m*3 7.1 C 3.2 km/h
2803 30-12-2018 17:40:00 7.1 C 7.02 g/m*3 7.1 C 4.8 km/h
2804 30-12-2018 17:45:00 7.1 C 7.02 g/m*3 7.1 C 0 km/h
2805 30-12-2018 17:50:00 7.1 C 7.02 g/m*3 7.1 C 1.6 km/h
2806 30-12-2018 17:55:00 7 C 6.97 g/m*3 7 C 4.8 km/h
2807 30-12-2018 18:00:00 7 C 6.97 g/m*3 7 C 4.8 km/h
2808 30-12-2018 18:05:00 7 C 6.97 g/m*3 5.9 C 6.4 km/h
2809 30-12-2018 18:10:00 7 C 6.97 g/m*3 7 C 3.2 km/h
2810 30-12-2018 18:15:00 7 C 6.97 g/m*3 7 C 4.8 km/h
2811 30-12-2018 18:20:00 7 C 6.97 g/m*3 7 C 1.6 km/h
2812 30-12-2018 18:25:00 7.1 C 7.02 g/m*3 7.1 C 3.2 km/h
2813 30-12-2018 18:30:00 7.1 C 7.02 g/m*3 7.1 C 3.2 km/h
2814 30-12-2018 18:35:00 7.1 C 7.02 g/m*3 6.02 C 6.4 km/h
2815 30-12-2018 18:40:00 7.1 C 7.02 g/m*3 6.02 C 6.4 km/h
2816 30-12-2018 18:45:00 7.1 C 7.02 g/m*3 7.1 C 4.8 km/h
2817 30-12-2018 18:50:00 7.1 C 7.02 g/m*3 7.1 C 4.8 km/h
2818 30-12-2018 18:55:00 7.1 C 7.02 g/m*3 6.02 C 6.4 km/h
2819 30-12-2018 19:00:00 7.1 C 7.02 g/m*3 5.58 C 8.1 km/h
2820 30-12-2018 19:05:00 7.1 C 7.02 g/m*3 7.1 C 4.8 km/h
2821 30-12-2018 19:10:00 7.1 C 7.02 g/m*3 7.1 C 1.6 km/h
2822 30-12-2018 19:15:00 7.1 C 7.02 g/m*3 7.1 C 4.8 km/h
2823 30-12-2018 19:20:00 7.1 C 7.02 g/m*3 7.1 C 3.2 km/h
2824 30-12-2018 19:25:00 7.1 C 7.02 g/m*3 7.1 C 1.6 km/h
2825 30-12-2018 19:30:00 7.1 C 7.02 g/m*3 7.1 C 3.2 km/h
Sensor: Nr:Datum:Temp:Abs-Feuchte:Windchill:Wind:
Aussen-T/F 2826 30-12-2018 19:35:00 7.1 C 7.1 g/m*3 7.1 C 4.8 km/h
2827 30-12-2018 19:40:00 7.1 C 7.1 g/m*3 7.1 C 4.8 km/h
2828 30-12-2018 19:45:00 7 C 7.05 g/m*3 7 C 4.8 km/h
2829 30-12-2018 19:50:00 7 C 7.13 g/m*3 7 C 4.8 km/h
2830 30-12-2018 19:55:00 6.9 C 7.08 g/m*3 5.34 C 8.1 km/h
2831 30-12-2018 20:00:00 6.9 C 7.08 g/m*3 5.34 C 8.1 km/h
2832 30-12-2018 20:05:00 6.8 C 7.11 g/m*3 4.56 C 11.3 km/h
2833 30-12-2018 20:10:00 6.8 C 7.11 g/m*3 6.8 C 3.2 km/h
2834 30-12-2018 20:15:00 6.7 C 7.07 g/m*3 5.56 C 6.4 km/h
2835 30-12-2018 20:20:00 6.7 C 7.07 g/m*3 5.11 C 8.1 km/h
2836 30-12-2018 20:25:00 6.7 C 7.14 g/m*3 4.75 C 9.7 km/h
2837 30-12-2018 20:30:00 6.6 C 7.1 g/m*3 6.6 C 4.8 km/h
2838 30-12-2018 20:35:00 6.6 C 7.1 g/m*3 5.44 C 6.4 km/h
2839 30-12-2018 20:40:00 6.6 C 7.1 g/m*3 5.44 C 6.4 km/h
2840 30-12-2018 20:45:00 6.6 C 7.1 g/m*3 4.32 C 11.3 km/h
2841 30-12-2018 20:50:00 6.6 C 7.1 g/m*3 4.63 C 9.7 km/h
2842 30-12-2018 20:55:00 6.5 C 7.05 g/m*3 4.87 C 8.1 km/h
2843 30-12-2018 21:00:00 6.5 C 7.05 g/m*3 4.87 C 8.1 km/h
2844 30-12-2018 21:05:00 6.5 C 7.12 g/m*3 4.51 C 9.7 km/h
2845 30-12-2018 21:10:00 6.5 C 7.12 g/m*3 6.5 C 4.8 km/h
2846 30-12-2018 21:15:00 6.5 C 7.12 g/m*3 6.5 C 3.2 km/h
2847 30-12-2018 21:20:00 6.5 C 7.12 g/m*3 5.33 C 6.4 km/h
2848 30-12-2018 21:25:00 6.4 C 7.08 g/m*3 6.4 C 3.2 km/h
2849 30-12-2018 21:30:00 6.4 C 7.08 g/m*3 5.21 C 6.4 km/h
2850 30-12-2018 21:35:00 6.4 C 7.08 g/m*3 5.21 C 6.4 km/h
Sensor: Nr:Datum:Temp:Abs-Feuchte:Windchill:Wind:
Aussen-T/F 2851 30-12-2018 21:40:00 6.4 C 7.08 g/m*3 6.4 C 1.6 km/h
2852 30-12-2018 21:45:00 6.4 C 7.08 g/m*3 6.4 C 3.2 km/h
2853 30-12-2018 21:50:00 6.4 C 7.08 g/m*3 6.4 C 4.8 km/h
2854 30-12-2018 21:55:00 6.4 C 7.08 g/m*3 4.75 C 8.1 km/h
2855 30-12-2018 22:00:00 6.4 C 7.08 g/m*3 5.21 C 6.4 km/h
2856 30-12-2018 22:05:00 6.3 C 7.03 g/m*3 5.1 C 6.4 km/h
2857 30-12-2018 22:10:00 6.3 C 7.03 g/m*3 5.1 C 6.4 km/h
2858 30-12-2018 22:15:00 6.3 C 7.03 g/m*3 4.64 C 8.1 km/h
2859 30-12-2018 22:20:00 6.3 C 7.03 g/m*3 5.1 C 6.4 km/h
2860 30-12-2018 22:25:00 6.3 C 7.03 g/m*3 5.1 C 6.4 km/h
2861 30-12-2018 22:30:00 6.3 C 7.03 g/m*3 5.1 C 6.4 km/h
2862 30-12-2018 22:35:00 6.3 C 7.03 g/m*3 5.1 C 6.4 km/h
2863 30-12-2018 22:40:00 6.3 C 7.03 g/m*3 5.1 C 6.4 km/h
2864 30-12-2018 22:45:00 6.3 C 7.03 g/m*3 4.64 C 8.1 km/h
2865 30-12-2018 22:50:00 6.3 C 7.11 g/m*3 5.1 C 6.4 km/h
2866 30-12-2018 22:55:00 6.3 C 7.11 g/m*3 5.1 C 6.4 km/h
2867 30-12-2018 23:00:00 6.3 C 7.11 g/m*3 6.3 C 3.2 km/h
2868 30-12-2018 23:05:00 6.3 C 7.11 g/m*3 5.1 C 6.4 km/h
2869 30-12-2018 23:10:00 6.3 C 7.11 g/m*3 5.1 C 6.4 km/h
2870 30-12-2018 23:15:00 6.3 C 7.11 g/m*3 5.1 C 6.4 km/h
2871 30-12-2018 23:20:00 6.3 C 7.11 g/m*3 5.1 C 6.4 km/h
2872 30-12-2018 23:25:00 6.3 C 7.11 g/m*3 4.64 C 8.1 km/h
2873 30-12-2018 23:30:00 6.3 C 7.11 g/m*3 5.1 C 6.4 km/h
2874 30-12-2018 23:35:00 6.3 C 7.11 g/m*3 5.1 C 6.4 km/h
2875 30-12-2018 23:40:00 6.4 C 7.15 g/m*3 5.21 C 6.4 km/h
Sensor: Nr:Datum:Temp:Abs-Feuchte:Windchill:Wind:
Aussen-T/F 2876 30-12-2018 23:45:00 6.4 C 7.15 g/m*3 6.4 C 4.8 km/h
2877 30-12-2018 23:50:00 6.4 C 7.15 g/m*3 6.4 C 4.8 km/h
2878 30-12-2018 23:55:00 6.4 C 7.15 g/m*3 6.4 C 4.8 km/h
2879 31-12-2018 00:00:00 6.4 C 7.15 g/m*3 6.4 C 4.8 km/h
2880 31-12-2018 00:05:00 6.4 C 7.15 g/m*3 4.39 C 9.7 km/h
2881 31-12-2018 00:10:00 6.4 C 7.15 g/m*3 5.21 C 6.4 km/h
2882 31-12-2018 00:15:00 6.4 C 7.15 g/m*3 5.21 C 6.4 km/h
2883 31-12-2018 00:20:00 6.4 C 7.15 g/m*3 4.08 C 11.3 km/h
2884 31-12-2018 00:25:00 6.4 C 7.15 g/m*3 5.21 C 6.4 km/h
2885 31-12-2018 00:30:00 6.4 C 7.15 g/m*3 4.39 C 9.7 km/h
2886 31-12-2018 00:35:00 6.4 C 7.15 g/m*3 4.39 C 9.7 km/h
2887 31-12-2018 00:40:00 6.4 C 7.15 g/m*3 4.75 C 8.1 km/h
2888 31-12-2018 00:45:00 6.4 C 7.15 g/m*3 4.39 C 9.7 km/h
2889 31-12-2018 00:50:00 6.4 C 7.15 g/m*3 4.75 C 8.1 km/h
2890 31-12-2018 00:55:00 6.4 C 7.15 g/m*3 4.75 C 8.1 km/h
2891 31-12-2018 01:00:00 6.4 C 7.15 g/m*3 4.75 C 8.1 km/h
2892 31-12-2018 01:05:00 6.4 C 7.15 g/m*3 5.21 C 6.4 km/h
2893 31-12-2018 01:10:00 6.5 C 7.2 g/m*3 4.51 C 9.7 km/h
2894 31-12-2018 01:15:00 6.5 C 7.2 g/m*3 4.87 C 8.1 km/h
2895 31-12-2018 01:20:00 6.5 C 7.2 g/m*3 5.33 C 6.4 km/h
2896 31-12-2018 01:25:00 6.6 C 7.25 g/m*3 5.44 C 6.4 km/h
2897 31-12-2018 01:30:00 6.6 C 7.25 g/m*3 5.44 C 6.4 km/h
2898 31-12-2018 01:35:00 6.6 C 7.25 g/m*3 4.99 C 8.1 km/h
2899 31-12-2018 01:40:00 6.6 C 7.25 g/m*3 5.44 C 6.4 km/h
2900 31-12-2018 01:45:00 6.6 C 7.25 g/m*3 6.6 C 4.8 km/h
Sensor: Nr:Datum:Temp:Abs-Feuchte:Windchill:Wind:
Aussen-T/F 2901 31-12-2018 01:50:00 6.6 C 7.25 g/m*3 5.44 C 6.4 km/h
2902 31-12-2018 01:55:00 6.6 C 7.25 g/m*3 6.6 C 3.2 km/h
2903 31-12-2018 02:00:00 6.6 C 7.25 g/m*3 6.6 C 4.8 km/h
2904 31-12-2018 02:05:00 6.6 C 7.25 g/m*3 5.44 C 6.4 km/h
2905 31-12-2018 02:10:00 6.6 C 7.25 g/m*3 6.6 C 4.8 km/h
2906 31-12-2018 02:15:00 6.6 C 7.25 g/m*3 5.44 C 6.4 km/h
2907 31-12-2018 02:20:00 6.6 C 7.25 g/m*3 4.63 C 9.7 km/h
2908 31-12-2018 02:25:00 6.6 C 7.25 g/m*3 5.44 C 6.4 km/h
2909 31-12-2018 02:30:00 6.6 C 7.25 g/m*3 6.6 C 4.8 km/h
2910 31-12-2018 02:35:00 6.6 C 7.25 g/m*3 6.6 C 4.8 km/h
2911 31-12-2018 02:40:00 6.6 C 7.25 g/m*3 6.6 C 1.6 km/h
2912 31-12-2018 02:45:00 6.6 C 7.25 g/m*3 6.6 C 4.8 km/h
2913 31-12-2018 02:50:00 6.6 C 7.25 g/m*3 6.6 C 4.8 km/h
2914 31-12-2018 02:55:00 6.6 C 7.25 g/m*3 5.44 C 6.4 km/h
2915 31-12-2018 03:00:00 6.6 C 7.25 g/m*3 4.99 C 8.1 km/h
2916 31-12-2018 03:05:00 6.7 C 7.29 g/m*3 5.56 C 6.4 km/h
2917 31-12-2018 03:10:00 6.7 C 7.29 g/m*3 5.11 C 8.1 km/h
2918 31-12-2018 03:15:00 6.7 C 7.29 g/m*3 5.11 C 8.1 km/h
2919 31-12-2018 03:20:00 6.7 C 7.29 g/m*3 5.56 C 6.4 km/h
2920 31-12-2018 03:25:00 6.7 C 7.29 g/m*3 6.7 C 4.8 km/h
2921 31-12-2018 03:30:00 6.7 C 7.29 g/m*3 6.7 C 3.2 km/h
2922 31-12-2018 03:35:00 6.7 C 7.29 g/m*3 6.7 C 1.6 km/h
2923 31-12-2018 03:40:00 6.7 C 7.29 g/m*3 6.7 C 4.8 km/h
2924 31-12-2018 03:45:00 6.7 C 7.29 g/m*3 6.7 C 0 km/h
2925 31-12-2018 03:50:00 6.7 C 7.29 g/m*3 6.7 C 4.8 km/h
Sensor: Nr:Datum:Temp:Abs-Feuchte:Windchill:Wind:
Aussen-T/F 2926 31-12-2018 03:55:00 6.7 C 7.29 g/m*3 6.7 C 0 km/h
2927 31-12-2018 04:00:00 6.7 C 7.29 g/m*3 6.7 C 4.8 km/h
2928 31-12-2018 04:05:00 6.7 C 7.29 g/m*3 6.7 C 1.6 km/h
2929 31-12-2018 04:10:00 6.8 C 7.34 g/m*3 5.22 C 8.1 km/h
2930 31-12-2018 04:15:00 6.8 C 7.34 g/m*3 5.22 C 8.1 km/h
2931 31-12-2018 04:20:00 6.8 C 7.34 g/m*3 5.22 C 8.1 km/h
2932 31-12-2018 04:25:00 6.8 C 7.34 g/m*3 6.8 C 3.2 km/h
2933 31-12-2018 04:30:00 6.8 C 7.34 g/m*3 6.8 C 4.8 km/h
2934 31-12-2018 04:35:00 6.8 C 7.34 g/m*3 6.8 C 3.2 km/h
2935 31-12-2018 04:40:00 6.8 C 7.34 g/m*3 6.8 C 4.8 km/h
2936 31-12-2018 04:45:00 6.8 C 7.34 g/m*3 6.8 C 4.8 km/h
2937 31-12-2018 04:50:00 6.8 C 7.34 g/m*3 6.8 C 4.8 km/h
2938 31-12-2018 04:55:00 6.8 C 7.34 g/m*3 5.67 C 6.4 km/h
2939 31-12-2018 05:00:00 6.8 C 7.34 g/m*3 5.67 C 6.4 km/h
2940 31-12-2018 05:05:00 6.8 C 7.34 g/m*3 5.22 C 8.1 km/h
2941 31-12-2018 05:10:00 6.8 C 7.34 g/m*3 6.8 C 4.8 km/h
2942 31-12-2018 05:15:00 6.8 C 7.34 g/m*3 6.8 C 4.8 km/h
2943 31-12-2018 05:20:00 6.8 C 7.34 g/m*3 6.8 C 1.6 km/h
2944 31-12-2018 05:25:00 6.8 C 7.34 g/m*3 5.67 C 6.4 km/h
2945 31-12-2018 05:30:00 6.8 C 7.34 g/m*3 6.8 C 3.2 km/h
2946 31-12-2018 05:35:00 6.8 C 7.34 g/m*3 6.8 C 3.2 km/h
2947 31-12-2018 05:40:00 6.8 C 7.34 g/m*3 6.8 C 4.8 km/h
2948 31-12-2018 05:45:00 6.8 C 7.34 g/m*3 5.67 C 6.4 km/h
2949 31-12-2018 05:50:00 6.8 C 7.34 g/m*3 6.8 C 4.8 km/h
2950 31-12-2018 05:55:00 6.8 C 7.34 g/m*3 6.8 C 0 km/h
Sensor: Nr:Datum:Temp:Abs-Feuchte:Windchill:Wind:
Aussen-T/F 2951 31-12-2018 06:00:00 6.8 C 7.34 g/m*3 6.8 C 0 km/h
2952 31-12-2018 06:05:00 6.8 C 7.34 g/m*3 6.8 C 0 km/h
2953 31-12-2018 06:10:00 6.8 C 7.34 g/m*3 6.8 C 1.6 km/h
2954 31-12-2018 06:15:00 6.8 C 7.42 g/m*3 6.8 C 1.6 km/h
2955 31-12-2018 06:20:00 6.8 C 7.42 g/m*3 6.8 C 3.2 km/h
2956 31-12-2018 06:25:00 6.8 C 7.42 g/m*3 6.8 C 3.2 km/h
2957 31-12-2018 06:30:00 6.8 C 7.42 g/m*3 6.8 C 4.8 km/h
2958 31-12-2018 06:35:00 6.8 C 7.42 g/m*3 6.8 C 0 km/h
2959 31-12-2018 06:40:00 6.7 C 7.37 g/m*3 6.7 C 4.8 km/h
2960 31-12-2018 06:45:00 6.7 C 7.37 g/m*3 5.56 C 6.4 km/h
2961 31-12-2018 06:50:00 6.7 C 7.37 g/m*3 6.7 C 3.2 km/h
2962 31-12-2018 06:55:00 6.8 C 7.42 g/m*3 6.8 C 1.6 km/h
2963 31-12-2018 07:00:00 6.8 C 7.42 g/m*3 6.8 C 1.6 km/h
2964 31-12-2018 07:05:00 6.8 C 7.42 g/m*3 6.8 C 1.6 km/h
2965 31-12-2018 07:10:00 6.9 C 7.47 g/m*3 6.9 C 3.2 km/h
2966 31-12-2018 07:15:00 6.9 C 7.47 g/m*3 6.9 C 1.6 km/h
2967 31-12-2018 07:20:00 6.9 C 7.47 g/m*3 6.9 C 0 km/h
2968 31-12-2018 07:25:00 6.9 C 7.47 g/m*3 6.9 C 4.8 km/h
2969 31-12-2018 07:30:00 6.9 C 7.47 g/m*3 6.9 C 4.8 km/h
2970 31-12-2018 07:35:00 6.9 C 7.47 g/m*3 5.79 C 6.4 km/h
2971 31-12-2018 07:40:00 6.9 C 7.47 g/m*3 5.79 C 6.4 km/h
2972 31-12-2018 07:45:00 6.9 C 7.47 g/m*3 6.9 C 3.2 km/h
2973 31-12-2018 07:50:00 6.9 C 7.47 g/m*3 6.9 C 3.2 km/h
2974 31-12-2018 07:55:00 6.9 C 7.47 g/m*3 6.9 C 1.6 km/h
2975 31-12-2018 08:00:00 6.9 C 7.47 g/m*3 6.9 C 0 km/h
Sensor: Nr:Datum:Temp:Abs-Feuchte:Windchill:Wind:
Aussen-T/F 2976 31-12-2018 08:05:00 6.9 C 7.47 g/m*3 6.9 C 1.6 km/h
2977 31-12-2018 08:10:00 6.9 C 7.47 g/m*3 6.9 C 3.2 km/h
2978 31-12-2018 08:15:00 6.9 C 7.47 g/m*3 6.9 C 0 km/h
2979 31-12-2018 08:20:00 6.9 C 7.47 g/m*3 6.9 C 3.2 km/h
2980 31-12-2018 08:25:00 6.9 C 7.47 g/m*3 6.9 C 0 km/h
2981 31-12-2018 08:30:00 6.9 C 7.47 g/m*3 6.9 C 0 km/h
2982 31-12-2018 08:35:00 6.9 C 7.47 g/m*3 6.9 C 0 km/h
2983 31-12-2018 08:40:00 6.9 C 7.47 g/m*3 6.9 C 0 km/h
2984 31-12-2018 08:45:00 7 C 7.52 g/m*3 7 C 3.2 km/h
2985 31-12-2018 08:50:00 7 C 7.52 g/m*3 7 C 0 km/h
2986 31-12-2018 08:55:00 7 C 7.52 g/m*3 7 C 0 km/h
2987 31-12-2018 09:00:00 7 C 7.52 g/m*3 7 C 3.2 km/h
2988 31-12-2018 09:05:00 7 C 7.52 g/m*3 7 C 3.2 km/h
2989 31-12-2018 09:10:00 7 C 7.52 g/m*3 7 C 1.6 km/h
2990 31-12-2018 09:15:00 7 C 7.52 g/m*3 7 C 4.8 km/h
2991 31-12-2018 09:20:00 7 C 7.52 g/m*3 7 C 3.2 km/h
2992 31-12-2018 09:25:00 7.1 C 7.57 g/m*3 7.1 C 3.2 km/h
2993 31-12-2018 09:30:00 7.1 C 7.57 g/m*3 7.1 C 0 km/h
2994 31-12-2018 09:35:00 7.1 C 7.57 g/m*3 7.1 C 1.6 km/h
2995 31-12-2018 09:40:00 7.1 C 7.57 g/m*3 7.1 C 1.6 km/h
2996 31-12-2018 09:45:00 7.1 C 7.57 g/m*3 7.1 C 1.6 km/h
2997 31-12-2018 09:50:00 7.2 C 7.61 g/m*3 7.2 C 3.2 km/h
2998 31-12-2018 09:55:00 7.2 C 7.61 g/m*3 7.2 C 1.6 km/h
2999 31-12-2018 10:00:00 7.3 C 7.66 g/m*3 7.3 C 1.6 km/h
3000 31-12-2018 10:05:00 7.3 C 7.66 g/m*3 6.25 C 6.4 km/h
Sensor: Nr:Datum:Temp:Abs-Feuchte:Windchill:Wind:
Aussen-T/F 3001 31-12-2018 10:10:00 7.3 C 7.66 g/m*3 7.3 C 4.8 km/h
3002 31-12-2018 10:15:00 7.3 C 7.66 g/m*3 7.3 C 4.8 km/h
3003 31-12-2018 10:20:00 7.3 C 7.66 g/m*3 7.3 C 4.8 km/h
3004 31-12-2018 10:25:00 7.3 C 7.66 g/m*3 5.47 C 9.7 km/h
3005 31-12-2018 10:30:00 7.3 C 7.66 g/m*3 5.81 C 8.1 km/h
3006 31-12-2018 10:35:00 7.3 C 7.66 g/m*3 7.3 C 3.2 km/h
3007 31-12-2018 10:40:00 7.4 C 7.71 g/m*3 6.37 C 6.4 km/h
3008 31-12-2018 10:45:00 7.4 C 7.71 g/m*3 7.4 C 0 km/h
3009 31-12-2018 10:50:00 7.5 C 7.76 g/m*3 7.5 C 1.6 km/h
3010 31-12-2018 10:55:00 7.6 C 7.81 g/m*3 6.6 C 6.4 km/h
3011 31-12-2018 11:00:00 7.7 C 7.87 g/m*3 6.71 C 6.4 km/h
3012 31-12-2018 11:05:00 7.7 C 7.87 g/m*3 7.7 C 4.8 km/h
3013 31-12-2018 11:10:00 7.8 C 7.92 g/m*3 7.8 C 4.8 km/h
3014 31-12-2018 11:15:00 7.8 C 7.92 g/m*3 6.4 C 8.1 km/h
3015 31-12-2018 11:20:00 7.8 C 7.92 g/m*3 7.8 C 0 km/h
3016 31-12-2018 11:25:00 7.9 C 7.97 g/m*3 7.9 C 4.8 km/h
3017 31-12-2018 11:30:00 7.9 C 7.97 g/m*3 7.9 C 3.2 km/h
3018 31-12-2018 11:35:00 8 C 8.02 g/m*3 8 C 1.6 km/h
3019 31-12-2018 11:40:00 8.1 C 8.07 g/m*3 8.1 C 1.6 km/h
3020 31-12-2018 11:45:00 8.1 C 8.07 g/m*3 8.1 C 3.2 km/h
3021 31-12-2018 11:50:00 8.1 C 8.07 g/m*3 8.1 C 3.2 km/h
3022 31-12-2018 11:55:00 8.2 C 8.12 g/m*3 8.2 C 3.2 km/h
3023 31-12-2018 12:00:00 8.2 C 8.12 g/m*3 8.2 C 4.8 km/h
3024 31-12-2018 12:05:00 8.3 C 8.18 g/m*3 8.3 C 3.2 km/h
3025 31-12-2018 12:10:00 8.4 C 8.23 g/m*3 8.4 C 3.2 km/h
Sensor: Nr:Datum:Temp:Abs-Feuchte:Windchill:Wind:
Aussen-T/F 3026 31-12-2018 12:15:00 8.4 C 8.23 g/m*3 8.4 C 4.8 km/h
3027 31-12-2018 12:20:00 8.4 C 8.23 g/m*3 8.4 C 3.2 km/h
3028 31-12-2018 12:25:00 8.5 C 8.28 g/m*3 8.5 C 1.6 km/h
3029 31-12-2018 12:30:00 8.4 C 8.14 g/m*3 7.52 C 6.4 km/h
3030 31-12-2018 12:35:00 8.4 C 8.14 g/m*3 8.4 C 3.2 km/h
3031 31-12-2018 12:40:00 8.5 C 8.2 g/m*3 8.5 C 3.2 km/h
3032 31-12-2018 12:45:00 8.6 C 8.25 g/m*3 8.6 C 3.2 km/h
3033 31-12-2018 12:50:00 8.6 C 8.25 g/m*3 8.6 C 4.8 km/h
3034 31-12-2018 12:55:00 8.6 C 8.25 g/m*3 8.6 C 4.8 km/h
3035 31-12-2018 13:00:00 8.6 C 8.25 g/m*3 8.6 C 4.8 km/h
3036 31-12-2018 13:05:00 8.6 C 8.25 g/m*3 8.6 C 3.2 km/h
3037 31-12-2018 13:10:00 8.6 C 8.25 g/m*3 8.6 C 3.2 km/h
3038 31-12-2018 13:15:00 8.7 C 8.3 g/m*3 8.7 C 4.8 km/h
3039 31-12-2018 13:20:00 8.7 C 8.3 g/m*3 8.7 C 1.6 km/h
3040 31-12-2018 13:25:00 8.7 C 8.3 g/m*3 8.7 C 3.2 km/h
3041 31-12-2018 13:30:00 8.7 C 8.3 g/m*3 8.7 C 4.8 km/h
3042 31-12-2018 13:35:00 8.7 C 8.3 g/m*3 8.7 C 4.8 km/h
3043 31-12-2018 13:40:00 8.7 C 8.3 g/m*3 8.7 C 3.2 km/h
3044 31-12-2018 13:45:00 8.7 C 8.3 g/m*3 8.7 C 4.8 km/h
3045 31-12-2018 13:50:00 8.7 C 8.3 g/m*3 8.7 C 1.6 km/h
3046 31-12-2018 13:55:00 8.8 C 8.36 g/m*3 8.8 C 1.6 km/h
3047 31-12-2018 14:00:00 8.8 C 8.36 g/m*3 8.8 C 0 km/h
3048 31-12-2018 14:05:00 8.8 C 8.36 g/m*3 8.8 C 1.6 km/h
3049 31-12-2018 14:10:00 8.9 C 8.41 g/m*3 8.9 C 3.2 km/h
3050 31-12-2018 14:15:00 8.9 C 8.41 g/m*3 8.9 C 4.8 km/h
Sensor: Nr:Datum:Temp:Abs-Feuchte:Windchill:Wind:
Aussen-T/F 3051 31-12-2018 14:20:00 8.9 C 8.41 g/m*3 8.9 C 4.8 km/h
3052 31-12-2018 14:25:00 8.9 C 8.41 g/m*3 8.9 C 0 km/h
3053 31-12-2018 14:30:00 8.9 C 8.41 g/m*3 8.9 C 1.6 km/h
3054 31-12-2018 14:35:00 8.9 C 8.41 g/m*3 8.9 C 0 km/h
3055 31-12-2018 14:40:00 8.9 C 8.41 g/m*3 8.9 C 0 km/h
3056 31-12-2018 14:45:00 8.9 C 8.41 g/m*3 8.9 C 0 km/h
3057 31-12-2018 14:50:00 8.9 C 8.41 g/m*3 8.9 C 0 km/h
3058 31-12-2018 14:55:00 8.9 C 8.41 g/m*3 8.9 C 0 km/h
3059 31-12-2018 15:00:00 8.9 C 8.41 g/m*3 8.9 C 0 km/h
3060 31-12-2018 15:05:00 9 C 8.46 g/m*3 9 C 0 km/h
3061 31-12-2018 15:10:00 9 C 8.46 g/m*3 9 C 1.6 km/h
3062 31-12-2018 15:15:00 9 C 8.46 g/m*3 9 C 0 km/h
3063 31-12-2018 15:20:00 9 C 8.46 g/m*3 9 C 3.2 km/h
3064 31-12-2018 15:25:00 9 C 8.46 g/m*3 9 C 1.6 km/h
3065 31-12-2018 15:30:00 9 C 8.46 g/m*3 9 C 0 km/h
3066 31-12-2018 15:35:00 9 C 8.46 g/m*3 9 C 0 km/h
3067 31-12-2018 15:40:00 8.9 C 8.41 g/m*3 8.9 C 0 km/h
3068 31-12-2018 15:45:00 8.9 C 8.41 g/m*3 8.9 C 1.6 km/h
3069 31-12-2018 15:50:00 8.9 C 8.41 g/m*3 8.9 C 3.2 km/h
3070 31-12-2018 15:55:00 8.9 C 8.41 g/m*3 8.9 C 4.8 km/h
3071 31-12-2018 16:00:00 8.9 C 8.41 g/m*3 8.9 C 1.6 km/h
3072 31-12-2018 16:05:00 8.9 C 8.41 g/m*3 8.9 C 1.6 km/h
3073 31-12-2018 16:10:00 8.9 C 8.41 g/m*3 8.9 C 4.8 km/h
3074 31-12-2018 16:15:00 8.9 C 8.41 g/m*3 8.9 C 0 km/h
3075 31-12-2018 16:20:00 8.9 C 8.41 g/m*3 8.9 C 0 km/h
Sensor: Nr:Datum:Temp:Abs-Feuchte:Windchill:Wind:
Aussen-T/F 3076 31-12-2018 16:25:00 8.8 C 8.36 g/m*3 8.8 C 1.6 km/h
3077 31-12-2018 16:30:00 8.8 C 8.36 g/m*3 8.8 C 0 km/h
3078 31-12-2018 16:35:00 8.8 C 8.36 g/m*3 8.8 C 0 km/h
3079 31-12-2018 16:40:00 8.8 C 8.36 g/m*3 8.8 C 0 km/h
3080 31-12-2018 16:45:00 8.7 C 8.3 g/m*3 8.7 C 0 km/h
3081 31-12-2018 16:50:00 8.7 C 8.3 g/m*3 8.7 C 0 km/h
3082 31-12-2018 16:55:00 8.7 C 8.3 g/m*3 8.7 C 0 km/h
3083 31-12-2018 17:00:00 8.7 C 8.3 g/m*3 8.7 C 0 km/h
3084 31-12-2018 17:05:00 8.6 C 8.25 g/m*3 8.6 C 0 km/h
3085 31-12-2018 17:10:00 8.6 C 8.25 g/m*3 8.6 C 1.6 km/h
3086 31-12-2018 17:15:00 8.5 C 8.2 g/m*3 8.5 C 0 km/h
3087 31-12-2018 17:20:00 8.5 C 8.2 g/m*3 8.5 C 0 km/h
3088 31-12-2018 17:25:00 8.4 C 8.14 g/m*3 8.4 C 0 km/h
3089 31-12-2018 17:30:00 8.4 C 8.14 g/m*3 8.4 C 0 km/h
3090 31-12-2018 17:35:00 8.4 C 8.14 g/m*3 8.4 C 0 km/h
3091 31-12-2018 17:40:00 8.3 C 8.09 g/m*3 8.3 C 0 km/h
3092 31-12-2018 17:45:00 8.3 C 8.09 g/m*3 8.3 C 1.6 km/h
3093 31-12-2018 17:50:00 8.3 C 8.09 g/m*3 8.3 C 0 km/h
3094 31-12-2018 17:55:00 8.3 C 8.09 g/m*3 8.3 C 0 km/h
3095 31-12-2018 18:00:00 8.3 C 8.09 g/m*3 8.3 C 0 km/h
3096 31-12-2018 18:05:00 8.3 C 8.09 g/m*3 8.3 C 0 km/h
3097 31-12-2018 18:10:00 8.3 C 8.09 g/m*3 8.3 C 0 km/h
3098 31-12-2018 18:15:00 8.4 C 8.14 g/m*3 8.4 C 1.6 km/h
3099 31-12-2018 18:20:00 8.4 C 8.14 g/m*3 8.4 C 0 km/h
3100 31-12-2018 18:25:00 8.3 C 8.09 g/m*3 8.3 C 0 km/h
Sensor: Nr:Datum:Temp:Abs-Feuchte:Windchill:Wind:
Aussen-T/F 3101 31-12-2018 18:30:00 8.3 C 8.09 g/m*3 8.3 C 0 km/h
3102 31-12-2018 18:35:00 8.3 C 8.09 g/m*3 8.3 C 0 km/h
3103 31-12-2018 18:40:00 8.3 C 8.09 g/m*3 8.3 C 0 km/h
3104 31-12-2018 18:45:00 8.3 C 8.09 g/m*3 8.3 C 0 km/h
3105 31-12-2018 18:50:00 8.3 C 8.09 g/m*3 8.3 C 0 km/h
3106 31-12-2018 18:55:00 8.3 C 8.09 g/m*3 8.3 C 0 km/h
3107 31-12-2018 19:00:00 8.2 C 8.04 g/m*3 8.2 C 0 km/h
3108 31-12-2018 19:05:00 8.2 C 8.04 g/m*3 8.2 C 0 km/h
3109 31-12-2018 19:10:00 8.2 C 8.04 g/m*3 8.2 C 0 km/h
3110 31-12-2018 19:15:00 8.2 C 8.04 g/m*3 8.2 C 0 km/h
3111 31-12-2018 19:20:00 8.1 C 7.99 g/m*3 8.1 C 0 km/h
3112 31-12-2018 19:25:00 8.1 C 7.99 g/m*3 8.1 C 0 km/h
3113 31-12-2018 19:30:00 8.1 C 7.99 g/m*3 8.1 C 4.8 km/h
3114 31-12-2018 19:35:00 8 C 7.94 g/m*3 8 C 0 km/h
3115 31-12-2018 19:40:00 8.1 C 8.07 g/m*3 8.1 C 0 km/h
3116 31-12-2018 19:45:00 8 C 8.02 g/m*3 8 C 0 km/h
3117 31-12-2018 19:50:00 8 C 8.02 g/m*3 8 C 0 km/h
3118 31-12-2018 19:55:00 8 C 8.02 g/m*3 8 C 0 km/h
3119 31-12-2018 20:00:00 7.9 C 7.97 g/m*3 7.9 C 0 km/h
3120 31-12-2018 20:05:00 7.9 C 7.97 g/m*3 7.9 C 0 km/h
3121 31-12-2018 20:10:00 7.9 C 7.97 g/m*3 7.9 C 1.6 km/h
3122 31-12-2018 20:15:00 7.9 C 7.89 g/m*3 7.9 C 0 km/h
3123 31-12-2018 20:20:00 7.9 C 7.89 g/m*3 7.9 C 0 km/h
3124 31-12-2018 20:25:00 7.9 C 7.89 g/m*3 7.9 C 0 km/h
3125 31-12-2018 20:30:00 7.9 C 7.89 g/m*3 7.9 C 0 km/h
Sensor: Nr:Datum:Temp:Abs-Feuchte:Windchill:Wind:
Aussen-T/F 3126 31-12-2018 20:35:00 7.8 C 7.83 g/m*3 7.8 C 1.6 km/h
3127 31-12-2018 20:40:00 7.8 C 7.83 g/m*3 7.8 C 0 km/h
3128 31-12-2018 20:45:00 7.8 C 7.92 g/m*3 7.8 C 1.6 km/h
3129 31-12-2018 20:50:00 7.8 C 7.92 g/m*3 7.8 C 0 km/h
3130 31-12-2018 20:55:00 7.8 C 7.92 g/m*3 7.8 C 0 km/h
3131 31-12-2018 21:00:00 7.8 C 7.92 g/m*3 7.8 C 0 km/h
3132 31-12-2018 21:05:00 7.8 C 7.92 g/m*3 7.8 C 0 km/h
3133 31-12-2018 21:10:00 7.8 C 7.92 g/m*3 7.8 C 0 km/h
3134 31-12-2018 21:15:00 7.8 C 7.92 g/m*3 7.8 C 0 km/h
3135 31-12-2018 21:20:00 7.8 C 7.92 g/m*3 7.8 C 0 km/h
3136 31-12-2018 21:25:00 7.8 C 7.92 g/m*3 7.8 C 0 km/h
3137 31-12-2018 21:30:00 7.8 C 7.92 g/m*3 7.8 C 1.6 km/h
3138 31-12-2018 21:35:00 7.8 C 7.92 g/m*3 7.8 C 0 km/h
3139 31-12-2018 21:40:00 7.7 C 7.87 g/m*3 7.7 C 0 km/h
3140 31-12-2018 21:45:00 7.7 C 7.87 g/m*3 7.7 C 0 km/h
3141 31-12-2018 21:50:00 7.7 C 7.87 g/m*3 7.7 C 0 km/h
3142 31-12-2018 21:55:00 7.7 C 7.87 g/m*3 7.7 C 0 km/h
3143 31-12-2018 22:00:00 7.7 C 7.87 g/m*3 7.7 C 1.6 km/h
3144 31-12-2018 22:05:00 7.6 C 7.81 g/m*3 7.6 C 0 km/h
3145 31-12-2018 22:10:00 7.7 C 7.87 g/m*3 6.71 C 6.4 km/h
3146 31-12-2018 22:15:00 7.7 C 7.87 g/m*3 6.71 C 6.4 km/h
3147 31-12-2018 22:20:00 7.8 C 7.92 g/m*3 7.8 C 1.6 km/h
3148 31-12-2018 22:25:00 7.7 C 7.87 g/m*3 6.28 C 8.1 km/h
3149 31-12-2018 22:30:00 7.7 C 7.87 g/m*3 6.28 C 8.1 km/h
3150 31-12-2018 22:35:00 7.7 C 7.87 g/m*3 7.7 C 1.6 km/h
Sensor: Nr:Datum:Temp:Abs-Feuchte:Windchill:Wind:
Aussen-T/F 3151 31-12-2018 22:40:00 7.7 C 7.87 g/m*3 7.7 C 0 km/h
3152 31-12-2018 22:45:00 7.6 C 7.81 g/m*3 7.6 C 1.6 km/h
3153 31-12-2018 22:50:00 7.6 C 7.81 g/m*3 7.6 C 0 km/h
3154 31-12-2018 22:55:00 7.6 C 7.81 g/m*3 7.6 C 3.2 km/h
3155 31-12-2018 23:00:00 7.6 C 7.81 g/m*3 7.6 C 1.6 km/h
3156 31-12-2018 23:05:00 7.6 C 7.81 g/m*3 7.6 C 0 km/h
3157 31-12-2018 23:10:00 7.6 C 7.81 g/m*3 7.6 C 3.2 km/h
3158 31-12-2018 23:15:00 7.6 C 7.81 g/m*3 7.6 C 0 km/h
3159 31-12-2018 23:20:00 7.6 C 7.81 g/m*3 7.6 C 1.6 km/h
3160 31-12-2018 23:25:00 7.5 C 7.76 g/m*3 7.5 C 3.2 km/h
3161 31-12-2018 23:30:00 7.5 C 7.76 g/m*3 7.5 C 3.2 km/h
3162 31-12-2018 23:35:00 7.5 C 7.76 g/m*3 7.5 C 3.2 km/h
3163 31-12-2018 23:40:00 7.5 C 7.76 g/m*3 7.5 C 3.2 km/h
3164 31-12-2018 23:45:00 7.5 C 7.76 g/m*3 7.5 C 0 km/h
3165 31-12-2018 23:50:00 7.4 C 7.71 g/m*3 7.4 C 0 km/h
3166 31-12-2018 23:55:00 7.4 C 7.71 g/m*3 7.4 C 0 km/h
3167 01-01-2019 00:00:00 7.4 C 7.71 g/m*3 7.4 C 0 km/h
3168 01-01-2019 00:05:00 7.4 C 7.71 g/m*3 7.4 C 0 km/h
3169 01-01-2019 00:10:00 7.4 C 7.71 g/m*3 7.4 C 0 km/h
3170 01-01-2019 00:15:00 7.4 C 7.71 g/m*3 7.4 C 0 km/h
3171 01-01-2019 00:20:00 7.4 C 7.71 g/m*3 7.4 C 0 km/h
3172 01-01-2019 00:25:00 7.4 C 7.71 g/m*3 7.4 C 0 km/h
3173 01-01-2019 00:30:00 7.4 C 7.71 g/m*3 7.4 C 1.6 km/h
3174 01-01-2019 00:35:00 7.4 C 7.71 g/m*3 7.4 C 1.6 km/h
3175 01-01-2019 00:40:00 7.4 C 7.71 g/m*3 7.4 C 0 km/h
Sensor: Nr:Datum:Temp:Abs-Feuchte:Windchill:Wind:
Aussen-T/F 3176 01-01-2019 00:45:00 7.4 C 7.71 g/m*3 7.4 C 0 km/h
3177 01-01-2019 00:50:00 7.4 C 7.71 g/m*3 7.4 C 0 km/h
3178 01-01-2019 00:55:00 7.4 C 7.71 g/m*3 7.4 C 1.6 km/h
3179 01-01-2019 01:00:00 7.4 C 7.71 g/m*3 7.4 C 0 km/h
3180 01-01-2019 01:05:00 7.3 C 7.66 g/m*3 7.3 C 0 km/h
3181 01-01-2019 01:10:00 7.3 C 7.66 g/m*3 7.3 C 0 km/h
3182 01-01-2019 01:15:00 7.3 C 7.66 g/m*3 7.3 C 1.6 km/h
3183 01-01-2019 01:20:00 7.2 C 7.61 g/m*3 7.2 C 0 km/h
3184 01-01-2019 01:25:00 7.2 C 7.61 g/m*3 7.2 C 0 km/h
3185 01-01-2019 01:30:00 7.2 C 7.61 g/m*3 7.2 C 4.8 km/h
3186 01-01-2019 01:35:00 7.2 C 7.61 g/m*3 7.2 C 1.6 km/h
3187 01-01-2019 01:40:00 7.2 C 7.61 g/m*3 7.2 C 4.8 km/h
3188 01-01-2019 01:45:00 7.2 C 7.61 g/m*3 7.2 C 1.6 km/h
3189 01-01-2019 01:50:00 7.2 C 7.61 g/m*3 7.2 C 1.6 km/h
3190 01-01-2019 01:55:00 7.3 C 7.66 g/m*3 7.3 C 4.8 km/h
3191 01-01-2019 02:00:00 7.3 C 7.66 g/m*3 7.3 C 3.2 km/h
3192 01-01-2019 02:05:00 7.3 C 7.66 g/m*3 7.3 C 1.6 km/h
3193 01-01-2019 02:10:00 7.3 C 7.66 g/m*3 7.3 C 1.6 km/h
3194 01-01-2019 02:15:00 7.3 C 7.66 g/m*3 7.3 C 0 km/h
3195 01-01-2019 02:20:00 7.3 C 7.66 g/m*3 6.25 C 6.4 km/h
3196 01-01-2019 02:25:00 7.3 C 7.66 g/m*3 6.25 C 6.4 km/h
3197 01-01-2019 02:30:00 7.3 C 7.66 g/m*3 7.3 C 1.6 km/h
3198 01-01-2019 02:35:00 7.3 C 7.66 g/m*3 7.3 C 3.2 km/h
3199 01-01-2019 02:40:00 7.3 C 7.66 g/m*3 7.3 C 1.6 km/h
3200 01-01-2019 02:45:00 7.4 C 7.71 g/m*3 7.4 C 3.2 km/h
Sensor: Nr:Datum:Temp:Abs-Feuchte:Windchill:Wind:
Aussen-T/F 3201 01-01-2019 02:50:00 7.4 C 7.71 g/m*3 7.4 C 3.2 km/h
3202 01-01-2019 02:55:00 7.4 C 7.71 g/m*3 6.37 C 6.4 km/h
3203 01-01-2019 03:00:00 7.4 C 7.71 g/m*3 7.4 C 3.2 km/h
3204 01-01-2019 03:05:00 7.4 C 7.71 g/m*3 7.4 C 1.6 km/h
3205 01-01-2019 03:10:00 7.4 C 7.71 g/m*3 7.4 C 3.2 km/h
3206 01-01-2019 03:15:00 7.4 C 7.71 g/m*3 7.4 C 3.2 km/h
3207 01-01-2019 03:20:00 7.4 C 7.71 g/m*3 7.4 C 0 km/h
3208 01-01-2019 03:25:00 7.3 C 7.66 g/m*3 7.3 C 0 km/h
3209 01-01-2019 03:30:00 7.3 C 7.66 g/m*3 7.3 C 0 km/h
3210 01-01-2019 03:35:00 7.3 C 7.66 g/m*3 7.3 C 0 km/h
3211 01-01-2019 03:40:00 7.3 C 7.66 g/m*3 7.3 C 0 km/h
3212 01-01-2019 03:45:00 7.3 C 7.66 g/m*3 7.3 C 0 km/h
3213 01-01-2019 03:50:00 7.3 C 7.66 g/m*3 7.3 C 1.6 km/h
3214 01-01-2019 03:55:00 7.3 C 7.66 g/m*3 7.3 C 3.2 km/h
3215 01-01-2019 04:00:00 7.3 C 7.66 g/m*3 7.3 C 0 km/h
3216 01-01-2019 04:05:00 7.3 C 7.66 g/m*3 7.3 C 1.6 km/h
3217 01-01-2019 04:10:00 7.3 C 7.66 g/m*3 7.3 C 0 km/h
3218 01-01-2019 04:15:00 7.3 C 7.66 g/m*3 7.3 C 0 km/h
3219 01-01-2019 04:20:00 7.2 C 7.61 g/m*3 7.2 C 0 km/h
3220 01-01-2019 04:25:00 7.2 C 7.61 g/m*3 7.2 C 0 km/h
3221 01-01-2019 04:30:00 7.2 C 7.61 g/m*3